Darstellungsparameter: Aktuell verwendete Einstellungen:
Skalierung der Graphiken ... ?
xyx+y,   Skalierungsfaktor:      Skalierung: Modus: x, Faktor: 1
Darstellungszeitraum ... ?
Vom - - bis: - -   Zeitraum: 16.05.2009 - 15.08.2009
Min/Max/Avg-Anzeige ... ?
Zeige MMA aktuell
Zeige MMA Monat
Zeige MMA alles
Zeige --A aktuell
Zeige --A Monat
Zeige --A alles
Keine MMA-Anzeige
MMA:
Minimum Maximum Average (ber die Originaldaten)
MMA-Basis: 16.05.2009 - 15.08.2009
Quicknavigation für Darstellung... ?
Tage:      1T, 2T, 3T, 5T -1T -2T -3T -5T +1T +2T +3T +5T
Wochen: 1W, 2W, 3W -1W -2W -3W +1W +2W +3W
Monate: 1M, 3M, 6M -1M -3M -6M +1M +3M +6M
Jahre:    1J, 3J, 5J, 10J -1J -3J -5J -10J +1J +3J +5J +10J
Nutze für die Darstellung ... ?
Originaldaten oder Mittelwerte auf ...
Stundenbasis Tagesbasis Wochenbasis
Monatsbasis Jahresbasis      Datenbasis: Original-Daten
Darstellen als:
Statistik (Auto) Statistik J:M      Darstellung:
Zur Graphik,    zurück zur Übersicht aller Sensoren.
 
Tabellarische Datenbersicht: ?
 
Sensor: Nr:Datum:Temp:Feuchte:Taupunkt:
Aussen-T/F 1 16-05-2009 00:01:53 12.4 C 82 % 9.42 C
2 16-05-2009 00:13:53 12.3 C 81 % 9.14 C
3 16-05-2009 00:25:54 12.3 C 82 % 9.32 C
4 16-05-2009 00:37:53 12.3 C 82 % 9.32 C
5 16-05-2009 00:49:54 12.2 C 81 % 9.04 C
6 16-05-2009 01:01:53 12.1 C 80 % 8.76 C
7 16-05-2009 01:13:53 12 C 81 % 8.84 C
8 16-05-2009 01:25:53 11.4 C 83 % 8.62 C
9 16-05-2009 01:37:52 11.1 C 84 % 8.5 C
10 16-05-2009 01:49:53 10.8 C 84 % 8.21 C
11 16-05-2009 02:01:53 10.5 C 83 % 7.74 C
12 16-05-2009 02:13:53 10.3 C 84 % 7.72 C
13 16-05-2009 02:25:52 10 C 84 % 7.43 C
14 16-05-2009 02:37:53 9.7 C 87 % 7.64 C
15 16-05-2009 02:50:53 9.6 C 88 % 7.71 C
16 16-05-2009 03:02:53 9.6 C 89 % 7.88 C
17 16-05-2009 03:14:54 9.4 C 89 % 7.68 C
18 16-05-2009 03:26:54 9.3 C 89 % 7.58 C
19 16-05-2009 03:38:53 9.3 C 90 % 7.75 C
20 16-05-2009 03:50:53 9.2 C 90 % 7.65 C
21 16-05-2009 04:02:53 9.1 C 90 % 7.55 C
22 16-05-2009 04:14:53 9.1 C 90 % 7.55 C
23 16-05-2009 04:26:53 9.4 C 89 % 7.68 C
24 16-05-2009 04:38:53 9.4 C 88 % 7.52 C
25 16-05-2009 04:50:53 8.9 C 89 % 7.19 C
Sensor: Nr:Datum:Temp:Feuchte:Taupunkt:
Aussen-T/F 26 16-05-2009 05:02:52 8.7 C 89 % 6.99 C
27 16-05-2009 05:14:52 8.4 C 89 % 6.7 C
28 16-05-2009 05:26:52 8.3 C 89 % 6.6 C
29 16-05-2009 05:38:52 8.2 C 89 % 6.5 C
30 16-05-2009 05:50:52 8.1 C 89 % 6.4 C
31 16-05-2009 06:02:52 8 C 89 % 6.3 C
32 16-05-2009 06:14:51 8 C 89 % 6.3 C
33 16-05-2009 06:26:51 8 C 89 % 6.3 C
34 16-05-2009 06:38:52 8.2 C 89 % 6.5 C
35 16-05-2009 06:50:51 8.4 C 88 % 6.53 C
36 16-05-2009 07:02:52 8.6 C 87 % 6.56 C
37 16-05-2009 07:14:51 8.9 C 85 % 6.52 C
38 16-05-2009 07:26:51 8.9 C 86 % 6.69 C
39 16-05-2009 07:38:51 9 C 86 % 6.79 C
40 16-05-2009 07:50:51 9.2 C 85 % 6.81 C
41 16-05-2009 08:02:51 9.5 C 84 % 6.94 C
42 16-05-2009 08:14:50 9.8 C 83 % 7.05 C
43 16-05-2009 08:26:50 10.7 C 75 % 6.46 C
44 16-05-2009 08:38:50 10.9 C 70 % 5.65 C
45 16-05-2009 08:50:50 10.9 C 71 % 5.86 C
46 16-05-2009 09:02:50 10.9 C 71 % 5.86 C
47 16-05-2009 09:14:50 11.2 C 71 % 6.14 C
48 16-05-2009 09:26:50 11.7 C 69 % 6.21 C
49 16-05-2009 09:38:50 12 C 67 % 6.07 C
50 16-05-2009 09:50:50 12.6 C 65 % 6.2 C
Sensor: Nr:Datum:Temp:Feuchte:Taupunkt:
Aussen-T/F 51 16-05-2009 10:02:49 12.4 C 64 % 5.79 C
52 16-05-2009 10:14:49 12.8 C 59 % 5 C
53 16-05-2009 10:26:49 12.8 C 59 % 5 C
54 16-05-2009 10:38:49 13.6 C 56 % 5 C
55 16-05-2009 10:50:49 13.8 C 52 % 4.13 C
56 16-05-2009 11:02:48 13.7 C 54 % 4.57 C
57 16-05-2009 11:14:49 13.6 C 53 % 4.21 C
58 16-05-2009 11:26:49 13.6 C 53 % 4.21 C
59 16-05-2009 11:38:49 14.1 C 50 % 3.85 C
60 16-05-2009 11:50:48 14.6 C 49 % 4.02 C
61 16-05-2009 12:02:49 15.8 C 46 % 4.22 C
62 16-05-2009 12:14:48 15.8 C 42 % 2.93 C
63 16-05-2009 12:26:48 16.2 C 40 % 2.6 C
64 16-05-2009 12:38:48 17 C 38 % 2.6 C
65 16-05-2009 12:50:48 16.7 C 36 % 1.57 C
66 16-05-2009 13:02:48 16.8 C 37 % 2.04 C
67 16-05-2009 13:14:47 16.4 C 37 % 1.69 C
68 16-05-2009 13:26:47 15.8 C 41 % 2.59 C
69 16-05-2009 13:38:47 16.6 C 40 % 2.96 C
70 16-05-2009 13:50:47 17.1 C 37 % 2.31 C
71 16-05-2009 14:02:47 17.7 C 36 % 2.46 C
72 16-05-2009 14:14:47 17.1 C 37 % 2.31 C
73 16-05-2009 14:26:47 17 C 38 % 2.6 C
74 16-05-2009 14:38:47 17.4 C 37 % 2.58 C
75 16-05-2009 14:50:47 17.4 C 37 % 2.58 C
Sensor: Nr:Datum:Temp:Feuchte:Taupunkt:
Aussen-T/F 76 16-05-2009 15:02:46 17.8 C 38 % 3.31 C
77 16-05-2009 15:14:46 18.2 C 37 % 3.29 C
78 16-05-2009 15:26:46 17.6 C 37 % 2.75 C
79 16-05-2009 15:38:47 17.8 C 38 % 3.31 C
80 16-05-2009 15:50:46 17.6 C 40 % 3.86 C
81 16-05-2009 16:02:46 17.4 C 40 % 3.68 C
82 16-05-2009 16:14:46 17.7 C 40 % 3.95 C
83 16-05-2009 16:26:46 17.7 C 40 % 3.95 C
84 16-05-2009 16:38:46 19.1 C 36 % 3.7 C
85 16-05-2009 16:50:45 19 C 35 % 3.21 C
86 16-05-2009 17:02:46 19.1 C 37 % 4.08 C
87 16-05-2009 17:14:45 18.7 C 37 % 3.73 C
88 16-05-2009 17:26:45 18.2 C 38 % 3.66 C
89 16-05-2009 17:38:45 18.5 C 38 % 3.93 C
90 16-05-2009 17:50:45 18.2 C 39 % 4.03 C
91 16-05-2009 18:02:45 20.4 C 33 % 3.6 C
92 16-05-2009 18:14:45 20.7 C 32 % 3.43 C
93 16-05-2009 18:26:45 20.9 C 32 % 3.61 C
94 16-05-2009 18:38:48 21 C 31 % 3.24 C
95 16-05-2009 18:50:44 20.7 C 34 % 4.29 C
96 16-05-2009 19:02:44 21.6 C 32 % 4.21 C
97 16-05-2009 19:14:44 20.8 C 34 % 4.38 C
98 16-05-2009 19:26:44 20.7 C 33 % 3.87 C
99 16-05-2009 19:38:44 20.2 C 36 % 4.67 C
100 16-05-2009 19:50:43 19.3 C 43 % 6.42 C
Sensor: Nr:Datum:Temp:Feuchte:Taupunkt:
Aussen-T/F 101 16-05-2009 20:02:44 18.7 C 45 % 6.54 C
102 16-05-2009 20:14:44 17.7 C 51 % 7.45 C
103 16-05-2009 20:26:44 17.3 C 54 % 7.91 C
104 16-05-2009 20:38:43 16.7 C 55 % 7.62 C
105 16-05-2009 20:50:44 16.1 C 55 % 7.07 C
106 16-05-2009 21:02:43 15.6 C 58 % 7.37 C
107 16-05-2009 21:14:43 15.2 C 57 % 6.75 C
108 16-05-2009 21:26:43 14.4 C 61 % 6.98 C
109 16-05-2009 21:38:42 14.1 C 62 % 6.94 C
110 16-05-2009 21:50:43 13.5 C 64 % 6.83 C
111 16-05-2009 22:02:43 13.3 C 65 % 6.87 C
112 16-05-2009 22:14:42 13.3 C 65 % 6.87 C
113 16-05-2009 22:26:42 13.2 C 68 % 7.43 C
114 16-05-2009 22:38:43 13.1 C 68 % 7.34 C
115 16-05-2009 22:50:42 13.1 C 67 % 7.12 C
116 16-05-2009 23:02:42 13.1 C 67 % 7.12 C
117 16-05-2009 23:14:41 13.2 C 68 % 7.43 C
118 16-05-2009 23:26:41 13.5 C 64 % 6.83 C
119 16-05-2009 23:38:42 13.8 C 62 % 6.65 C
120 16-05-2009 23:50:41 14 C 59 % 6.12 C
121 17-05-2009 00:02:41 14 C 58 % 5.88 C
122 17-05-2009 00:14:41 13.9 C 60 % 6.27 C
123 17-05-2009 00:26:41 13.9 C 61 % 6.51 C
124 17-05-2009 00:38:41 13.9 C 61 % 6.51 C
125 17-05-2009 00:50:41 13.6 C 63 % 6.7 C
Sensor: Nr:Datum:Temp:Feuchte:Taupunkt:
Aussen-T/F 126 17-05-2009 01:02:41 13.4 C 63 % 6.51 C
127 17-05-2009 01:14:40 13.5 C 63 % 6.6 C
128 17-05-2009 01:26:40 13.7 C 61 % 6.32 C
129 17-05-2009 01:38:41 13.6 C 62 % 6.47 C
130 17-05-2009 01:50:40 13.4 C 62 % 6.28 C
131 17-05-2009 02:02:40 13.6 C 62 % 6.47 C
132 17-05-2009 02:14:40 13.5 C 63 % 6.6 C
133 17-05-2009 02:26:40 13.2 C 64 % 6.55 C
134 17-05-2009 02:38:40 13.1 C 65 % 6.68 C
135 17-05-2009 02:51:01 12.8 C 67 % 6.83 C
136 17-05-2009 03:03:01 12.6 C 67 % 6.64 C
137 17-05-2009 03:15:01 12.1 C 69 % 6.59 C
138 17-05-2009 03:27:02 11.8 C 70 % 6.51 C
139 17-05-2009 03:39:01 11.6 C 72 % 6.73 C
140 17-05-2009 03:51:01 11.5 C 73 % 6.84 C
141 17-05-2009 04:03:01 11.6 C 72 % 6.73 C
142 17-05-2009 04:15:02 11.5 C 73 % 6.84 C
143 17-05-2009 04:27:02 12.1 C 67 % 6.17 C
144 17-05-2009 04:39:01 12.2 C 66 % 6.04 C
145 17-05-2009 04:51:01 11.9 C 69 % 6.4 C
146 17-05-2009 05:03:01 11.7 C 71 % 6.62 C
147 17-05-2009 05:15:01 11.3 C 72 % 6.44 C
148 17-05-2009 05:27:01 11 C 74 % 6.55 C
149 17-05-2009 05:39:01 10.8 C 75 % 6.55 C
150 17-05-2009 05:51:02 10.7 C 76 % 6.65 C
Sensor: Nr:Datum:Temp:Feuchte:Taupunkt:
Aussen-T/F 151 17-05-2009 06:03:01 10.7 C 76 % 6.65 C
152 17-05-2009 06:15:02 10.6 C 77 % 6.74 C
153 17-05-2009 06:27:02 10.5 C 78 % 6.83 C
154 17-05-2009 06:39:01 10.8 C 78 % 7.12 C
155 17-05-2009 06:51:02 11.1 C 77 % 7.23 C
156 17-05-2009 07:03:01 11.4 C 76 % 7.33 C
157 17-05-2009 07:15:01 11.9 C 76 % 7.81 C
158 17-05-2009 07:27:01 12.1 C 74 % 7.61 C
159 17-05-2009 07:39:02 12.1 C 72 % 7.21 C
160 17-05-2009 07:51:02 12.1 C 71 % 7.01 C
161 17-05-2009 08:03:01 11.7 C 76 % 7.62 C
162 17-05-2009 08:15:02 11.4 C 79 % 7.89 C
163 17-05-2009 08:27:02 11.9 C 82 % 8.93 C
164 17-05-2009 08:39:01 12.1 C 81 % 8.94 C
165 17-05-2009 08:51:02 12.4 C 82 % 9.42 C
166 17-05-2009 09:03:01 12.8 C 81 % 9.62 C
167 17-05-2009 09:15:01 13.3 C 79 % 9.74 C
168 17-05-2009 09:27:01 13.8 C 77 % 9.84 C
169 17-05-2009 09:39:01 14.4 C 69 % 8.79 C
170 17-05-2009 09:51:01 15.2 C 67 % 9.12 C
171 17-05-2009 10:03:02 15.7 C 63 % 8.68 C
172 17-05-2009 10:15:01 15.3 C 62 % 8.07 C
173 17-05-2009 10:27:01 15.4 C 60 % 7.68 C
174 17-05-2009 10:39:02 16.3 C 57 % 7.77 C
175 17-05-2009 10:51:01 17.5 C 54 % 8.1 C
Sensor: Nr:Datum:Temp:Feuchte:Taupunkt:
Aussen-T/F 176 17-05-2009 11:03:02 17.9 C 54 % 8.47 C
177 17-05-2009 11:15:01 18.5 C 52 % 8.47 C
178 17-05-2009 11:27:01 18.6 C 49 % 7.69 C
179 17-05-2009 11:39:01 20 C 50 % 9.27 C
180 17-05-2009 11:51:01 21.2 C 46 % 9.13 C
181 17-05-2009 12:03:01 22.3 C 42 % 8.78 C
182 17-05-2009 12:15:02 21.9 C 40 % 7.7 C
183 17-05-2009 12:27:02 21.3 C 45 % 8.89 C
184 17-05-2009 12:39:01 20.4 C 48 % 9.03 C
185 17-05-2009 12:51:02 21.3 C 45 % 8.89 C
186 17-05-2009 13:03:01 22 C 43 % 8.85 C
187 17-05-2009 13:15:02 22.7 C 41 % 8.78 C
188 17-05-2009 13:27:02 22.2 C 40 % 7.97 C
189 17-05-2009 13:39:01 23.3 C 38 % 8.19 C
190 17-05-2009 13:51:01 22.8 C 38 % 7.75 C
191 17-05-2009 14:03:01 22.4 C 40 % 8.15 C
192 17-05-2009 14:15:01 22 C 40 % 7.79 C
193 17-05-2009 14:27:01 21.3 C 40 % 7.16 C
194 17-05-2009 14:39:02 21.2 C 41 % 7.44 C
195 17-05-2009 14:51:01 21.4 C 41 % 7.62 C
196 17-05-2009 15:03:02 21.9 C 40 % 7.7 C
197 17-05-2009 15:15:01 22.8 C 39 % 8.13 C
198 17-05-2009 15:27:01 23 C 37 % 7.54 C
199 17-05-2009 15:39:01 23.4 C 37 % 7.89 C
200 17-05-2009 15:51:01 23.3 C 35 % 6.99 C
Sensor: Nr:Datum:Temp:Feuchte:Taupunkt:
Aussen-T/F 201 17-05-2009 16:03:01 23.5 C 33 % 6.31 C
202 17-05-2009 16:15:01 23.4 C 32 % 5.78 C
203 17-05-2009 16:27:01 23.9 C 32 % 6.21 C
204 17-05-2009 16:39:01 23.5 C 31 % 5.41 C
205 17-05-2009 16:51:01 24.2 C 27 % 4.04 C
206 17-05-2009 17:03:01 24.1 C 28 % 4.47 C
207 17-05-2009 17:15:02 24.1 C 28 % 4.47 C
208 17-05-2009 17:27:02 24.5 C 28 % 4.81 C
209 17-05-2009 17:39:01 24 C 30 % 5.37 C
210 17-05-2009 17:51:02 23.3 C 31 % 5.24 C
211 17-05-2009 18:03:01 22.9 C 32 % 5.35 C
212 17-05-2009 18:15:01 22.1 C 34 % 5.52 C
213 17-05-2009 18:27:02 21 C 35 % 4.97 C
214 17-05-2009 18:39:01 20.9 C 37 % 5.68 C
215 17-05-2009 18:51:01 20.4 C 41 % 6.72 C
216 17-05-2009 19:03:01 20.5 C 40 % 6.45 C
217 17-05-2009 19:15:01 20.9 C 40 % 6.81 C
218 17-05-2009 19:27:01 20.7 C 42 % 7.34 C
219 17-05-2009 19:39:02 20.4 C 42 % 7.07 C
220 17-05-2009 19:51:01 20.1 C 42 % 6.8 C
221 17-05-2009 20:03:02 19.7 C 45 % 7.44 C
222 17-05-2009 20:15:01 19.5 C 46 % 7.58 C
223 17-05-2009 20:27:01 19.3 C 48 % 8.03 C
224 17-05-2009 20:39:01 18.9 C 53 % 9.12 C
225 17-05-2009 20:51:01 19 C 50 % 8.35 C
Sensor: Nr:Datum:Temp:Feuchte:Taupunkt:
Aussen-T/F 226 17-05-2009 21:03:01 18.9 C 50 % 8.26 C
227 17-05-2009 21:15:01 18.5 C 48 % 7.29 C
228 17-05-2009 21:27:01 18.3 C 49 % 7.41 C
229 17-05-2009 21:39:02 18 C 50 % 7.43 C
230 17-05-2009 21:51:01 17.7 C 51 % 7.45 C
231 17-05-2009 22:03:02 17.5 C 50 % 6.97 C
232 17-05-2009 22:15:01 17.3 C 50 % 6.79 C
233 17-05-2009 22:27:01 17.2 C 51 % 6.98 C
234 17-05-2009 22:39:01 16.9 C 50 % 6.42 C
235 17-05-2009 22:51:01 16.8 C 50 % 6.33 C
236 17-05-2009 23:03:01 16.6 C 52 % 6.71 C
237 17-05-2009 23:15:01 16.3 C 51 % 6.16 C
238 17-05-2009 23:27:01 16.2 C 50 % 5.78 C
239 17-05-2009 23:39:01 16.2 C 47 % 4.89 C
240 17-05-2009 23:51:02 16.2 C 47 % 4.89 C
241 18-05-2009 00:03:01 16.1 C 48 % 5.1 C
242 18-05-2009 00:15:01 15.8 C 51 % 5.69 C
243 18-05-2009 00:27:01 15.6 C 53 % 6.06 C
244 18-05-2009 00:39:01 15.4 C 54 % 6.15 C
245 18-05-2009 00:51:01 15.4 C 55 % 6.42 C
246 18-05-2009 01:03:01 15.1 C 56 % 6.4 C
247 18-05-2009 01:15:02 14.9 C 58 % 6.72 C
248 18-05-2009 01:27:02 14.7 C 59 % 6.78 C
249 18-05-2009 01:39:01 14.7 C 58 % 6.53 C
250 18-05-2009 01:51:02 14.5 C 58 % 6.35 C
Sensor: Nr:Datum:Temp:Feuchte:Taupunkt:
Aussen-T/F 251 18-05-2009 02:03:01 14.5 C 59 % 6.59 C
252 18-05-2009 02:15:02 14.3 C 59 % 6.41 C
253 18-05-2009 02:27:02 14.2 C 60 % 6.56 C
254 18-05-2009 02:39:01 14 C 61 % 6.61 C
255 18-05-2009 02:51:30 13.7 C 62 % 6.56 C
256 18-05-2009 03:03:30 13.6 C 62 % 6.47 C
257 18-05-2009 03:15:29 13.3 C 63 % 6.41 C
258 18-05-2009 03:27:29 13 C 64 % 6.36 C
259 18-05-2009 03:39:29 12.6 C 66 % 6.42 C
260 18-05-2009 03:51:29 12.8 C 67 % 6.83 C
261 18-05-2009 04:03:28 13 C 67 % 7.02 C
262 18-05-2009 04:15:29 13.1 C 67 % 7.12 C
263 18-05-2009 04:27:29 12.8 C 68 % 7.05 C
264 18-05-2009 04:39:28 12.4 C 68 % 6.67 C
265 18-05-2009 04:51:28 12 C 70 % 6.71 C
266 18-05-2009 05:03:28 11.6 C 71 % 6.53 C
267 18-05-2009 05:15:28 11.7 C 73 % 7.03 C
268 18-05-2009 05:27:28 11.2 C 73 % 6.55 C
269 18-05-2009 05:39:28 11 C 74 % 6.55 C
270 18-05-2009 05:51:28 10.9 C 76 % 6.84 C
271 18-05-2009 06:03:28 10.8 C 77 % 6.94 C
272 18-05-2009 06:15:27 10.7 C 78 % 7.03 C
273 18-05-2009 06:27:27 10.7 C 79 % 7.21 C
274 18-05-2009 06:39:27 10.7 C 80 % 7.4 C
275 18-05-2009 06:51:27 10.8 C 80 % 7.49 C
Sensor: Nr:Datum:Temp:Feuchte:Taupunkt:
Aussen-T/F 276 18-05-2009 07:03:27 11 C 79 % 7.5 C
277 18-05-2009 07:15:27 11.3 C 79 % 7.8 C
278 18-05-2009 07:27:27 11.4 C 79 % 7.89 C
279 18-05-2009 07:39:27 11.6 C 79 % 8.09 C
280 18-05-2009 07:51:27 11.9 C 78 % 8.19 C
281 18-05-2009 08:03:26 12.1 C 77 % 8.2 C
282 18-05-2009 08:15:26 12.4 C 76 % 8.29 C
283 18-05-2009 08:27:26 12.8 C 76 % 8.68 C
284 18-05-2009 08:39:26 13.2 C 73 % 8.47 C
285 18-05-2009 08:51:26 13.7 C 71 % 8.54 C
286 18-05-2009 09:03:25 14.8 C 64 % 8.06 C
287 18-05-2009 09:15:26 15.4 C 57 % 6.93 C
288 18-05-2009 09:27:26 15.2 C 58 % 7 C
289 18-05-2009 09:39:26 15.2 C 58 % 7 C
290 18-05-2009 09:51:25 15.9 C 56 % 7.14 C
291 18-05-2009 10:03:26 16.5 C 53 % 6.9 C
292 18-05-2009 10:15:25 16.7 C 51 % 6.52 C
293 18-05-2009 10:27:25 17.1 C 48 % 6.01 C
294 18-05-2009 10:39:25 16.5 C 50 % 6.05 C
295 18-05-2009 10:51:25 16.6 C 50 % 6.15 C
296 18-05-2009 11:03:25 17 C 48 % 5.92 C
297 18-05-2009 11:15:24 17.3 C 46 % 5.58 C
298 18-05-2009 11:27:24 18 C 42 % 4.91 C
299 18-05-2009 11:39:24 17.6 C 42 % 4.55 C
300 18-05-2009 11:51:24 18.4 C 40 % 4.57 C
Sensor: Nr:Datum:Temp:Feuchte:Taupunkt:
Aussen-T/F 301 18-05-2009 12:03:24 18.5 C 39 % 4.3 C
302 18-05-2009 12:15:24 18.7 C 39 % 4.48 C
303 18-05-2009 12:27:24 19.4 C 36 % 3.96 C
304 18-05-2009 12:39:24 19.3 C 33 % 2.64 C
305 18-05-2009 12:51:24 19.3 C 30 % 1.31 C
306 18-05-2009 13:03:23 19.2 C 31 % 1.68 C
307 18-05-2009 13:15:23 20.6 C 29 % 1.96 C
308 18-05-2009 13:27:23 20.8 C 22 % -1.67 C
309 18-05-2009 13:39:24 21.1 C 20 % -2.71 C
310 18-05-2009 13:51:23 21.1 C 20 % -2.71 C
311 18-05-2009 14:03:23 20.7 C 20 % -3.04 C
312 18-05-2009 14:15:23 20.6 C 20 % -3.12 C
313 18-05-2009 14:27:23 20.8 C 20 % -2.95 C
314 18-05-2009 14:39:23 20.9 C 20 % -2.87 C
315 18-05-2009 14:51:22 21.6 C 20 % -2.3 C
316 18-05-2009 15:03:23 22.5 C 20 % -1.55 C
317 18-05-2009 15:15:22 22.2 C 20 % -1.8 C
318 18-05-2009 15:27:22 21.2 C 21 % -1.97 C
319 18-05-2009 15:39:22 22.3 C 20 % -1.72 C
320 18-05-2009 15:51:21 22.6 C 20 % -1.47 C
321 18-05-2009 16:03:22 22 C 21 % -1.3 C
322 18-05-2009 16:15:22 21.8 C 22 % -0.84 C
323 18-05-2009 16:27:22 21.4 C 22 % -1.17 C
324 18-05-2009 16:39:21 22.6 C 20 % -1.47 C
325 18-05-2009 16:51:22 22 C 20 % -1.97 C
Sensor: Nr:Datum:Temp:Feuchte:Taupunkt:
Aussen-T/F 326 18-05-2009 17:03:21 21.8 C 22 % -0.84 C
327 18-05-2009 17:15:21 22.8 C 21 % -0.64 C
328 18-05-2009 17:27:21 22.8 C 20 % -1.31 C
329 18-05-2009 17:39:21 22.2 C 21 % -1.14 C
330 18-05-2009 17:51:21 23.1 C 20 % -1.06 C
331 18-05-2009 18:03:21 22.4 C 20 % -1.64 C
332 18-05-2009 18:15:20 22.8 C 21 % -0.64 C
333 18-05-2009 18:27:20 22.6 C 20 % -1.47 C
334 18-05-2009 18:39:21 23.6 C 20 % -0.65 C
335 18-05-2009 18:51:20 23.7 C 20 % -0.57 C
336 18-05-2009 19:03:20 23.4 C 20 % -0.81 C
337 18-05-2009 19:15:19 23.4 C 20 % -0.81 C
338 18-05-2009 19:27:19 23.3 C 20 % -0.9 C
339 18-05-2009 19:39:20 22.3 C 21 % -1.06 C
340 18-05-2009 19:51:19 22.1 C 24 % 0.61 C
341 18-05-2009 20:03:20 22.3 C 24 % 0.78 C
342 18-05-2009 20:15:19 21.8 C 26 % 1.46 C
343 18-05-2009 20:27:19 21.6 C 27 % 1.82 C
344 18-05-2009 20:39:19 20.4 C 27 % 0.8 C
345 18-05-2009 20:51:19 19.4 C 30 % 1.4 C
346 18-05-2009 21:03:19 18.5 C 32 % 1.51 C
347 18-05-2009 21:15:19 17.9 C 38 % 3.4 C
348 18-05-2009 21:27:19 17.3 C 36 % 2.1 C
349 18-05-2009 21:39:19 17 C 38 % 2.6 C
350 18-05-2009 21:51:18 16.7 C 38 % 2.33 C
Sensor: Nr:Datum:Temp:Feuchte:Taupunkt:
Aussen-T/F 351 18-05-2009 22:04:20 16.1 C 40 % 2.51 C
352 18-05-2009 22:16:20 15.9 C 43 % 3.35 C
353 18-05-2009 22:28:20 15.2 C 43 % 2.72 C
354 18-05-2009 22:40:20 14.8 C 46 % 3.31 C
355 18-05-2009 22:52:20 14.6 C 46 % 3.12 C
356 18-05-2009 23:04:20 14 C 49 % 3.47 C
357 18-05-2009 23:16:20 13.9 C 51 % 3.94 C
358 18-05-2009 23:28:20 13.6 C 52 % 3.94 C
359 18-05-2009 23:40:20 13.5 C 53 % 4.12 C
360 18-05-2009 23:52:20 12.9 C 60 % 5.33 C
361 19-05-2009 00:04:20 12.8 C 60 % 5.24 C
362 19-05-2009 00:16:20 12.6 C 61 % 5.29 C
363 19-05-2009 00:28:20 12.5 C 61 % 5.19 C
364 19-05-2009 00:40:20 12.4 C 61 % 5.1 C
365 19-05-2009 00:52:20 12.1 C 60 % 4.58 C
366 19-05-2009 01:04:20 12 C 61 % 4.72 C
367 19-05-2009 01:16:20 11.6 C 64 % 5.03 C
368 19-05-2009 01:28:20 11.4 C 64 % 4.84 C
369 19-05-2009 01:40:20 11.2 C 64 % 4.65 C
370 19-05-2009 01:52:21 11 C 65 % 4.68 C
371 19-05-2009 02:04:21 10.9 C 65 % 4.59 C
372 19-05-2009 02:16:21 10.7 C 66 % 4.62 C
373 19-05-2009 02:28:21 10.4 C 67 % 4.55 C
374 19-05-2009 02:40:21 10.2 C 68 % 4.57 C
375 19-05-2009 02:52:21 10 C 70 % 4.79 C
Sensor: Nr:Datum:Temp:Feuchte:Taupunkt:
Aussen-T/F 376 19-05-2009 03:04:21 9.9 C 71 % 4.9 C
377 19-05-2009 03:16:21 9.8 C 71 % 4.8 C
378 19-05-2009 03:28:21 9.7 C 72 % 4.9 C
379 19-05-2009 03:40:21 9.4 C 72 % 4.62 C
380 19-05-2009 03:52:21 9.3 C 73 % 4.72 C
381 19-05-2009 04:04:21 9.3 C 73 % 4.72 C
382 19-05-2009 04:16:21 9.1 C 75 % 4.91 C
383 19-05-2009 04:28:21 8.9 C 76 % 4.91 C
384 19-05-2009 04:40:21 8.8 C 77 % 5 C
385 19-05-2009 04:52:21 8.6 C 78 % 4.99 C
386 19-05-2009 05:04:21 8.5 C 77 % 4.71 C
387 19-05-2009 05:16:21 8.4 C 78 % 4.79 C
388 19-05-2009 05:28:21 8.2 C 79 % 4.78 C
389 19-05-2009 05:40:22 8.2 C 79 % 4.78 C
390 19-05-2009 05:52:22 8.1 C 79 % 4.68 C
391 19-05-2009 06:04:22 8.1 C 79 % 4.68 C
392 19-05-2009 06:16:20 8.1 C 79 % 4.68 C
393 19-05-2009 06:28:20 8.1 C 80 % 4.86 C
394 19-05-2009 06:40:19 8.2 C 80 % 4.96 C
395 19-05-2009 06:52:19 9 C 80 % 5.74 C
396 19-05-2009 07:04:20 9.5 C 77 % 5.68 C
397 19-05-2009 07:16:19 9.7 C 75 % 5.49 C
398 19-05-2009 07:28:19 9.6 C 75 % 5.39 C
399 19-05-2009 07:40:19 9.6 C 74 % 5.2 C
400 19-05-2009 07:52:19 9.7 C 74 % 5.3 C
Sensor: Nr:Datum:Temp:Feuchte:Taupunkt:
Aussen-T/F 401 19-05-2009 08:04:19 10.3 C 72 % 5.48 C
402 19-05-2009 08:16:18 10.5 C 69 % 5.06 C
403 19-05-2009 08:28:18 10.5 C 69 % 5.06 C
404 19-05-2009 08:40:18 10.8 C 68 % 5.14 C
405 19-05-2009 08:52:18 11.5 C 66 % 5.38 C
406 19-05-2009 09:04:18 12.5 C 63 % 5.66 C
407 19-05-2009 09:16:18 13.1 C 60 % 5.52 C
408 19-05-2009 09:28:18 14.1 C 58 % 5.97 C
409 19-05-2009 09:40:18 14.3 C 59 % 6.41 C
410 19-05-2009 09:52:18 15.8 C 54 % 6.52 C
411 19-05-2009 10:04:17 15.8 C 54 % 6.52 C
412 19-05-2009 10:16:17 16.2 C 54 % 6.89 C
413 19-05-2009 10:28:18 16.8 C 51 % 6.62 C
414 19-05-2009 10:40:17 17.7 C 50 % 7.16 C
415 19-05-2009 10:52:17 18.9 C 45 % 6.72 C
416 19-05-2009 11:04:16 19.7 C 43 % 6.78 C
417 19-05-2009 11:16:17 19.9 C 41 % 6.27 C
418 19-05-2009 11:28:17 20.4 C 38 % 5.62 C
419 19-05-2009 11:40:17 21 C 33 % 4.13 C
420 19-05-2009 11:52:16 21.2 C 33 % 4.3 C
421 19-05-2009 12:04:17 22.1 C 31 % 4.2 C
422 19-05-2009 12:16:16 22.8 C 28 % 3.36 C
423 19-05-2009 12:28:16 22.4 C 28 % 3.01 C
424 19-05-2009 12:40:16 21.9 C 28 % 2.59 C
425 19-05-2009 12:52:15 25.1 C 22 % 1.91 C
Sensor: Nr:Datum:Temp:Feuchte:Taupunkt:
Aussen-T/F 426 19-05-2009 13:04:16 23.5 C 28 % 3.96 C
427 19-05-2009 13:16:16 23.6 C 25 % 2.44 C
428 19-05-2009 13:28:16 23.9 C 22 % 0.91 C
429 19-05-2009 13:40:15 24.8 C 20 % 0.34 C
430 19-05-2009 13:52:16 24.2 C 23 % 1.78 C
431 19-05-2009 14:04:15 23.8 C 24 % 2.04 C
432 19-05-2009 14:16:15 23.5 C 31 % 5.41 C
433 19-05-2009 14:28:16 23.7 C 33 % 6.49 C
434 19-05-2009 14:40:14 22.7 C 36 % 6.87 C
435 19-05-2009 14:52:15 24.1 C 29 % 4.97 C
436 19-05-2009 15:04:14 25.4 C 22 % 2.16 C
437 19-05-2009 15:16:14 24.1 C 31 % 5.93 C
438 19-05-2009 15:28:14 23.2 C 36 % 7.31 C
439 19-05-2009 15:40:15 26 C 23 % 3.28 C
440 19-05-2009 15:52:14 27.4 C 22 % 3.82 C
441 19-05-2009 16:04:14 27.7 C 20 % 2.72 C
442 19-05-2009 16:16:13 28.2 C 20 % 3.13 C
443 19-05-2009 16:28:13 27.9 C 20 % 2.88 C
444 19-05-2009 16:40:14 27.3 C 25 % 5.56 C
445 19-05-2009 16:52:13 26.5 C 24 % 4.3 C
446 19-05-2009 17:04:13 25.9 C 26 % 4.94 C
447 19-05-2009 17:16:14 24.9 C 31 % 6.62 C
448 19-05-2009 17:28:14 21.6 C 53 % 11.62 C
449 19-05-2009 17:40:13 23.8 C 49 % 12.45 C
450 19-05-2009 17:52:13 23.6 C 45 % 10.98 C
Sensor: Nr:Datum:Temp:Feuchte:Taupunkt:
Aussen-T/F 451 19-05-2009 18:04:13 23.7 C 42 % 10.03 C
452 19-05-2009 18:16:13 25.1 C 31 % 6.79 C
453 19-05-2009 18:28:14 24.9 C 38 % 9.61 C
454 19-05-2009 18:40:12 24.1 C 39 % 9.29 C
455 19-05-2009 18:52:12 23.7 C 44 % 10.73 C
456 19-05-2009 19:04:12 23.1 C 45 % 10.53 C
457 19-05-2009 19:16:12 22 C 46 % 9.86 C
458 19-05-2009 19:28:12 21.6 C 46 % 9.49 C
459 19-05-2009 19:40:12 21.2 C 49 % 10.07 C
460 19-05-2009 19:52:12 20.6 C 52 % 10.41 C
461 19-05-2009 20:04:12 18.5 C 54 % 9.03 C
462 19-05-2009 20:16:11 16.9 C 64 % 10.05 C
463 19-05-2009 20:28:11 15.7 C 72 % 10.67 C
464 19-05-2009 20:40:12 15.6 C 77 % 11.59 C
465 19-05-2009 20:52:11 16.1 C 77 % 12.07 C
466 19-05-2009 21:04:11 15.9 C 78 % 12.07 C
467 19-05-2009 21:16:11 15.9 C 79 % 12.27 C
468 19-05-2009 21:28:12 15.8 C 77 % 11.78 C
469 19-05-2009 21:40:10 15.7 C 76 % 11.48 C
470 19-05-2009 21:52:11 15.6 C 76 % 11.39 C
471 19-05-2009 22:04:10 15.3 C 75 % 10.9 C
472 19-05-2009 22:16:10 15.3 C 74 % 10.7 C
473 19-05-2009 22:28:10 15 C 74 % 10.41 C
474 19-05-2009 22:41:13 14.7 C 75 % 10.32 C
475 19-05-2009 22:53:13 14.7 C 75 % 10.32 C
Sensor: Nr:Datum:Temp:Feuchte:Taupunkt:
Aussen-T/F 476 19-05-2009 23:05:13 14.4 C 75 % 10.03 C
477 19-05-2009 23:17:13 14.2 C 76 % 10.03 C
478 19-05-2009 23:29:13 14.1 C 76 % 9.94 C
479 19-05-2009 23:41:13 13.9 C 79 % 10.32 C
480 19-05-2009 23:53:13 13.7 C 78 % 9.94 C
481 20-05-2009 00:05:13 13.6 C 79 % 10.03 C
482 20-05-2009 00:17:13 13.3 C 78 % 9.55 C
483 20-05-2009 00:29:13 13.4 C 78 % 9.65 C
484 20-05-2009 00:41:13 13.2 C 78 % 9.45 C
485 20-05-2009 00:53:14 13.1 C 78 % 9.36 C
486 20-05-2009 01:05:14 13 C 78 % 9.26 C
487 20-05-2009 01:17:14 12.8 C 79 % 9.25 C
488 20-05-2009 01:29:14 12.6 C 79 % 9.06 C
489 20-05-2009 01:41:14 12.5 C 79 % 8.96 C
490 20-05-2009 01:53:14 12.4 C 80 % 9.05 C
491 20-05-2009 02:05:14 12.2 C 80 % 8.86 C
492 20-05-2009 02:17:14 12.1 C 81 % 8.94 C
493 20-05-2009 02:29:14 12 C 81 % 8.84 C
494 20-05-2009 02:41:14 11.8 C 81 % 8.65 C
495 20-05-2009 02:53:14 11.8 C 82 % 8.83 C
496 20-05-2009 03:05:14 11.8 C 83 % 9.01 C
497 20-05-2009 03:17:14 11.5 C 84 % 8.89 C
498 20-05-2009 03:29:14 11.3 C 85 % 8.87 C
499 20-05-2009 03:41:14 11.1 C 85 % 8.68 C
500 20-05-2009 03:53:14 11.1 C 86 % 8.85 C
Sensor: Nr:Datum:Temp:Feuchte:Taupunkt:
Aussen-T/F 501 20-05-2009 04:05:14 11 C 86 % 8.75 C
502 20-05-2009 04:17:14 10.9 C 86 % 8.65 C
503 20-05-2009 04:29:15 10.8 C 86 % 8.56 C
504 20-05-2009 04:41:15 10.6 C 86 % 8.36 C
505 20-05-2009 04:53:15 10.4 C 87 % 8.33 C
506 20-05-2009 05:05:15 10.3 C 87 % 8.23 C
507 20-05-2009 05:17:15 10.3 C 88 % 8.4 C
508 20-05-2009 05:29:15 10.2 C 88 % 8.3 C
509 20-05-2009 05:41:15 10 C 88 % 8.11 C
510 20-05-2009 05:53:15 10.1 C 88 % 8.21 C
511 20-05-2009 06:05:15 10.2 C 88 % 8.3 C
512 20-05-2009 06:17:15 10.4 C 88 % 8.5 C
513 20-05-2009 06:29:15 10.6 C 87 % 8.53 C
514 20-05-2009 06:41:15 10.7 C 87 % 8.63 C
515 20-05-2009 06:53:12 10.8 C 86 % 8.56 C
516 20-05-2009 07:05:12 10.9 C 86 % 8.65 C
517 20-05-2009 07:17:11 11 C 86 % 8.75 C
518 20-05-2009 07:29:11 11 C 86 % 8.75 C
519 20-05-2009 07:41:12 11.4 C 85 % 8.97 C
520 20-05-2009 07:53:11 11.5 C 84 % 8.89 C
521 20-05-2009 08:05:11 11.7 C 84 % 9.09 C
522 20-05-2009 08:17:10 12.1 C 82 % 9.12 C
523 20-05-2009 08:29:10 12.8 C 79 % 9.25 C
524 20-05-2009 08:41:11 13.2 C 76 % 9.07 C
525 20-05-2009 08:53:10 13.9 C 74 % 9.35 C
Sensor: Nr:Datum:Temp:Feuchte:Taupunkt:
Aussen-T/F 526 20-05-2009 09:05:10 14 C 72 % 9.04 C
527 20-05-2009 09:17:11 14.4 C 72 % 9.42 C
528 20-05-2009 09:29:11 15 C 70 % 9.58 C
529 20-05-2009 09:41:10 15.9 C 68 % 10.01 C
530 20-05-2009 09:53:10 16.6 C 64 % 9.77 C
531 20-05-2009 10:05:10 17 C 64 % 10.15 C
532 20-05-2009 10:17:10 17.5 C 64 % 10.62 C
533 20-05-2009 10:29:10 17.8 C 64 % 10.9 C
534 20-05-2009 10:41:10 17.9 C 61 % 10.28 C
535 20-05-2009 10:53:10 18.6 C 59 % 10.44 C
536 20-05-2009 11:05:10 19.2 C 54 % 9.67 C
537 20-05-2009 11:17:09 20.4 C 50 % 9.64 C
538 20-05-2009 11:29:09 20.8 C 48 % 9.4 C
539 20-05-2009 11:41:09 21.6 C 45 % 9.17 C
540 20-05-2009 11:53:09 22.5 C 42 % 8.96 C
541 20-05-2009 12:05:09 23.1 C 40 % 8.77 C
542 20-05-2009 12:17:08 23.4 C 38 % 8.28 C
543 20-05-2009 12:29:08 24.2 C 35 % 7.78 C
544 20-05-2009 12:41:08 24.7 C 32 % 6.91 C
545 20-05-2009 12:53:08 25.2 C 32 % 7.34 C
546 20-05-2009 13:05:08 25.5 C 30 % 6.66 C
547 20-05-2009 13:17:08 26.6 C 29 % 7.12 C
548 20-05-2009 13:29:08 26.8 C 26 % 5.7 C
549 20-05-2009 13:41:08 26.3 C 27 % 5.82 C
550 20-05-2009 13:53:08 26 C 27 % 5.57 C
Sensor: Nr:Datum:Temp:Feuchte:Taupunkt:
Aussen-T/F 551 20-05-2009 14:05:07 25.4 C 30 % 6.58 C
552 20-05-2009 14:17:08 25.5 C 30 % 6.66 C
553 20-05-2009 14:29:08 26.4 C 29 % 6.94 C
554 20-05-2009 14:41:07 27.2 C 27 % 6.59 C
555 20-05-2009 14:53:07 28 C 25 % 6.15 C
556 20-05-2009 15:05:07 28.1 C 26 % 6.8 C
557 20-05-2009 15:17:07 27.9 C 28 % 7.72 C
558 20-05-2009 15:29:07 28.4 C 25 % 6.49 C
559 20-05-2009 15:41:07 28.6 C 26 % 7.23 C
560 20-05-2009 15:53:06 28.7 C 26 % 7.31 C
561 20-05-2009 16:05:07 28 C 26 % 6.72 C
562 20-05-2009 16:17:06 27.7 C 28 % 7.55 C
563 20-05-2009 16:29:06 26.4 C 32 % 8.39 C
564 20-05-2009 16:41:06 27 C 27 % 6.42 C
565 20-05-2009 16:53:06 28.2 C 27 % 7.44 C
566 20-05-2009 17:05:06 28.8 C 25 % 6.82 C
567 20-05-2009 17:17:06 28.2 C 30 % 8.99 C
568 20-05-2009 17:29:06 27.7 C 31 % 9.04 C
569 20-05-2009 17:41:05 27.4 C 33 % 9.71 C
570 20-05-2009 17:53:06 26.8 C 34 % 9.63 C
571 20-05-2009 18:05:05 27.7 C 32 % 9.51 C
572 20-05-2009 18:17:05 26.5 C 35 % 9.8 C
573 20-05-2009 18:29:06 26.3 C 36 % 10.05 C
574 20-05-2009 18:41:05 26.1 C 36 % 9.87 C
575 20-05-2009 18:53:05 25.5 C 41 % 11.29 C
Sensor: Nr:Datum:Temp:Feuchte:Taupunkt:
Aussen-T/F 576 20-05-2009 19:05:05 24.8 C 43 % 11.38 C
577 20-05-2009 19:17:04 24.5 C 44 % 11.45 C
578 20-05-2009 19:29:04 23.9 C 46 % 11.58 C
579 20-05-2009 19:41:05 23.8 C 46 % 11.49 C
580 20-05-2009 19:53:04 23.5 C 48 % 11.86 C
581 20-05-2009 20:05:04 23.1 C 49 % 11.81 C
582 20-05-2009 20:17:04 22.2 C 53 % 12.17 C
583 20-05-2009 20:29:04 21.8 C 55 % 12.36 C
584 20-05-2009 20:41:04 21.5 C 55 % 12.08 C
585 20-05-2009 20:53:03 21.3 C 57 % 12.44 C
586 20-05-2009 21:05:04 20.8 C 58 % 12.24 C
587 20-05-2009 21:17:04 20.4 C 58 % 11.86 C
588 20-05-2009 21:29:04 20.3 C 59 % 12.03 C
589 20-05-2009 21:41:03 19.8 C 61 % 12.07 C
590 20-05-2009 21:53:04 19.5 C 61 % 11.78 C
591 20-05-2009 22:05:03 19.2 C 62 % 11.75 C
592 20-05-2009 22:17:03 19.1 C 63 % 11.9 C
593 20-05-2009 22:29:03 19 C 63 % 11.8 C
594 20-05-2009 22:41:02 18.9 C 65 % 12.18 C
595 20-05-2009 22:54:04 18.7 C 67 % 12.45 C
596 20-05-2009 23:06:04 18.4 C 67 % 12.17 C
597 20-05-2009 23:18:04 18.3 C 69 % 12.52 C
598 20-05-2009 23:30:04 18.2 C 69 % 12.42 C
599 20-05-2009 23:42:04 18.2 C 71 % 12.86 C
600 20-05-2009 23:54:04 18.1 C 70 % 12.55 C
Sensor: Nr:Datum:Temp:Feuchte:Taupunkt:
Aussen-T/F 601 21-05-2009 00:06:04 17.7 C 72 % 12.59 C
602 21-05-2009 00:18:04 17.5 C 72 % 12.4 C
603 21-05-2009 00:30:04 17.5 C 73 % 12.61 C
604 21-05-2009 00:42:04 17.4 C 73 % 12.51 C
605 21-05-2009 00:54:04 17.1 C 74 % 12.43 C
606 21-05-2009 01:06:04 16.9 C 75 % 12.44 C
607 21-05-2009 01:18:04 16.8 C 76 % 12.55 C
608 21-05-2009 01:30:04 16.4 C 76 % 12.16 C
609 21-05-2009 01:42:04 16.2 C 77 % 12.17 C
610 21-05-2009 01:54:04 16.2 C 76 % 11.97 C
611 21-05-2009 02:06:04 16 C 77 % 11.97 C
612 21-05-2009 02:18:05 15.7 C 78 % 11.88 C
613 21-05-2009 02:30:05 15.6 C 79 % 11.97 C
614 21-05-2009 02:42:05 15.4 C 79 % 11.78 C
615 21-05-2009 02:54:05 15.2 C 79 % 11.59 C
616 21-05-2009 03:06:05 15.2 C 79 % 11.59 C
617 21-05-2009 03:18:05 15.2 C 79 % 11.59 C
618 21-05-2009 03:30:05 15 C 80 % 11.58 C
619 21-05-2009 03:42:05 15 C 80 % 11.58 C
620 21-05-2009 03:54:05 15 C 79 % 11.39 C
621 21-05-2009 04:06:05 14.9 C 81 % 11.67 C
622 21-05-2009 04:18:05 14.7 C 82 % 11.66 C
623 21-05-2009 04:30:05 14.7 C 82 % 11.66 C
624 21-05-2009 04:42:05 14.7 C 82 % 11.66 C
625 21-05-2009 04:54:05 14.7 C 81 % 11.48 C
Sensor: Nr:Datum:Temp:Feuchte:Taupunkt:
Aussen-T/F 626 21-05-2009 05:06:05 14.7 C 81 % 11.48 C
627 21-05-2009 05:18:05 14.6 C 81 % 11.38 C
628 21-05-2009 05:30:05 14.5 C 81 % 11.28 C
629 21-05-2009 05:42:05 14.6 C 81 % 11.38 C
630 21-05-2009 05:54:05 14.6 C 81 % 11.38 C
631 21-05-2009 06:06:06 14.6 C 82 % 11.56 C
632 21-05-2009 06:18:06 14.3 C 83 % 11.45 C
633 21-05-2009 06:30:06 14.4 C 83 % 11.55 C
634 21-05-2009 06:42:06 14.5 C 83 % 11.65 C
635 21-05-2009 06:54:06 14.5 C 83 % 11.65 C
636 21-05-2009 07:06:06 14.6 C 83 % 11.75 C
637 21-05-2009 07:18:03 14.4 C 84 % 11.73 C
638 21-05-2009 07:30:04 14.6 C 85 % 12.11 C
639 21-05-2009 07:42:04 14.7 C 85 % 12.21 C
640 21-05-2009 07:54:03 14.8 C 84 % 12.12 C
641 21-05-2009 08:06:03 15.1 C 83 % 12.24 C
642 21-05-2009 08:18:04 15.6 C 82 % 12.54 C
643 21-05-2009 08:30:03 16 C 78 % 12.17 C
644 21-05-2009 08:42:03 16.3 C 76 % 12.07 C
645 21-05-2009 08:54:03 16.6 C 75 % 12.15 C
646 21-05-2009 09:06:03 16.3 C 77 % 12.26 C
647 21-05-2009 09:18:03 16.6 C 78 % 12.75 C
648 21-05-2009 09:30:03 17.3 C 74 % 12.62 C
649 21-05-2009 09:42:03 18.1 C 69 % 12.33 C
650 21-05-2009 09:54:03 18.6 C 68 % 12.58 C
Sensor: Nr:Datum:Temp:Feuchte:Taupunkt:
Aussen-T/F 651 21-05-2009 10:06:02 19.5 C 64 % 12.51 C
652 21-05-2009 10:18:02 20.3 C 60 % 12.29 C
653 21-05-2009 10:30:02 20.9 C 58 % 12.33 C
654 21-05-2009 10:42:02 21.7 C 57 % 12.81 C
655 21-05-2009 10:54:02 22.5 C 53 % 12.45 C
656 21-05-2009 11:06:01 22.4 C 49 % 11.17 C
657 21-05-2009 11:18:02 22.3 C 48 % 10.77 C
658 21-05-2009 11:30:01 23.2 C 45 % 10.62 C
659 21-05-2009 11:42:01 23 C 45 % 10.43 C
660 21-05-2009 11:54:02 23.7 C 43 % 10.39 C
661 21-05-2009 12:06:01 24.5 C 41 % 10.39 C
662 21-05-2009 12:18:01 24.3 C 43 % 10.93 C
663 21-05-2009 12:30:01 25.2 C 40 % 10.65 C
664 21-05-2009 12:42:01 26.1 C 37 % 10.28 C
665 21-05-2009 12:54:01 27.4 C 35 % 10.59 C
666 21-05-2009 13:06:01 27.2 C 34 % 9.98 C
667 21-05-2009 13:18:00 26.4 C 36 % 10.13 C
668 21-05-2009 13:30:01 26.7 C 37 % 10.81 C
669 21-05-2009 13:42:01 26.7 C 37 % 10.81 C
670 21-05-2009 13:54:00 25.1 C 40 % 10.56 C
671 21-05-2009 14:06:00 24.6 C 42 % 10.84 C
672 21-05-2009 14:18:00 24.6 C 41 % 10.48 C
673 21-05-2009 14:30:00 24.1 C 43 % 10.75 C
674 21-05-2009 14:42:00 25.3 C 39 % 10.36 C
675 21-05-2009 14:54:59 26.9 C 35 % 10.15 C
Sensor: Nr:Datum:Temp:Feuchte:Taupunkt:
Aussen-T/F 676 21-05-2009 15:05:59 26.4 C 35 % 9.71 C
677 21-05-2009 15:18:00 25.4 C 39 % 10.45 C
678 21-05-2009 15:30:59 24.5 C 41 % 10.39 C
679 21-05-2009 15:42:59 24.2 C 41 % 10.12 C
680 21-05-2009 15:54:59 25 C 40 % 10.47 C
681 21-05-2009 16:06:59 24.8 C 40 % 10.29 C
682 21-05-2009 16:18:59 24.1 C 39 % 9.29 C
683 21-05-2009 16:30:59 24.6 C 40 % 10.11 C
684 21-05-2009 16:42:59 25.8 C 39 % 10.8 C
685 21-05-2009 16:54:58 24.7 C 40 % 10.2 C
686 21-05-2009 17:06:58 25.1 C 39 % 10.18 C
687 21-05-2009 17:18:59 25.1 C 39 % 10.18 C
688 21-05-2009 17:30:58 24.8 C 40 % 10.29 C
689 21-05-2009 17:42:58 24.4 C 44 % 11.36 C
690 21-05-2009 17:54:58 23.5 C 47 % 11.54 C
691 21-05-2009 18:06:58 23.3 C 45 % 10.71 C
692 21-05-2009 18:18:58 23.1 C 51 % 12.42 C
693 21-05-2009 18:30:57 22.7 C 51 % 12.05 C
694 21-05-2009 18:42:57 22.4 C 51 % 11.77 C
695 21-05-2009 18:54:58 22.3 C 51 % 11.68 C
696 21-05-2009 19:06:57 22 C 51 % 11.4 C
697 21-05-2009 19:18:57 21.9 C 51 % 11.31 C
698 21-05-2009 19:30:57 21.9 C 51 % 11.31 C
699 21-05-2009 19:42:57 21.7 C 52 % 11.42 C
700 21-05-2009 19:54:57 21.6 C 51 % 11.04 C
Sensor: Nr:Datum:Temp:Feuchte:Taupunkt:
Aussen-T/F 701 21-05-2009 20:06:56 20.9 C 51 % 10.39 C
702 21-05-2009 20:18:56 19.4 C 55 % 10.13 C
703 21-05-2009 20:30:57 19.3 C 59 % 11.09 C
704 21-05-2009 20:42:57 17.4 C 77 % 13.33 C
705 21-05-2009 20:54:56 16.4 C 85 % 13.87 C
706 21-05-2009 21:06:56 16.2 C 87 % 14.03 C
707 21-05-2009 21:18:55 16.1 C 88 % 14.11 C
708 21-05-2009 21:30:56 16.1 C 89 % 14.29 C
709 21-05-2009 21:42:56 16.2 C 89 % 14.39 C
710 21-05-2009 21:54:55 16.2 C 89 % 14.39 C
711 21-05-2009 22:06:55 15.8 C 90 % 14.16 C
712 21-05-2009 22:18:56 15.8 C 90 % 14.16 C
713 21-05-2009 22:30:55 15.8 C 90 % 14.16 C
714 21-05-2009 22:42:55 15.7 C 90 % 14.06 C
715 21-05-2009 22:54:55 15.4 C 89 % 13.6 C
716 21-05-2009 23:06:55 15 C 87 % 12.86 C
717 21-05-2009 23:18:55 14.6 C 87 % 12.46 C
718 21-05-2009 23:30:54 14.1 C 86 % 11.8 C
719 21-05-2009 23:42:54 13.7 C 85 % 11.23 C
720 21-05-2009 23:54:54 13.8 C 85 % 11.32 C
721 22-05-2009 00:06:54 13.5 C 84 % 10.85 C
722 22-05-2009 00:18:55 13.4 C 83 % 10.57 C
723 22-05-2009 00:30:54 13.3 C 84 % 10.66 C
724 22-05-2009 00:42:54 13.3 C 84 % 10.66 C
725 22-05-2009 00:54:54 13.4 C 85 % 10.93 C
Sensor: Nr:Datum:Temp:Feuchte:Taupunkt:
Aussen-T/F 726 22-05-2009 01:06:53 13.3 C 85 % 10.83 C
727 22-05-2009 01:18:54 13.4 C 85 % 10.93 C
728 22-05-2009 01:30:53 13.2 C 84 % 10.56 C
729 22-05-2009 01:42:53 13.1 C 83 % 10.28 C
730 22-05-2009 01:54:53 13.3 C 84 % 10.66 C
731 22-05-2009 02:06:53 13.4 C 83 % 10.57 C
732 22-05-2009 02:18:53 13.4 C 81 % 10.21 C
733 22-05-2009 02:30:53 13.5 C 80 % 10.12 C
734 22-05-2009 02:42:53 13.3 C 80 % 9.93 C
735 22-05-2009 02:56:01 13.2 C 80 % 9.83 C
736 22-05-2009 03:08:01 13.1 C 79 % 9.54 C
737 22-05-2009 03:20:02 13.2 C 79 % 9.64 C
738 22-05-2009 03:32:01 13.4 C 79 % 9.84 C
739 22-05-2009 03:44:01 13.5 C 79 % 9.93 C
740 22-05-2009 03:56:01 13.2 C 80 % 9.83 C
741 22-05-2009 04:07:53 13.1 C 81 % 9.92 C
742 22-05-2009 04:19:54 13 C 80 % 9.63 C
743 22-05-2009 04:31:54 13.1 C 79 % 9.54 C
744 22-05-2009 04:43:54 13 C 78 % 9.26 C
745 22-05-2009 04:55:54 12.8 C 79 % 9.25 C
746 22-05-2009 05:07:53 12.9 C 79 % 9.35 C
747 22-05-2009 05:19:53 13 C 79 % 9.45 C
748 22-05-2009 05:31:53 12.9 C 79 % 9.35 C
749 22-05-2009 05:43:53 13 C 78 % 9.26 C
750 22-05-2009 05:55:53 12.8 C 78 % 9.06 C
Sensor: Nr:Datum:Temp:Feuchte:Taupunkt:
Aussen-T/F 751 22-05-2009 06:07:53 12.7 C 79 % 9.16 C
752 22-05-2009 06:19:52 12.4 C 78 % 8.68 C
753 22-05-2009 06:31:52 12.5 C 78 % 8.77 C
754 22-05-2009 06:43:52 12.5 C 79 % 8.96 C
755 22-05-2009 06:55:52 12.7 C 80 % 9.34 C
756 22-05-2009 07:07:52 13.2 C 80 % 9.83 C
757 22-05-2009 07:19:52 13.5 C 81 % 10.31 C
758 22-05-2009 07:31:52 13.7 C 79 % 10.13 C
759 22-05-2009 07:43:52 13.9 C 77 % 9.94 C
760 22-05-2009 07:55:52 13.8 C 77 % 9.84 C
761 22-05-2009 08:07:51 13.8 C 77 % 9.84 C
762 22-05-2009 08:19:51 14.1 C 76 % 9.94 C
763 22-05-2009 08:31:51 14.5 C 77 % 10.52 C
764 22-05-2009 08:43:51 14.9 C 71 % 9.69 C
765 22-05-2009 08:55:51 15.3 C 65 % 8.77 C
766 22-05-2009 09:07:51 16 C 60 % 8.25 C
767 22-05-2009 09:19:51 16.3 C 60 % 8.53 C
768 22-05-2009 09:31:50 16.5 C 57 % 7.96 C
769 22-05-2009 09:43:51 17.1 C 51 % 6.89 C
770 22-05-2009 09:55:51 16.9 C 46 % 5.22 C
771 22-05-2009 10:07:50 17.2 C 45 % 5.18 C
772 22-05-2009 10:19:51 17.7 C 43 % 4.98 C
773 22-05-2009 10:31:51 17.6 C 45 % 5.54 C
774 22-05-2009 10:43:50 18.7 C 48 % 7.48 C
775 22-05-2009 10:55:50 19.5 C 43 % 6.6 C
Sensor: Nr:Datum:Temp:Feuchte:Taupunkt:
Aussen-T/F 776 22-05-2009 11:07:50 20 C 40 % 6 C
777 22-05-2009 11:19:49 20.3 C 40 % 6.27 C
778 22-05-2009 11:31:50 20.7 C 40 % 6.63 C
779 22-05-2009 11:43:49 20.7 C 37 % 5.5 C
780 22-05-2009 11:55:49 20.2 C 36 % 4.67 C
781 22-05-2009 12:07:49 20.2 C 37 % 5.06 C
782 22-05-2009 12:19:49 20 C 37 % 4.88 C
783 22-05-2009 12:31:49 21.7 C 35 % 5.58 C
784 22-05-2009 12:43:49 21.7 C 33 % 4.74 C
785 22-05-2009 12:55:49 22.3 C 28 % 2.93 C
786 22-05-2009 13:07:49 22.8 C 22 % 0 C
787 22-05-2009 13:19:49 23.1 C 20 % -1.06 C
788 22-05-2009 13:31:48 22.4 C 20 % -1.64 C
789 22-05-2009 13:43:49 22.5 C 26 % 2.06 C
790 22-05-2009 13:55:49 22.7 C 23 % 0.52 C
791 22-05-2009 14:07:48 23 C 20 % -1.14 C
792 22-05-2009 14:19:48 22.9 C 20 % -1.22 C
793 22-05-2009 14:31:48 22.9 C 20 % -1.22 C
794 22-05-2009 14:43:48 22.9 C 20 % -1.22 C
795 22-05-2009 14:55:48 23.2 C 20 % -0.98 C
796 22-05-2009 15:07:48 23.8 C 22 % 0.83 C
797 22-05-2009 15:19:47 23.6 C 20 % -0.65 C
798 22-05-2009 15:31:48 23.8 C 20 % -0.48 C
799 22-05-2009 15:43:47 24.5 C 20 % 0.09 C
800 22-05-2009 15:55:47 23.8 C 20 % -0.48 C
Sensor: Nr:Datum:Temp:Feuchte:Taupunkt:
Aussen-T/F 801 22-05-2009 16:07:47 24.7 C 20 % 0.26 C
802 22-05-2009 16:19:46 24.4 C 20 % 0.01 C
803 22-05-2009 16:31:47 22.5 C 20 % -1.55 C
804 22-05-2009 16:43:46 21.9 C 21 % -1.39 C
805 22-05-2009 16:55:46 23 C 21 % -0.48 C
806 22-05-2009 17:07:47 23.1 C 20 % -1.06 C
807 22-05-2009 17:19:46 22.8 C 21 % -0.64 C
808 22-05-2009 17:31:46 23.6 C 20 % -0.65 C
809 22-05-2009 17:43:45 23.8 C 20 % -0.48 C
810 22-05-2009 17:55:45 23.7 C 20 % -0.57 C
811 22-05-2009 18:07:46 24.1 C 20 % -0.24 C
812 22-05-2009 18:19:46 24.5 C 20 % 0.09 C
813 22-05-2009 18:31:45 23.9 C 20 % -0.4 C
814 22-05-2009 18:43:46 23.2 C 20 % -0.98 C
815 22-05-2009 18:55:46 24.4 C 20 % 0.01 C
816 22-05-2009 19:07:45 23.7 C 20 % -0.57 C
817 22-05-2009 19:19:45 24.1 C 20 % -0.24 C
818 22-05-2009 19:31:44 23.4 C 20 % -0.81 C
819 22-05-2009 19:43:45 23.8 C 20 % -0.48 C
820 22-05-2009 19:55:45 23.8 C 20 % -0.48 C
821 22-05-2009 20:07:44 22.8 C 20 % -1.31 C
822 22-05-2009 20:19:44 21.8 C 20 % -2.13 C
823 22-05-2009 20:31:45 21.2 C 23 % -0.73 C
824 22-05-2009 20:43:44 20.3 C 24 % -0.91 C
825 22-05-2009 20:55:44 19.6 C 27 % 0.11 C
Sensor: Nr:Datum:Temp:Feuchte:Taupunkt:
Aussen-T/F 826 22-05-2009 21:07:44 19.3 C 30 % 1.31 C
827 22-05-2009 21:19:44 18.6 C 29 % 0.24 C
828 22-05-2009 21:31:44 18.3 C 32 % 1.34 C
829 22-05-2009 21:43:44 18.1 C 30 % 0.27 C
830 22-05-2009 21:55:44 17.7 C 31 % 0.38 C
831 22-05-2009 22:07:43 17.5 C 33 % 1.07 C
832 22-05-2009 22:19:44 17.2 C 32 % 0.38 C
833 22-05-2009 22:32:44 16.8 C 35 % 1.27 C
834 22-05-2009 22:44:44 16.3 C 36 % 1.22 C
835 22-05-2009 22:56:44 16.1 C 38 % 1.79 C
836 22-05-2009 23:08:44 15.9 C 40 % 2.33 C
837 22-05-2009 23:20:44 15.5 C 42 % 2.66 C
838 22-05-2009 23:32:44 14.8 C 46 % 3.31 C
839 22-05-2009 23:44:44 14.4 C 48 % 3.54 C
840 22-05-2009 23:56:44 14.2 C 48 % 3.36 C
841 23-05-2009 00:08:44 13.8 C 50 % 3.57 C
842 23-05-2009 00:20:45 13.5 C 52 % 3.85 C
843 23-05-2009 00:32:45 13.4 C 53 % 4.03 C
844 23-05-2009 00:44:45 13.2 C 54 % 4.11 C
845 23-05-2009 00:56:45 13 C 54 % 3.92 C
846 23-05-2009 01:08:45 12.9 C 56 % 4.35 C
847 23-05-2009 01:20:45 12.5 C 57 % 4.22 C
848 23-05-2009 01:32:45 12.3 C 58 % 4.28 C
849 23-05-2009 01:44:45 12.1 C 59 % 4.34 C
850 23-05-2009 01:56:45 12 C 61 % 4.72 C
Sensor: Nr:Datum:Temp:Feuchte:Taupunkt:
Aussen-T/F 851 23-05-2009 02:08:45 11.8 C 62 % 4.77 C
852 23-05-2009 02:20:45 11.5 C 63 % 4.71 C
853 23-05-2009 02:32:45 11.1 C 65 % 4.78 C
854 23-05-2009 02:44:45 10.9 C 67 % 5.02 C
855 23-05-2009 02:56:45 10.6 C 68 % 4.95 C
856 23-05-2009 03:08:45 10.6 C 69 % 5.16 C
857 23-05-2009 03:20:45 10.5 C 70 % 5.27 C
858 23-05-2009 03:32:45 10.4 C 69 % 4.97 C
859 23-05-2009 03:44:45 10.3 C 69 % 4.87 C
860 23-05-2009 03:56:45 10.2 C 70 % 4.98 C
861 23-05-2009 04:08:46 10.1 C 70 % 4.89 C
862 23-05-2009 04:20:46 9.9 C 72 % 5.1 C
863 23-05-2009 04:32:46 9.6 C 72 % 4.81 C
864 23-05-2009 04:44:46 9.5 C 73 % 4.91 C
865 23-05-2009 04:56:46 9.5 C 73 % 4.91 C
866 23-05-2009 05:08:46 9.4 C 74 % 5.01 C
867 23-05-2009 05:20:46 9.2 C 74 % 4.81 C
868 23-05-2009 05:32:46 9.2 C 75 % 5.01 C
869 23-05-2009 05:44:46 9.1 C 74 % 4.72 C
870 23-05-2009 05:56:46 9 C 74 % 4.62 C
871 23-05-2009 06:08:46 8.8 C 77 % 5 C
872 23-05-2009 06:20:46 8.9 C 78 % 5.28 C
873 23-05-2009 06:32:46 9 C 78 % 5.38 C
874 23-05-2009 06:44:46 9 C 78 % 5.38 C
875 23-05-2009 06:56:46 9 C 78 % 5.38 C
Sensor: Nr:Datum:Temp:Feuchte:Taupunkt:
Aussen-T/F 876 23-05-2009 07:08:44 9.2 C 78 % 5.57 C
877 23-05-2009 07:20:44 9.1 C 78 % 5.47 C
878 23-05-2009 07:32:45 9.2 C 78 % 5.57 C
879 23-05-2009 07:44:44 9.6 C 78 % 5.96 C
880 23-05-2009 07:56:44 9.8 C 75 % 5.59 C
881 23-05-2009 08:08:44 10.2 C 74 % 5.78 C
882 23-05-2009 08:20:44 10.6 C 73 % 5.97 C
883 23-05-2009 08:32:44 11 C 71 % 5.95 C
884 23-05-2009 08:44:43 11.4 C 71 % 6.34 C
885 23-05-2009 08:56:43 12 C 67 % 6.07 C
886 23-05-2009 09:08:44 12.6 C 66 % 6.42 C
887 23-05-2009 09:20:43 13.2 C 63 % 6.32 C
888 23-05-2009 09:32:43 13.8 C 62 % 6.65 C
889 23-05-2009 09:44:43 14.2 C 60 % 6.56 C
890 23-05-2009 09:56:43 15.2 C 59 % 7.25 C
891 23-05-2009 10:08:43 16 C 57 % 7.49 C
892 23-05-2009 10:20:43 16.9 C 50 % 6.42 C
893 23-05-2009 10:32:02 17.8 C 44 % 5.4 C
894 23-05-2009 10:44:02 18.6 C 40 % 4.75 C
895 23-05-2009 10:56:02 18.9 C 37 % 3.91 C
896 23-05-2009 11:08:02 19.5 C 37 % 4.44 C
897 23-05-2009 11:20:02 19.7 C 36 % 4.23 C
898 23-05-2009 11:32:03 19.8 C 35 % 3.91 C
899 23-05-2009 11:44:03 20.8 C 34 % 4.38 C
900 23-05-2009 11:56:02 21.6 C 31 % 3.76 C
Sensor: Nr:Datum:Temp:Feuchte:Taupunkt:
Aussen-T/F 901 23-05-2009 12:08:02 22 C 28 % 2.67 C
902 23-05-2009 12:20:01 23.1 C 25 % 2.02 C
903 23-05-2009 12:32:01 23.9 C 25 % 2.69 C
904 23-05-2009 12:44:01 24.5 C 24 % 2.63 C
905 23-05-2009 12:56:01 24.2 C 22 % 1.16 C
906 23-05-2009 13:08:01 24.9 C 22 % 1.74 C
907 23-05-2009 13:20:01 26.2 C 20 % 1.49 C
908 23-05-2009 13:32:00 25.8 C 20 % 1.16 C
909 23-05-2009 13:44:00 26.8 C 20 % 1.98 C
910 23-05-2009 13:56:01 26.3 C 20 % 1.57 C
911 23-05-2009 14:08:00 26 C 21 % 2 C
912 23-05-2009 14:20:00 25.7 C 21 % 1.76 C
913 23-05-2009 14:32:00 26.1 C 20 % 1.41 C
914 23-05-2009 14:44:00 26.7 C 21 % 2.58 C
915 23-05-2009 14:56:00 27.4 C 20 % 2.47 C
916 23-05-2009 15:08:00 27.3 C 20 % 2.39 C
917 23-05-2009 15:20:59 27.6 C 20 % 2.64 C
918 23-05-2009 15:44:00 28.5 C 20 % 3.38 C
919 23-05-2009 15:44:59 29.3 C 20 % 4.03 C
920 23-05-2009 15:56:59 28.9 C 20 % 3.7 C
921 23-05-2009 16:08:59 29.9 C 20 % 4.52 C
922 23-05-2009 16:19:59 29.2 C 20 % 3.95 C
923 23-05-2009 16:32:59 30.1 C 20 % 4.69 C
924 23-05-2009 16:44:59 30.4 C 20 % 4.93 C
925 23-05-2009 16:56:59 30.9 C 20 % 5.34 C
Sensor: Nr:Datum:Temp:Feuchte:Taupunkt:
Aussen-T/F 926 23-05-2009 17:08:58 30.4 C 20 % 4.93 C
927 23-05-2009 17:20:59 30.8 C 20 % 5.26 C
928 23-05-2009 17:32:58 30.8 C 20 % 5.26 C
929 23-05-2009 17:44:59 31.2 C 20 % 5.59 C
930 23-05-2009 17:56:59 30.7 C 20 % 5.18 C
931 23-05-2009 18:08:58 30.1 C 20 % 4.69 C
932 23-05-2009 18:20:58 30.5 C 20 % 5.01 C
933 23-05-2009 18:32:57 29.9 C 20 % 4.52 C
934 23-05-2009 18:44:58 28.6 C 21 % 4.15 C
935 23-05-2009 18:56:59 28.3 C 28 % 8.06 C
936 23-05-2009 19:08:57 26.8 C 29 % 7.29 C
937 23-05-2009 19:20:57 25.5 C 32 % 7.6 C
938 23-05-2009 19:32:58 24.6 C 33 % 7.27 C
939 23-05-2009 19:44:57 24 C 32 % 6.3 C
940 23-05-2009 19:56:57 23.8 C 35 % 7.43 C
941 23-05-2009 20:08:57 23.4 C 34 % 6.66 C
942 23-05-2009 20:20:57 23.1 C 34 % 6.39 C
943 23-05-2009 20:32:57 22.8 C 35 % 6.55 C
944 23-05-2009 20:44:56 22.4 C 34 % 5.78 C
945 23-05-2009 20:56:56 22 C 36 % 6.26 C
946 23-05-2009 21:08:56 21.5 C 40 % 7.34 C
947 23-05-2009 21:20:56 21 C 41 % 7.26 C
948 23-05-2009 21:32:56 20.7 C 42 % 7.34 C
949 23-05-2009 21:44:56 20.6 C 42 % 7.25 C
950 23-05-2009 21:56:56 20.3 C 43 % 7.32 C
Sensor: Nr:Datum:Temp:Feuchte:Taupunkt:
Aussen-T/F 951 23-05-2009 22:08:55 20.2 C 42 % 6.89 C
952 23-05-2009 22:20:56 20 C 43 % 7.05 C
953 23-05-2009 22:32:56 20 C 43 % 7.05 C
954 23-05-2009 22:45:03 19.7 C 45 % 7.44 C
955 23-05-2009 22:57:03 19.6 C 45 % 7.35 C
956 23-05-2009 23:09:03 19.4 C 47 % 7.81 C
957 23-05-2009 23:21:03 19.1 C 49 % 8.15 C
958 23-05-2009 23:33:03 19.1 C 50 % 8.44 C
959 23-05-2009 23:45:04 18.9 C 49 % 7.96 C
960 23-05-2009 23:57:04 18.5 C 48 % 7.29 C
961 24-05-2009 00:09:04 18.3 C 49 % 7.41 C
962 24-05-2009 00:21:04 17.9 C 50 % 7.34 C
963 24-05-2009 00:33:04 17.7 C 52 % 7.73 C
964 24-05-2009 00:45:04 17.7 C 52 % 7.73 C
965 24-05-2009 00:57:04 17.6 C 52 % 7.64 C
966 24-05-2009 01:09:04 17.5 C 52 % 7.54 C
967 24-05-2009 01:21:04 17.2 C 54 % 7.82 C
968 24-05-2009 01:33:04 17 C 55 % 7.9 C
969 24-05-2009 01:45:04 17 C 56 % 8.17 C
970 24-05-2009 01:57:04 16.8 C 58 % 8.5 C
971 24-05-2009 02:09:04 16.7 C 59 % 8.66 C
972 24-05-2009 02:21:04 16.4 C 60 % 8.62 C
973 24-05-2009 02:33:04 16 C 61 % 8.49 C
974 24-05-2009 02:45:04 15.9 C 63 % 8.87 C
975 24-05-2009 02:57:04 15.7 C 63 % 8.68 C
Sensor: Nr:Datum:Temp:Feuchte:Taupunkt:
Aussen-T/F 976 24-05-2009 03:09:04 15.3 C 64 % 8.54 C
977 24-05-2009 03:21:04 15.2 C 65 % 8.67 C
978 24-05-2009 03:33:05 14.9 C 66 % 8.61 C
979 24-05-2009 03:45:05 14.8 C 67 % 8.74 C
980 24-05-2009 03:57:05 14.6 C 69 % 8.98 C
981 24-05-2009 04:09:05 14.2 C 71 % 9.02 C
982 24-05-2009 04:21:05 14.1 C 71 % 8.93 C
983 24-05-2009 04:33:05 13.9 C 71 % 8.73 C
984 24-05-2009 04:45:05 13.9 C 71 % 8.73 C
985 24-05-2009 04:57:05 13.8 C 71 % 8.64 C
986 24-05-2009 05:09:05 13.5 C 72 % 8.56 C
987 24-05-2009 05:21:05 13.5 C 74 % 8.96 C
988 24-05-2009 05:33:05 13.3 C 74 % 8.77 C
989 24-05-2009 05:45:05 13.3 C 74 % 8.77 C
990 24-05-2009 05:57:05 13.3 C 74 % 8.77 C
991 24-05-2009 06:09:05 13.4 C 74 % 8.87 C
992 24-05-2009 06:21:05 13.5 C 75 % 9.16 C
993 24-05-2009 06:33:05 13.5 C 76 % 9.36 C
994 24-05-2009 06:45:05 13.4 C 77 % 9.45 C
995 24-05-2009 06:57:05 13.3 C 77 % 9.36 C
996 24-05-2009 07:09:05 13.4 C 77 % 9.45 C
997 24-05-2009 07:21:56 13.5 C 77 % 9.55 C
998 24-05-2009 07:33:57 13.8 C 77 % 9.84 C
999 24-05-2009 07:45:56 13.9 C 76 % 9.74 C
1000 24-05-2009 07:57:56 14.3 C 74 % 9.73 C
Sensor: Nr:Datum:Temp:Feuchte:Taupunkt:
Aussen-T/F 1001 24-05-2009 08:09:56 14.7 C 73 % 9.92 C
1002 24-05-2009 08:21:56 15.2 C 70 % 9.77 C
1003 24-05-2009 08:33:56 15.6 C 69 % 9.94 C
1004 24-05-2009 08:45:56 16.1 C 68 % 10.2 C
1005 24-05-2009 08:57:56 16.8 C 66 % 10.42 C
1006 24-05-2009 09:09:55 17.4 C 62 % 10.05 C
1007 24-05-2009 09:21:56 17.9 C 58 % 9.53 C
1008 24-05-2009 09:33:55 18.7 C 56 % 9.75 C
1009 24-05-2009 09:45:56 19.3 C 51 % 8.92 C
1010 24-05-2009 09:57:56 19.9 C 51 % 9.47 C
1011 24-05-2009 10:09:55 20.1 C 48 % 8.76 C
1012 24-05-2009 10:21:55 21 C 45 % 8.62 C
1013 24-05-2009 10:33:55 21.2 C 45 % 8.8 C
1014 24-05-2009 10:45:55 22.2 C 43 % 9.04 C
1015 24-05-2009 10:57:55 22.6 C 42 % 9.05 C
1016 24-05-2009 11:09:55 23.8 C 44 % 10.82 C
1017 24-05-2009 11:21:54 24.2 C 37 % 8.6 C
1018 24-05-2009 11:33:55 25.3 C 34 % 8.32 C
1019 24-05-2009 11:45:54 25.5 C 33 % 8.06 C
1020 24-05-2009 11:57:54 26 C 33 % 8.49 C
1021 24-05-2009 12:09:54 25.6 C 30 % 6.75 C
1022 24-05-2009 12:21:54 26.9 C 30 % 7.87 C
1023 24-05-2009 12:33:54 27.6 C 27 % 6.93 C
1024 24-05-2009 12:45:53 28.6 C 27 % 7.78 C
1025 24-05-2009 12:57:53 29.7 C 25 % 7.58 C
Sensor: Nr:Datum:Temp:Feuchte:Taupunkt:
Aussen-T/F 1026 24-05-2009 13:09:53 30.1 C 23 % 6.7 C
1027 24-05-2009 13:21:54 30.6 C 22 % 6.47 C
1028 24-05-2009 13:33:53 30.3 C 22 % 6.22 C
1029 24-05-2009 13:45:53 29.2 C 21 % 4.64 C
1030 24-05-2009 13:57:53 29.1 C 23 % 5.87 C
1031 24-05-2009 14:09:53 29.1 C 23 % 5.87 C
1032 24-05-2009 14:21:53 28.5 C 25 % 6.57 C
1033 24-05-2009 14:33:52 28.8 C 25 % 6.82 C
1034 24-05-2009 14:45:53 29 C 24 % 6.4 C
1035 24-05-2009 14:57:54 30.6 C 22 % 6.47 C
1036 24-05-2009 15:09:52 30.3 C 22 % 6.22 C
1037 24-05-2009 15:21:52 31.2 C 20 % 5.59 C
1038 24-05-2009 15:33:52 31.4 C 20 % 5.75 C
1039 24-05-2009 15:45:52 31.9 C 20 % 6.16 C
1040 24-05-2009 15:57:52 31.9 C 20 % 6.16 C
1041 24-05-2009 16:09:52 32.1 C 20 % 6.32 C
1042 24-05-2009 16:21:52 31.9 C 20 % 6.16 C
1043 24-05-2009 16:33:52 31.7 C 20 % 6 C
1044 24-05-2009 16:45:51 31.5 C 21 % 6.54 C
1045 24-05-2009 16:57:51 31.5 C 21 % 6.54 C
1046 24-05-2009 17:09:52 30.7 C 23 % 7.2 C
1047 24-05-2009 17:21:51 31 C 22 % 6.8 C
1048 24-05-2009 17:33:51 31.3 C 21 % 6.37 C
1049 24-05-2009 17:45:51 31.9 C 20 % 6.16 C
1050 24-05-2009 17:57:51 32 C 20 % 6.24 C
Sensor: Nr:Datum:Temp:Feuchte:Taupunkt:
Aussen-T/F 1051 24-05-2009 18:09:51 31.3 C 21 % 6.37 C
1052 24-05-2009 18:21:51 31.5 C 21 % 6.54 C
1053 24-05-2009 18:33:50 31.7 C 21 % 6.7 C
1054 24-05-2009 18:45:50 31.7 C 20 % 6 C
1055 24-05-2009 18:57:50 31.2 C 21 % 6.29 C
1056 24-05-2009 19:09:50 31.1 C 23 % 7.53 C
1057 24-05-2009 19:21:50 30.9 C 22 % 6.72 C
1058 24-05-2009 19:33:50 30.9 C 24 % 7.99 C
1059 24-05-2009 19:45:50 30.2 C 25 % 8 C
1060 24-05-2009 19:57:50 30 C 26 % 8.41 C
1061 24-05-2009 20:09:50 28.9 C 28 % 8.57 C
1062 24-05-2009 20:21:49 28.7 C 30 % 9.42 C
1063 24-05-2009 20:33:49 28.2 C 32 % 9.95 C
1064 24-05-2009 20:45:49 27.2 C 36 % 10.84 C
1065 24-05-2009 20:57:49 26 C 38 % 10.59 C
1066 24-05-2009 21:09:49 25.2 C 40 % 10.65 C
1067 24-05-2009 21:21:49 24.3 C 42 % 10.57 C
1068 24-05-2009 21:33:48 24 C 42 % 10.3 C
1069 24-05-2009 21:45:49 23.9 C 43 % 10.57 C
1070 24-05-2009 21:57:49 23.6 C 44 % 10.64 C
1071 24-05-2009 22:09:48 23.2 C 46 % 10.95 C
1072 24-05-2009 22:22:49 22.9 C 47 % 11 C
1073 24-05-2009 22:34:49 22.8 C 48 % 11.22 C
1074 24-05-2009 22:46:49 22.5 C 47 % 10.63 C
1075 24-05-2009 22:58:49 22.3 C 49 % 11.08 C
Sensor: Nr:Datum:Temp:Feuchte:Taupunkt:
Aussen-T/F 1076 24-05-2009 23:10:49 22 C 50 % 11.11 C
1077 24-05-2009 23:22:49 21.7 C 52 % 11.42 C
1078 24-05-2009 23:34:49 21.5 C 52 % 11.24 C
1079 24-05-2009 23:46:49 21.2 C 53 % 11.25 C
1080 24-05-2009 23:58:49 21 C 54 % 11.34 C
1081 25-05-2009 00:10:49 20.7 C 55 % 11.34 C
1082 25-05-2009 00:22:49 20.5 C 57 % 11.7 C
1083 25-05-2009 00:34:49 20.3 C 57 % 11.51 C
1084 25-05-2009 00:46:49 20 C 58 % 11.49 C
1085 25-05-2009 00:58:49 19.6 C 61 % 11.88 C
1086 25-05-2009 01:10:49 19.4 C 61 % 11.69 C
1087 25-05-2009 01:22:49 19.3 C 61 % 11.6 C
1088 25-05-2009 01:34:49 19.2 C 61 % 11.5 C
1089 25-05-2009 01:46:49 18.9 C 64 % 11.95 C
1090 25-05-2009 01:58:49 18.7 C 65 % 11.99 C
1091 25-05-2009 02:10:49 18.6 C 65 % 11.9 C
1092 25-05-2009 02:22:50 18.4 C 66 % 11.94 C
1093 25-05-2009 02:34:50 18.2 C 66 % 11.75 C
1094 25-05-2009 02:46:50 18 C 66 % 11.56 C
1095 25-05-2009 02:58:50 17.9 C 67 % 11.69 C
1096 25-05-2009 03:10:50 17.7 C 68 % 11.72 C
1097 25-05-2009 03:22:50 17.5 C 69 % 11.75 C
1098 25-05-2009 03:34:50 17.4 C 69 % 11.66 C
1099 25-05-2009 03:46:50 17.3 C 70 % 11.78 C
1100 25-05-2009 03:58:50 17.1 C 70 % 11.59 C
Sensor: Nr:Datum:Temp:Feuchte:Taupunkt:
Aussen-T/F 1101 25-05-2009 04:10:50 17 C 71 % 11.71 C
1102 25-05-2009 04:22:50 16.9 C 72 % 11.82 C
1103 25-05-2009 04:34:50 16.7 C 73 % 11.84 C
1104 25-05-2009 04:46:50 16.5 C 73 % 11.65 C
1105 25-05-2009 04:58:50 16.4 C 73 % 11.55 C
1106 25-05-2009 05:10:50 16.2 C 74 % 11.56 C
1107 25-05-2009 05:22:50 16.1 C 74 % 11.47 C
1108 25-05-2009 05:34:50 15.9 C 75 % 11.48 C
1109 25-05-2009 05:46:50 15.9 C 76 % 11.68 C
1110 25-05-2009 05:58:50 15.8 C 76 % 11.58 C
1111 25-05-2009 06:10:51 15.7 C 77 % 11.68 C
1112 25-05-2009 06:22:51 15.6 C 77 % 11.59 C
1113 25-05-2009 06:34:51 15.8 C 77 % 11.78 C
1114 25-05-2009 06:46:51 16 C 77 % 11.97 C
1115 25-05-2009 06:58:51 16 C 77 % 11.97 C
1116 25-05-2009 07:10:48 16 C 77 % 11.97 C
1117 25-05-2009 07:22:48 16.2 C 77 % 12.17 C
1118 25-05-2009 07:34:48 16.2 C 77 % 12.17 C
1119 25-05-2009 07:46:48 16.4 C 76 % 12.16 C
1120 25-05-2009 07:58:48 16.7 C 76 % 12.45 C
1121 25-05-2009 08:10:47 17.2 C 75 % 12.73 C
1122 25-05-2009 08:22:48 17.5 C 74 % 12.82 C
1123 25-05-2009 08:34:48 17.9 C 72 % 12.78 C
1124 25-05-2009 08:46:47 18.3 C 70 % 12.74 C
1125 25-05-2009 08:58:47 18.8 C 70 % 13.22 C
Sensor: Nr:Datum:Temp:Feuchte:Taupunkt:
Aussen-T/F 1126 25-05-2009 09:10:48 19.5 C 66 % 12.98 C
1127 25-05-2009 09:22:47 20.3 C 61 % 12.54 C
1128 25-05-2009 09:34:47 21 C 58 % 12.43 C
1129 25-05-2009 09:46:46 21.5 C 57 % 12.63 C
1130 25-05-2009 09:58:46 22.2 C 54 % 12.45 C
1131 25-05-2009 10:10:47 22.9 C 51 % 12.23 C
1132 25-05-2009 10:22:47 23.7 C 50 % 12.67 C
1133 25-05-2009 10:34:46 24.4 C 47 % 12.36 C
1134 25-05-2009 10:46:47 24.9 C 46 % 12.49 C
1135 25-05-2009 10:58:47 25.8 C 42 % 11.92 C
1136 25-05-2009 11:10:46 26.4 C 43 % 12.82 C
1137 25-05-2009 11:22:46 27.2 C 38 % 11.65 C
1138 25-05-2009 11:34:01 27.3 C 38 % 11.74 C
1139 25-05-2009 11:46:01 28 C 36 % 11.54 C
1140 25-05-2009 11:58:02 28.7 C 34 % 11.29 C
1141 25-05-2009 12:10:01 29.7 C 33 % 11.71 C
1142 25-05-2009 12:22:01 29.8 C 32 % 11.33 C
1143 25-05-2009 12:34:01 30.6 C 29 % 10.54 C
1144 25-05-2009 12:46:01 31.3 C 27 % 10.07 C
1145 25-05-2009 12:58:01 31.5 C 26 % 9.68 C
1146 25-05-2009 13:10:01 31.8 C 24 % 8.74 C
1147 25-05-2009 13:22:00 31.8 C 22 % 7.46 C
1148 25-05-2009 13:34:01 32.2 C 23 % 8.45 C
1149 25-05-2009 13:46:00 32.4 C 20 % 6.57 C
1150 25-05-2009 13:58:00 32.3 C 21 % 7.2 C
Sensor: Nr:Datum:Temp:Feuchte:Taupunkt:
Aussen-T/F 1151 25-05-2009 14:10:00 32 C 21 % 6.95 C
1152 25-05-2009 14:22:59 32 C 23 % 8.28 C
1153 25-05-2009 14:34:00 32.3 C 21 % 7.2 C
1154 25-05-2009 14:46:59 32.6 C 20 % 6.73 C
1155 25-05-2009 14:58:59 32.6 C 22 % 8.13 C
1156 25-05-2009 15:10:59 33.2 C 21 % 7.94 C
1157 25-05-2009 15:22:00 33.3 C 20 % 7.3 C
1158 25-05-2009 15:34:59 33.3 C 20 % 7.3 C
1159 25-05-2009 15:46:59 33.4 C 20 % 7.39 C
1160 25-05-2009 15:58:59 33.6 C 20 % 7.55 C
1161 25-05-2009 16:10:59 33.1 C 21 % 7.85 C
1162 25-05-2009 16:22:59 33.1 C 24 % 9.83 C
1163 25-05-2009 16:34:59 32.4 C 29 % 12.08 C
1164 25-05-2009 16:46:58 31.9 C 32 % 13.15 C
1165 25-05-2009 16:58:58 31.3 C 35 % 14.01 C
1166 25-05-2009 17:10:59 30.6 C 38 % 14.66 C
1167 25-05-2009 17:22:58 29.8 C 42 % 15.51 C
1168 25-05-2009 17:34:58 29.1 C 44 % 15.6 C
1169 25-05-2009 17:46:58 28.2 C 47 % 15.82 C
1170 25-05-2009 17:58:58 28 C 46 % 15.3 C
1171 25-05-2009 18:10:57 27.6 C 45 % 14.6 C
1172 25-05-2009 18:22:58 26.8 C 30 % 7.78 C
1173 25-05-2009 18:34:57 26.4 C 30 % 7.44 C
1174 25-05-2009 18:46:57 25.9 C 30 % 7.01 C
1175 25-05-2009 18:58:57 25.8 C 34 % 8.76 C
Sensor: Nr:Datum:Temp:Feuchte:Taupunkt:
Aussen-T/F 1176 25-05-2009 19:10:57 25.2 C 34 % 8.23 C
1177 25-05-2009 19:22:57 25 C 35 % 8.48 C
1178 25-05-2009 19:34:57 25.3 C 34 % 8.32 C
1179 25-05-2009 19:46:57 25.5 C 37 % 9.75 C
1180 25-05-2009 19:58:57 25.4 C 36 % 9.25 C
1181 25-05-2009 20:10:57 25.5 C 39 % 10.53 C
1182 25-05-2009 20:22:56 25.8 C 38 % 10.41 C
1183 25-05-2009 20:34:56 26.2 C 36 % 9.96 C
1184 25-05-2009 20:46:56 26.1 C 41 % 11.82 C
1185 25-05-2009 20:58:56 25.5 C 42 % 11.65 C
1186 25-05-2009 21:10:56 24.9 C 45 % 12.16 C
1187 25-05-2009 21:22:56 24.1 C 47 % 12.09 C
1188 25-05-2009 21:34:56 23.4 C 48 % 11.77 C
1189 25-05-2009 21:46:55 22.8 C 49 % 11.53 C
1190 25-05-2009 21:58:55 22.4 C 50 % 11.47 C
1191 25-05-2009 22:10:55 22.1 C 51 % 11.5 C
1192 25-05-2009 22:23:57 21.9 C 51 % 11.31 C
1193 25-05-2009 22:35:57 21.7 C 52 % 11.42 C
1194 25-05-2009 22:47:57 21.7 C 54 % 11.99 C
1195 25-05-2009 22:59:57 21.5 C 55 % 12.08 C
1196 25-05-2009 23:11:57 21.2 C 56 % 12.08 C
1197 25-05-2009 23:23:57 21 C 56 % 11.89 C
1198 25-05-2009 23:35:57 20.8 C 58 % 12.24 C
1199 25-05-2009 23:47:57 20.5 C 59 % 12.22 C
1200 25-05-2009 23:59:57 20.4 C 60 % 12.38 C
Sensor: Nr:Datum:Temp:Feuchte:Taupunkt:
Aussen-T/F 1201 26-05-2009 00:11:57 20.2 C 62 % 12.69 C
1202 26-05-2009 00:23:57 20 C 63 % 12.75 C
1203 26-05-2009 00:35:57 19.9 C 64 % 12.89 C
1204 26-05-2009 00:47:57 19.7 C 65 % 12.94 C
1205 26-05-2009 00:59:57 19.5 C 67 % 13.21 C
1206 26-05-2009 01:11:57 19.3 C 67 % 13.02 C
1207 26-05-2009 01:23:58 19.2 C 67 % 12.93 C
1208 26-05-2009 01:35:58 18.9 C 69 % 13.09 C
1209 26-05-2009 01:47:58 18.9 C 71 % 13.53 C
1210 26-05-2009 01:59:58 19.1 C 70 % 13.5 C
1211 26-05-2009 02:11:58 18.8 C 71 % 13.43 C
1212 26-05-2009 02:23:58 18.6 C 71 % 13.24 C
1213 26-05-2009 02:35:58 18.5 C 72 % 13.36 C
1214 26-05-2009 02:47:58 18.3 C 73 % 13.38 C
1215 26-05-2009 02:59:58 18.3 C 73 % 13.38 C
1216 26-05-2009 03:11:58 18.4 C 73 % 13.48 C
1217 26-05-2009 03:23:58 18.4 C 73 % 13.48 C
1218 26-05-2009 03:35:58 18.5 C 73 % 13.57 C
1219 26-05-2009 03:47:58 18.3 C 73 % 13.38 C
1220 26-05-2009 03:59:58 18 C 74 % 13.3 C
1221 26-05-2009 04:11:58 17.9 C 75 % 13.41 C
1222 26-05-2009 04:23:58 17.7 C 76 % 13.42 C
1223 26-05-2009 04:35:58 17.5 C 77 % 13.43 C
1224 26-05-2009 04:47:58 17.4 C 78 % 13.53 C
1225 26-05-2009 04:59:58 17.3 C 77 % 13.23 C
Sensor: Nr:Datum:Temp:Feuchte:Taupunkt:
Aussen-T/F 1226 26-05-2009 05:11:58 17.2 C 78 % 13.33 C
1227 26-05-2009 05:23:58 17.2 C 78 % 13.33 C
1228 26-05-2009 05:35:59 17.4 C 80 % 13.92 C
1229 26-05-2009 05:47:59 17.6 C 79 % 13.92 C
1230 26-05-2009 05:59:59 17.6 C 77 % 13.52 C
1231 26-05-2009 06:11:59 17.6 C 78 % 13.72 C
1232 26-05-2009 06:23:59 17.7 C 78 % 13.82 C
1233 26-05-2009 06:35:56 18 C 77 % 13.91 C
1234 26-05-2009 06:47:56 18.2 C 76 % 13.9 C
1235 26-05-2009 06:59:56 18.4 C 77 % 14.3 C
1236 26-05-2009 07:11:56 18.5 C 76 % 14.19 C
1237 26-05-2009 07:23:56 18.7 C 76 % 14.39 C
1238 26-05-2009 07:35:56 18.7 C 75 % 14.18 C
1239 26-05-2009 07:47:55 19.1 C 73 % 14.15 C
1240 26-05-2009 07:59:55 19.3 C 72 % 14.13 C
1241 26-05-2009 08:11:56 19.6 C 72 % 14.42 C
1242 26-05-2009 08:23:55 20.1 C 70 % 14.46 C
1243 26-05-2009 08:35:55 20.9 C 60 % 12.85 C
1244 26-05-2009 08:47:55 21.4 C 52 % 11.14 C
1245 26-05-2009 08:59:55 21.5 C 50 % 10.65 C
1246 26-05-2009 09:11:55 21.4 C 53 % 11.43 C
1247 26-05-2009 09:23:54 20.4 C 60 % 12.38 C
1248 26-05-2009 09:35:54 21.2 C 58 % 12.61 C
1249 26-05-2009 09:47:55 21.8 C 55 % 12.36 C
1250 26-05-2009 09:59:55 22.5 C 52 % 12.16 C
Sensor: Nr:Datum:Temp:Feuchte:Taupunkt:
Aussen-T/F 1251 26-05-2009 10:11:54 23 C 49 % 11.72 C
1252 26-05-2009 10:23:54 22.8 C 48 % 11.22 C
1253 26-05-2009 10:35:54 22.9 C 49 % 11.63 C
1254 26-05-2009 10:47:54 23.1 C 47 % 11.18 C
1255 26-05-2009 10:59:55 23.7 C 46 % 11.4 C
1256 26-05-2009 11:11:53 23.8 C 46 % 11.49 C
1257 26-05-2009 11:23:53 23.6 C 47 % 11.63 C
1258 26-05-2009 11:35:54 23.3 C 48 % 11.68 C
1259 26-05-2009 11:47:53 23.8 C 46 % 11.49 C
1260 26-05-2009 11:59:53 24.4 C 44 % 11.36 C
1261 26-05-2009 12:11:53 24.4 C 40 % 9.93 C
1262 26-05-2009 12:23:53 23.1 C 42 % 9.5 C
1263 26-05-2009 12:35:53 24.3 C 42 % 10.57 C
1264 26-05-2009 12:47:52 25.4 C 37 % 9.66 C
1265 26-05-2009 12:59:52 24.3 C 38 % 9.08 C
1266 26-05-2009 13:11:53 25.6 C 35 % 9.01 C
1267 26-05-2009 13:23:53 26.5 C 33 % 8.93 C
1268 26-05-2009 13:35:52 26.5 C 31 % 8.01 C
1269 26-05-2009 13:47:52 25.7 C 32 % 7.78 C
1270 26-05-2009 13:59:52 26.1 C 32 % 8.13 C
1271 26-05-2009 14:11:52 25.6 C 33 % 8.14 C
1272 26-05-2009 14:23:52 24.7 C 33 % 7.36 C
1273 26-05-2009 14:35:51 24 C 35 % 7.61 C
1274 26-05-2009 14:47:52 23.6 C 37 % 8.07 C
1275 26-05-2009 14:59:53 24.6 C 35 % 8.13 C
Sensor: Nr:Datum:Temp:Feuchte:Taupunkt:
Aussen-T/F 1276 26-05-2009 15:11:51 24.1 C 36 % 8.11 C
1277 26-05-2009 15:23:51 25 C 33 % 7.62 C
1278 26-05-2009 15:35:51 23.8 C 34 % 7.01 C
1279 26-05-2009 15:47:51 24.3 C 32 % 6.56 C
1280 26-05-2009 15:59:51 24.5 C 33 % 7.18 C
1281 26-05-2009 16:05:51 24.7 C 33 % 7.36 C
1282 26-05-2009 16:21:50 25 C 32 % 7.17 C
1283 26-05-2009 16:33:51 24.9 C 33 % 7.53 C
1284 26-05-2009 16:45:50 24.3 C 32 % 6.56 C
1285 26-05-2009 16:57:50 23.9 C 33 % 6.66 C
1286 26-05-2009 17:09:50 23.3 C 35 % 6.99 C
1287 26-05-2009 17:21:50 24 C 35 % 7.61 C
1288 26-05-2009 17:33:50 24.3 C 34 % 7.45 C
1289 26-05-2009 17:45:49 24.4 C 34 % 7.53 C
1290 26-05-2009 17:57:49 23.7 C 36 % 7.75 C
1291 26-05-2009 18:09:50 22.9 C 38 % 7.84 C
1292 26-05-2009 18:21:50 21 C 43 % 7.95 C
1293 26-05-2009 18:33:49 18.4 C 62 % 10.99 C
1294 26-05-2009 18:45:49 17.5 C 74 % 12.82 C
1295 26-05-2009 18:57:49 17 C 76 % 12.74 C
1296 26-05-2009 19:09:49 17.1 C 76 % 12.84 C
1297 26-05-2009 19:21:49 17.1 C 74 % 12.43 C
1298 26-05-2009 19:33:49 15.7 C 71 % 10.46 C
1299 26-05-2009 19:45:49 16.2 C 70 % 10.73 C
1300 26-05-2009 19:57:49 16.5 C 68 % 10.58 C
Sensor: Nr:Datum:Temp:Feuchte:Taupunkt:
Aussen-T/F 1301 26-05-2009 20:09:49 16.6 C 63 % 9.53 C
1302 26-05-2009 20:21:48 16.3 C 64 % 9.48 C
1303 26-05-2009 20:33:49 15.5 C 73 % 10.69 C
1304 26-05-2009 20:45:48 15.1 C 77 % 11.1 C
1305 26-05-2009 20:57:48 14.6 C 77 % 10.62 C
1306 26-05-2009 21:09:48 14.5 C 75 % 10.13 C
1307 26-05-2009 21:21:47 14.8 C 74 % 10.22 C
1308 26-05-2009 21:33:47 15.1 C 67 % 9.02 C
1309 26-05-2009 21:45:48 15.2 C 66 % 8.9 C
1310 26-05-2009 21:57:48 15.1 C 65 % 8.58 C
1311 26-05-2009 22:09:47 15.1 C 65 % 8.58 C
1312 26-05-2009 22:21:47 14 C 63 % 7.08 C
1313 26-05-2009 22:34:01 13.7 C 61 % 6.32 C
1314 26-05-2009 22:46:01 13.2 C 57 % 4.88 C
1315 26-05-2009 22:58:01 12.8 C 59 % 5 C
1316 26-05-2009 23:10:01 12.5 C 59 % 4.72 C
1317 26-05-2009 23:22:01 12.3 C 59 % 4.53 C
1318 26-05-2009 23:34:01 12.2 C 60 % 4.67 C
1319 26-05-2009 23:46:01 12.2 C 61 % 4.91 C
1320 26-05-2009 23:58:01 12.1 C 62 % 5.05 C
1321 27-05-2009 00:10:02 12.4 C 63 % 5.56 C
1322 27-05-2009 00:22:02 12.4 C 63 % 5.56 C
1323 27-05-2009 00:34:02 12.2 C 64 % 5.6 C
1324 27-05-2009 00:46:02 12 C 65 % 5.63 C
1325 27-05-2009 00:58:02 11.6 C 68 % 5.9 C
Sensor: Nr:Datum:Temp:Feuchte:Taupunkt:
Aussen-T/F 1326 27-05-2009 01:10:02 11.5 C 69 % 6.02 C
1327 27-05-2009 01:22:02 11.4 C 69 % 5.92 C
1328 27-05-2009 01:34:02 11.2 C 69 % 5.73 C
1329 27-05-2009 01:46:02 11.1 C 69 % 5.64 C
1330 27-05-2009 01:58:02 10.9 C 70 % 5.65 C
1331 27-05-2009 02:10:02 10.7 C 71 % 5.66 C
1332 27-05-2009 02:22:02 10.4 C 72 % 5.58 C
1333 27-05-2009 02:34:02 10.2 C 72 % 5.39 C
1334 27-05-2009 02:46:02 10.2 C 71 % 5.18 C
1335 27-05-2009 02:58:02 10.3 C 70 % 5.08 C
1336 27-05-2009 03:10:02 10.1 C 71 % 5.09 C
1337 27-05-2009 03:22:02 9.8 C 73 % 5.2 C
1338 27-05-2009 03:34:02 9.6 C 74 % 5.2 C
1339 27-05-2009 03:46:02 9.6 C 74 % 5.2 C
1340 27-05-2009 03:58:02 9.5 C 74 % 5.1 C
1341 27-05-2009 04:10:02 9.4 C 74 % 5.01 C
1342 27-05-2009 04:22:03 9.3 C 74 % 4.91 C
1343 27-05-2009 04:34:03 9.2 C 75 % 5.01 C
1344 27-05-2009 04:46:03 9.2 C 75 % 5.01 C
1345 27-05-2009 04:58:03 9.2 C 75 % 5.01 C
1346 27-05-2009 05:10:03 9.1 C 76 % 5.1 C
1347 27-05-2009 05:22:03 9.1 C 76 % 5.1 C
1348 27-05-2009 05:34:03 9.3 C 76 % 5.29 C
1349 27-05-2009 05:46:03 9.2 C 76 % 5.2 C
1350 27-05-2009 05:58:03 9.2 C 75 % 5.01 C
Sensor: Nr:Datum:Temp:Feuchte:Taupunkt:
Aussen-T/F 1351 27-05-2009 06:10:03 9.3 C 75 % 5.1 C
1352 27-05-2009 06:22:03 9.3 C 76 % 5.29 C
1353 27-05-2009 06:34:03 9.3 C 75 % 5.1 C
1354 27-05-2009 06:46:03 9.5 C 75 % 5.3 C
1355 27-05-2009 06:58:03 9.7 C 74 % 5.3 C
1356 27-05-2009 07:10:02 9.8 C 74 % 5.39 C
1357 27-05-2009 07:22:02 9.9 C 73 % 5.29 C
1358 27-05-2009 07:34:01 10 C 72 % 5.19 C
1359 27-05-2009 07:46:02 10.2 C 71 % 5.18 C
1360 27-05-2009 07:58:02 10.5 C 71 % 5.47 C
1361 27-05-2009 08:10:01 10.7 C 71 % 5.66 C
1362 27-05-2009 08:22:02 11 C 69 % 5.54 C
1363 27-05-2009 08:34:01 11.3 C 68 % 5.62 C
1364 27-05-2009 08:46:01 11.7 C 67 % 5.78 C
1365 27-05-2009 08:58:01 12.2 C 64 % 5.6 C
1366 27-05-2009 09:10:01 12.4 C 63 % 5.56 C
1367 27-05-2009 09:22:01 12.9 C 61 % 5.57 C
1368 27-05-2009 09:34:02 13.2 C 59 % 5.37 C
1369 27-05-2009 09:46:01 13.5 C 58 % 5.41 C
1370 27-05-2009 09:58:01 13.7 C 56 % 5.09 C
1371 27-05-2009 10:10:02 14.3 C 53 % 4.86 C
1372 27-05-2009 10:22:01 14.7 C 50 % 4.4 C
1373 27-05-2009 10:34:01 14.9 C 50 % 4.58 C
1374 27-05-2009 10:46:01 15.3 C 48 % 4.37 C
1375 27-05-2009 10:58:01 15.7 C 45 % 3.81 C
Sensor: Nr:Datum:Temp:Feuchte:Taupunkt:
Aussen-T/F 1376 27-05-2009 11:10:01 15.8 C 45 % 3.9 C
1377 27-05-2009 11:22:02 16.1 C 42 % 3.2 C
1378 27-05-2009 11:34:01 16.9 C 43 % 4.25 C
1379 27-05-2009 11:46:02 17 C 39 % 2.96 C
1380 27-05-2009 11:58:02 17.5 C 36 % 2.28 C
1381 27-05-2009 12:10:01 18.8 C 33 % 2.21 C
1382 27-05-2009 12:22:02 18.5 C 30 % 0.62 C
1383 27-05-2009 12:34:01 19.1 C 28 % 0.19 C
1384 27-05-2009 12:46:02 19.6 C 26 % -0.4 C
1385 27-05-2009 12:58:02 17.8 C 27 % -1.43 C
1386 27-05-2009 13:10:01 20.1 C 25 % -0.52 C
1387 27-05-2009 13:22:01 20.3 C 26 % 0.19 C
1388 27-05-2009 13:34:02 20.1 C 22 % -2.25 C
1389 27-05-2009 13:46:01 20.8 C 21 % -2.3 C
1390 27-05-2009 13:58:01 19.5 C 20 % -4.03 C
1391 27-05-2009 14:10:02 19.6 C 22 % -2.67 C
1392 27-05-2009 14:22:01 19.8 C 22 % -2.5 C
1393 27-05-2009 14:34:01 19.9 C 20 % -3.7 C
1394 27-05-2009 14:46:01 20.1 C 20 % -3.53 C
1395 27-05-2009 14:58:01 19.4 C 23 % -2.24 C
1396 27-05-2009 15:10:01 19.2 C 25 % -1.28 C
1397 27-05-2009 15:22:01 19.3 C 26 % -0.66 C
1398 27-05-2009 15:34:01 19.3 C 26 % -0.66 C
1399 27-05-2009 15:46:01 19.3 C 27 % -0.14 C
1400 27-05-2009 15:58:01 19.5 C 27 % 0.03 C
Sensor: Nr:Datum:Temp:Feuchte:Taupunkt:
Aussen-T/F 1401 27-05-2009 16:10:01 19.9 C 27 % 0.37 C
1402 27-05-2009 16:22:02 19.4 C 26 % -0.57 C
1403 27-05-2009 16:34:01 20.3 C 26 % 0.19 C
1404 27-05-2009 16:46:02 19.6 C 27 % 0.11 C
1405 27-05-2009 16:58:02 19.5 C 28 % 0.53 C
1406 27-05-2009 17:10:01 19.1 C 27 % -0.31 C
1407 27-05-2009 17:22:01 19.3 C 29 % 0.84 C
1408 27-05-2009 17:34:02 18.4 C 30 % 0.53 C
1409 27-05-2009 17:46:01 17.9 C 32 % 0.99 C
1410 27-05-2009 17:58:01 18 C 31 % 0.64 C
1411 27-05-2009 18:10:02 17.5 C 31 % 0.2 C
1412 27-05-2009 18:22:01 17.4 C 30 % -0.33 C
1413 27-05-2009 18:34:02 17.2 C 30 % -0.51 C
1414 27-05-2009 18:46:01 17.5 C 31 % 0.2 C
1415 27-05-2009 18:58:01 17.4 C 32 % 0.56 C
1416 27-05-2009 19:10:02 17.5 C 33 % 1.07 C
1417 27-05-2009 19:22:01 17.7 C 33 % 1.24 C
1418 27-05-2009 19:34:01 17.3 C 33 % 0.89 C
1419 27-05-2009 19:46:01 17.2 C 35 % 1.62 C
1420 27-05-2009 19:58:01 17.1 C 35 % 1.53 C
1421 27-05-2009 20:10:01 16.8 C 36 % 1.66 C
1422 27-05-2009 20:22:02 16.6 C 37 % 1.87 C
1423 27-05-2009 20:34:01 16.3 C 37 % 1.6 C
1424 27-05-2009 20:46:02 16 C 39 % 2.07 C
1425 27-05-2009 20:58:02 15.5 C 38 % 1.26 C
Sensor: Nr:Datum:Temp:Feuchte:Taupunkt:
Aussen-T/F 1426 27-05-2009 21:10:01 15 C 41 % 1.87 C
1427 27-05-2009 21:22:01 14.7 C 44 % 2.59 C
1428 27-05-2009 21:34:01 14.4 C 45 % 2.63 C
1429 27-05-2009 21:46:01 14.5 C 46 % 3.03 C
1430 27-05-2009 21:58:01 14.5 C 46 % 3.03 C
1431 27-05-2009 22:10:01 14.3 C 47 % 3.15 C
1432 27-05-2009 22:22:40 14.2 C 47 % 3.06 C
1433 27-05-2009 22:34:40 13.8 C 52 % 4.13 C
1434 27-05-2009 22:46:40 13.3 C 53 % 3.93 C
1435 27-05-2009 22:58:40 13.5 C 54 % 4.39 C
1436 27-05-2009 23:10:41 13.2 C 54 % 4.11 C
1437 27-05-2009 23:22:41 13.2 C 53 % 3.84 C
1438 27-05-2009 23:34:41 13.3 C 51 % 3.39 C
1439 27-05-2009 23:46:41 13.6 C 49 % 3.1 C
1440 27-05-2009 23:58:41 13.6 C 49 % 3.1 C
1441 28-05-2009 00:10:41 13.4 C 49 % 2.92 C
1442 28-05-2009 00:22:41 13.4 C 48 % 2.63 C
1443 28-05-2009 00:34:41 13.4 C 49 % 2.92 C
1444 28-05-2009 00:46:41 13.3 C 49 % 2.83 C
1445 28-05-2009 00:58:41 13.2 C 50 % 3.02 C
1446 28-05-2009 01:10:41 13.2 C 51 % 3.3 C
1447 28-05-2009 01:22:41 13.1 C 52 % 3.48 C
1448 28-05-2009 01:34:41 13.1 C 53 % 3.75 C
1449 28-05-2009 01:46:41 13 C 54 % 3.92 C
1450 28-05-2009 01:58:41 13.1 C 55 % 4.28 C
Sensor: Nr:Datum:Temp:Feuchte:Taupunkt:
Aussen-T/F 1451 28-05-2009 02:10:41 13.1 C 55 % 4.28 C
1452 28-05-2009 02:22:41 12.9 C 59 % 5.09 C
1453 28-05-2009 02:34:41 12.3 C 65 % 5.92 C
1454 28-05-2009 02:46:41 12.7 C 61 % 5.38 C
1455 28-05-2009 02:58:41 12.9 C 59 % 5.09 C
1456 28-05-2009 03:10:41 13 C 57 % 4.69 C
1457 28-05-2009 03:22:42 13 C 58 % 4.94 C
1458 28-05-2009 03:34:42 12.7 C 60 % 5.14 C
1459 28-05-2009 03:46:42 12.7 C 61 % 5.38 C
1460 28-05-2009 03:58:42 12.8 C 61 % 5.48 C
1461 28-05-2009 04:10:42 12.9 C 61 % 5.57 C
1462 28-05-2009 04:22:42 13 C 61 % 5.66 C
1463 28-05-2009 04:34:42 13 C 61 % 5.66 C
1464 28-05-2009 04:46:42 12.9 C 63 % 6.04 C
1465 28-05-2009 04:58:42 12.9 C 63 % 6.04 C
1466 28-05-2009 05:10:42 12.8 C 64 % 6.17 C
1467 28-05-2009 05:22:40 12.8 C 66 % 6.61 C
1468 28-05-2009 05:34:40 12.8 C 66 % 6.61 C
1469 28-05-2009 05:46:40 12.9 C 67 % 6.93 C
1470 28-05-2009 05:58:40 13 C 66 % 6.8 C
1471 28-05-2009 06:10:39 13 C 66 % 6.8 C
1472 28-05-2009 06:22:39 13 C 66 % 6.8 C
1473 28-05-2009 06:34:39 13.1 C 66 % 6.9 C
1474 28-05-2009 06:46:39 13.2 C 66 % 7 C
1475 28-05-2009 06:58:40 13.2 C 66 % 7 C
Sensor: Nr:Datum:Temp:Feuchte:Taupunkt:
Aussen-T/F 1476 28-05-2009 07:10:38 13.3 C 66 % 7.09 C
1477 28-05-2009 07:22:39 13.4 C 66 % 7.19 C
1478 28-05-2009 07:34:38 13.5 C 66 % 7.28 C
1479 28-05-2009 07:46:38 13.6 C 67 % 7.6 C
1480 28-05-2009 07:58:39 13.6 C 66 % 7.38 C
1481 28-05-2009 08:10:38 13.7 C 66 % 7.47 C
1482 28-05-2009 08:22:38 13.9 C 66 % 7.66 C
1483 28-05-2009 08:34:38 14.1 C 66 % 7.85 C
1484 28-05-2009 08:46:38 14.6 C 64 % 7.87 C
1485 28-05-2009 08:58:38 14.8 C 62 % 7.6 C
1486 28-05-2009 09:10:38 15 C 62 % 7.79 C
1487 28-05-2009 09:22:37 14.9 C 63 % 7.93 C
1488 28-05-2009 09:34:37 14.9 C 64 % 8.16 C
1489 28-05-2009 09:46:37 15.2 C 62 % 7.98 C
1490 28-05-2009 09:58:37 15.3 C 63 % 8.31 C
1491 28-05-2009 10:10:37 15.4 C 62 % 8.16 C
1492 28-05-2009 10:22:37 15.7 C 61 % 8.21 C
1493 28-05-2009 10:34:37 15.3 C 63 % 8.31 C
1494 28-05-2009 10:46:37 15.4 C 63 % 8.4 C
1495 28-05-2009 10:58:37 16 C 61 % 8.49 C
1496 28-05-2009 11:10:36 16.4 C 60 % 8.62 C
1497 28-05-2009 11:22:36 16.6 C 59 % 8.56 C
1498 28-05-2009 11:34:36 16.8 C 59 % 8.75 C
1499 28-05-2009 11:46:36 16.7 C 60 % 8.9 C
1500 28-05-2009 11:58:37 16.6 C 60 % 8.81 C
Sensor: Nr:Datum:Temp:Feuchte:Taupunkt:
Aussen-T/F 1501 28-05-2009 12:10:35 16.2 C 62 % 8.92 C
1502 28-05-2009 12:22:36 15.6 C 68 % 9.72 C
1503 28-05-2009 12:34:36 14.9 C 77 % 10.91 C
1504 28-05-2009 12:46:35 14.9 C 79 % 11.29 C
1505 28-05-2009 12:58:35 15 C 81 % 11.77 C
1506 28-05-2009 13:10:36 15.6 C 82 % 12.54 C
1507 28-05-2009 13:22:35 15.8 C 81 % 12.55 C
1508 28-05-2009 13:34:35 15.7 C 81 % 12.45 C
1509 28-05-2009 13:46:34 16.8 C 82 % 13.71 C
1510 28-05-2009 13:58:34 17 C 77 % 12.94 C
1511 28-05-2009 14:10:35 16 C 77 % 11.97 C
1512 28-05-2009 14:22:35 16.7 C 81 % 13.43 C
1513 28-05-2009 14:34:34 18.2 C 73 % 13.28 C
1514 28-05-2009 14:46:35 18.5 C 67 % 12.26 C
1515 28-05-2009 14:58:35 17.9 C 69 % 12.14 C
1516 28-05-2009 15:10:34 16.8 C 73 % 11.94 C
1517 28-05-2009 15:22:34 17.1 C 74 % 12.43 C
1518 28-05-2009 15:34:33 18.3 C 65 % 11.61 C
1519 28-05-2009 15:46:34 19.3 C 58 % 10.84 C
1520 28-05-2009 15:58:35 18.5 C 63 % 11.33 C
1521 28-05-2009 16:10:33 18.5 C 60 % 10.6 C
1522 28-05-2009 16:22:33 18.3 C 59 % 10.16 C
1523 28-05-2009 16:34:34 20.3 C 54 % 10.69 C
1524 28-05-2009 16:46:33 20.6 C 50 % 9.82 C
1525 28-05-2009 16:58:33 19.4 C 54 % 9.86 C
Sensor: Nr:Datum:Temp:Feuchte:Taupunkt:
Aussen-T/F 1526 28-05-2009 17:10:33 19.1 C 55 % 9.86 C
1527 28-05-2009 17:22:33 19.7 C 53 % 9.86 C
1528 28-05-2009 17:34:33 19.4 C 54 % 9.86 C
1529 28-05-2009 17:46:33 19.3 C 53 % 9.49 C
1530 28-05-2009 17:58:33 18.9 C 49 % 7.96 C
1531 28-05-2009 18:10:32 18.7 C 52 % 8.65 C
1532 28-05-2009 18:22:33 18.4 C 54 % 8.93 C
1533 28-05-2009 18:34:32 18.3 C 54 % 8.84 C
1534 28-05-2009 18:46:32 18.1 C 56 % 9.19 C
1535 28-05-2009 18:58:32 18.5 C 55 % 9.3 C
1536 28-05-2009 19:10:32 18.5 C 57 % 9.83 C
1537 28-05-2009 19:22:31 18 C 59 % 9.88 C
1538 28-05-2009 19:34:31 17.7 C 62 % 10.33 C
1539 28-05-2009 19:46:31 17.5 C 61 % 9.9 C
1540 28-05-2009 19:58:31 17.5 C 61 % 9.9 C
1541 28-05-2009 20:10:31 17.5 C 60 % 9.66 C
1542 28-05-2009 20:22:31 17.5 C 61 % 9.9 C
1543 28-05-2009 20:34:31 17.5 C 61 % 9.9 C
1544 28-05-2009 20:46:31 17.4 C 59 % 9.31 C
1545 28-05-2009 20:58:32 17.2 C 59 % 9.13 C
1546 28-05-2009 21:10:31 16.6 C 62 % 9.3 C
1547 28-05-2009 21:22:31 16.2 C 62 % 8.92 C
1548 28-05-2009 21:34:30 16.3 C 58 % 8.03 C
1549 28-05-2009 21:47:31 16.2 C 58 % 7.94 C
1550 28-05-2009 21:59:31 16 C 60 % 8.25 C
Sensor: Nr:Datum:Temp:Feuchte:Taupunkt:
Aussen-T/F 1551 28-05-2009 22:11:31 15.8 C 61 % 8.3 C
1552 28-05-2009 22:23:31 15.6 C 62 % 8.35 C
1553 28-05-2009 22:35:31 15.5 C 62 % 8.26 C
1554 28-05-2009 22:47:31 15.7 C 61 % 8.21 C
1555 28-05-2009 22:59:31 15.8 C 60 % 8.06 C
1556 28-05-2009 23:11:31 15.8 C 60 % 8.06 C
1557 28-05-2009 23:23:31 15.6 C 60 % 7.87 C
1558 28-05-2009 23:35:31 15.5 C 60 % 7.78 C
1559 28-05-2009 23:47:31 15.6 C 60 % 7.87 C
1560 28-05-2009 23:59:31 15.6 C 58 % 7.37 C
1561 29-05-2009 00:11:31 15.6 C 58 % 7.37 C
1562 29-05-2009 00:23:31 15.4 C 58 % 7.19 C
1563 29-05-2009 00:35:31 15.1 C 59 % 7.16 C
1564 29-05-2009 00:47:31 14.6 C 62 % 7.41 C
1565 29-05-2009 00:59:31 14.2 C 63 % 7.27 C
1566 29-05-2009 01:11:32 13.9 C 66 % 7.66 C
1567 29-05-2009 01:23:32 13.5 C 67 % 7.5 C
1568 29-05-2009 01:35:32 13.2 C 69 % 7.64 C
1569 29-05-2009 01:47:32 13 C 70 % 7.66 C
1570 29-05-2009 01:59:32 12.8 C 72 % 7.88 C
1571 29-05-2009 02:11:32 12.5 C 73 % 7.8 C
1572 29-05-2009 02:23:32 12.2 C 73 % 7.51 C
1573 29-05-2009 02:35:32 12.1 C 74 % 7.61 C
1574 29-05-2009 02:47:32 11.8 C 76 % 7.71 C
1575 29-05-2009 02:59:32 11.6 C 77 % 7.71 C
Sensor: Nr:Datum:Temp:Feuchte:Taupunkt:
Aussen-T/F 1576 29-05-2009 03:11:32 11.4 C 78 % 7.71 C
1577 29-05-2009 03:23:32 11.1 C 78 % 7.41 C
1578 29-05-2009 03:35:32 10.8 C 79 % 7.31 C
1579 29-05-2009 03:47:32 10.6 C 79 % 7.11 C
1580 29-05-2009 03:59:32 10.5 C 80 % 7.2 C
1581 29-05-2009 04:11:32 10.2 C 80 % 6.91 C
1582 29-05-2009 04:23:32 10.1 C 80 % 6.81 C
1583 29-05-2009 04:35:32 9.9 C 81 % 6.8 C
1584 29-05-2009 04:47:32 9.7 C 82 % 6.78 C
1585 29-05-2009 04:59:32 9.6 C 82 % 6.68 C
1586 29-05-2009 05:11:33 9.4 C 82 % 6.49 C
1587 29-05-2009 05:23:33 9.4 C 83 % 6.66 C
1588 29-05-2009 05:35:33 9.4 C 84 % 6.84 C
1589 29-05-2009 05:47:33 9.3 C 84 % 6.74 C
1590 29-05-2009 05:59:33 9.2 C 85 % 6.81 C
1591 29-05-2009 06:11:33 9.1 C 85 % 6.72 C
1592 29-05-2009 06:23:33 9.1 C 86 % 6.89 C
1593 29-05-2009 06:35:33 9.2 C 86 % 6.98 C
1594 29-05-2009 06:47:33 9.2 C 86 % 6.98 C
1595 29-05-2009 06:59:33 9.3 C 86 % 7.08 C
1596 29-05-2009 07:11:31 9.5 C 86 % 7.28 C
1597 29-05-2009 07:23:30 9.5 C 85 % 7.11 C
1598 29-05-2009 07:35:31 9.7 C 85 % 7.3 C
1599 29-05-2009 07:47:30 9.8 C 84 % 7.23 C
1600 29-05-2009 07:59:30 10.2 C 83 % 7.45 C
Sensor: Nr:Datum:Temp:Feuchte:Taupunkt:
Aussen-T/F 1601 29-05-2009 08:11:30 10.5 C 80 % 7.2 C
1602 29-05-2009 08:23:30 11.1 C 70 % 5.84 C
1603 29-05-2009 08:35:30 11.4 C 63 % 4.62 C
1604 29-05-2009 08:47:29 11.8 C 60 % 4.3 C
1605 29-05-2009 08:59:29 12.2 C 57 % 3.94 C
1606 29-05-2009 09:11:29 12.7 C 50 % 2.56 C
1607 29-05-2009 09:23:30 13.2 C 45 % 1.54 C
1608 29-05-2009 09:35:29 13.6 C 40 % 0.27 C
1609 29-05-2009 09:47:29 13.9 C 39 % 0.19 C
1610 29-05-2009 09:59:29 14.1 C 31 % -2.75 C
1611 29-05-2009 10:11:29 14.7 C 31 % -2.23 C
1612 29-05-2009 10:23:29 15 C 32 % -1.54 C
1613 29-05-2009 10:35:28 15.9 C 32 % -0.75 C
1614 29-05-2009 10:47:29 15.7 C 30 % -1.8 C
1615 29-05-2009 10:59:29 16.6 C 30 % -1.02 C
1616 29-05-2009 11:11:28 17.5 C 25 % -2.72 C
1617 29-05-2009 11:23:28 17 C 21 % -5.45 C
1618 29-05-2009 11:35:28 17.6 C 25 % -2.63 C
1619 29-05-2009 11:47:28 18.8 C 23 % -2.74 C
1620 29-05-2009 11:59:28 19.6 C 21 % -3.29 C
1621 29-05-2009 12:11:28 20.3 C 20 % -3.37 C
1622 29-05-2009 12:23:27 20.4 C 20 % -3.28 C
1623 29-05-2009 12:35:28 21.7 C 20 % -2.21 C
1624 29-05-2009 12:47:27 22.6 C 20 % -1.47 C
1625 29-05-2009 12:59:27 23.2 C 20 % -0.98 C
Sensor: Nr:Datum:Temp:Feuchte:Taupunkt:
Aussen-T/F 1626 29-05-2009 13:11:27 23.4 C 20 % -0.81 C
1627 29-05-2009 13:23:27 23.7 C 20 % -0.57 C
1628 29-05-2009 13:35:27 24.7 C 20 % 0.26 C
1629 29-05-2009 13:47:27 24.8 C 20 % 0.34 C
1630 29-05-2009 13:59:27 24 C 20 % -0.32 C
1631 29-05-2009 14:11:26 23 C 20 % -1.14 C
1632 29-05-2009 14:23:26 23.1 C 20 % -1.06 C
1633 29-05-2009 14:35:26 22.6 C 20 % -1.47 C
1634 29-05-2009 14:47:26 23.3 C 20 % -0.9 C
1635 29-05-2009 14:59:26 24.6 C 20 % 0.17 C
1636 29-05-2009 15:11:26 25 C 20 % 0.5 C
1637 29-05-2009 15:23:26 25.6 C 20 % 1 C
1638 29-05-2009 15:35:26 26.6 C 20 % 1.82 C
1639 29-05-2009 15:47:26 26.2 C 20 % 1.49 C
1640 29-05-2009 15:59:26 26.1 C 20 % 1.41 C
1641 29-05-2009 16:11:25 27.3 C 20 % 2.39 C
1642 29-05-2009 16:23:25 27.4 C 20 % 2.47 C
1643 29-05-2009 16:35:25 28.4 C 20 % 3.29 C
1644 29-05-2009 16:47:25 27.8 C 20 % 2.8 C
1645 29-05-2009 16:59:25 26.4 C 20 % 1.65 C
1646 29-05-2009 17:11:24 28 C 20 % 2.97 C
1647 29-05-2009 17:23:25 28 C 20 % 2.97 C
1648 29-05-2009 17:35:25 29 C 20 % 3.79 C
1649 29-05-2009 17:47:24 28.8 C 20 % 3.62 C
1650 29-05-2009 17:59:24 28.3 C 20 % 3.21 C
Sensor: Nr:Datum:Temp:Feuchte:Taupunkt:
Aussen-T/F 1651 29-05-2009 18:11:25 27.9 C 20 % 2.88 C
1652 29-05-2009 18:23:24 28.6 C 20 % 3.46 C
1653 29-05-2009 18:35:24 28.7 C 20 % 3.54 C
1654 29-05-2009 18:47:24 27.6 C 20 % 2.64 C
1655 29-05-2009 18:59:24 27.1 C 20 % 2.23 C
1656 29-05-2009 19:11:24 26.9 C 20 % 2.06 C
1657 29-05-2009 19:23:24 26.8 C 20 % 1.98 C
1658 29-05-2009 19:35:23 26.6 C 20 % 1.82 C
1659 29-05-2009 19:47:24 26.2 C 20 % 1.49 C
1660 29-05-2009 19:59:24 25.5 C 20 % 0.91 C
1661 29-05-2009 20:11:23 24.5 C 20 % 0.09 C
1662 29-05-2009 20:23:23 23.7 C 20 % -0.57 C
1663 29-05-2009 20:35:02 23.2 C 20 % -0.98 C
1664 29-05-2009 20:47:02 22.5 C 22 % -0.25 C
1665 29-05-2009 20:59:02 21.6 C 27 % 1.82 C
1666 29-05-2009 21:11:02 20.2 C 29 % 1.62 C
1667 29-05-2009 21:23:02 19.1 C 30 % 1.14 C
1668 29-05-2009 21:35:01 18.4 C 32 % 1.43 C
1669 29-05-2009 21:47:02 18.1 C 32 % 1.17 C
1670 29-05-2009 21:59:02 18 C 32 % 1.08 C
1671 29-05-2009 22:11:01 17.8 C 34 % 1.75 C
1672 29-05-2009 22:23:01 17.4 C 34 % 1.4 C
1673 29-05-2009 22:35:01 16.8 C 36 % 1.66 C
1674 29-05-2009 22:48:02 16.4 C 36 % 1.31 C
1675 29-05-2009 23:00:02 16.2 C 37 % 1.51 C
Sensor: Nr:Datum:Temp:Feuchte:Taupunkt:
Aussen-T/F 1676 29-05-2009 23:12:02 15.7 C 38 % 1.44 C
1677 29-05-2009 23:24:03 15.4 C 39 % 1.53 C
1678 29-05-2009 23:36:03 15 C 40 % 1.53 C
1679 29-05-2009 23:48:03 14.5 C 45 % 2.72 C
1680 30-05-2009 00:00:03 14.4 C 44 % 2.32 C
1681 30-05-2009 00:12:03 14.3 C 46 % 2.85 C
1682 30-05-2009 00:24:03 14.1 C 45 % 2.36 C
1683 30-05-2009 00:36:03 13.8 C 46 % 2.4 C
1684 30-05-2009 00:48:03 13.5 C 46 % 2.12 C
1685 30-05-2009 01:00:03 13.4 C 47 % 2.33 C
1686 30-05-2009 01:12:03 13 C 50 % 2.83 C
1687 30-05-2009 01:24:03 12.8 C 51 % 2.93 C
1688 30-05-2009 01:36:03 12.7 C 50 % 2.56 C
1689 30-05-2009 01:48:03 12.4 C 53 % 3.1 C
1690 30-05-2009 02:00:03 12.1 C 55 % 3.34 C
1691 30-05-2009 02:12:03 11.9 C 57 % 3.66 C
1692 30-05-2009 02:24:03 11.6 C 58 % 3.63 C
1693 30-05-2009 02:36:03 11.5 C 58 % 3.54 C
1694 30-05-2009 02:48:03 11.5 C 59 % 3.78 C
1695 30-05-2009 03:00:03 11.4 C 58 % 3.44 C
1696 30-05-2009 03:12:03 11.4 C 56 % 2.95 C
1697 30-05-2009 03:24:04 11.5 C 55 % 2.79 C
1698 30-05-2009 03:36:04 11.4 C 56 % 2.95 C
1699 30-05-2009 03:48:04 11.3 C 56 % 2.85 C
1700 30-05-2009 04:00:04 11.1 C 57 % 2.92 C
Sensor: Nr:Datum:Temp:Feuchte:Taupunkt:
Aussen-T/F 1701 30-05-2009 04:12:04 11 C 59 % 3.31 C
1702 30-05-2009 04:24:04 10.8 C 60 % 3.36 C
1703 30-05-2009 04:36:04 10.8 C 60 % 3.36 C
1704 30-05-2009 04:48:04 10.7 C 60 % 3.26 C
1705 30-05-2009 05:00:04 10.6 C 61 % 3.4 C
1706 30-05-2009 05:12:04 10.4 C 61 % 3.21 C
1707 30-05-2009 05:24:04 10.2 C 65 % 3.92 C
1708 30-05-2009 05:36:04 10.1 C 67 % 4.26 C
1709 30-05-2009 05:48:04 10 C 70 % 4.79 C
1710 30-05-2009 06:00:04 9.9 C 70 % 4.69 C
1711 30-05-2009 06:12:04 9.9 C 70 % 4.69 C
1712 30-05-2009 06:24:04 9.9 C 70 % 4.69 C
1713 30-05-2009 06:36:04 9.9 C 72 % 5.1 C
1714 30-05-2009 06:48:04 10 C 71 % 4.99 C
1715 30-05-2009 07:00:04 10.1 C 71 % 5.09 C
1716 30-05-2009 07:12:04 10.3 C 72 % 5.48 C
1717 30-05-2009 07:24:05 10.5 C 71 % 5.47 C
1718 30-05-2009 07:36:02 10.8 C 70 % 5.56 C
1719 30-05-2009 07:48:02 11.1 C 69 % 5.64 C
1720 30-05-2009 08:00:02 11.4 C 68 % 5.71 C
1721 30-05-2009 08:12:01 11.7 C 66 % 5.57 C
1722 30-05-2009 08:24:02 12.3 C 63 % 5.47 C
1723 30-05-2009 08:36:02 12.7 C 60 % 5.14 C
1724 30-05-2009 08:48:01 13.4 C 56 % 4.81 C
1725 30-05-2009 09:00:01 13.8 C 53 % 4.4 C
Sensor: Nr:Datum:Temp:Feuchte:Taupunkt:
Aussen-T/F 1726 30-05-2009 09:12:02 14.2 C 52 % 4.5 C
1727 30-05-2009 09:24:01 14.8 C 50 % 4.49 C
1728 30-05-2009 09:36:01 15.3 C 49 % 4.66 C
1729 30-05-2009 09:48:01 15.9 C 47 % 4.61 C
1730 30-05-2009 10:00:01 16.5 C 45 % 4.54 C
1731 30-05-2009 10:12:01 16.9 C 42 % 3.92 C
1732 30-05-2009 10:24:00 17.6 C 41 % 4.21 C
1733 30-05-2009 10:36:00 18.2 C 40 % 4.39 C
1734 30-05-2009 10:48:00 18.9 C 40 % 5.02 C
1735 30-05-2009 11:00:00 19.6 C 37 % 4.53 C
1736 30-05-2009 11:12:00 19.6 C 37 % 4.53 C
1737 30-05-2009 11:24:00 19.9 C 36 % 4.4 C
1738 30-05-2009 11:36:00 20.6 C 35 % 4.62 C
1739 30-05-2009 11:48:00 21.2 C 32 % 3.87 C
1740 30-05-2009 12:00:00 21.4 C 29 % 2.65 C
1741 30-05-2009 12:12:59 23 C 26 % 2.48 C
1742 30-05-2009 12:24:00 21.6 C 29 % 2.82 C
1743 30-05-2009 12:36:00 22.1 C 26 % 1.72 C
1744 30-05-2009 12:48:59 22 C 26 % 1.63 C
1745 30-05-2009 13:00:59 21.5 C 27 % 1.73 C
1746 30-05-2009 13:11:59 24.3 C 23 % 1.86 C
1747 30-05-2009 13:24:59 26.5 C 20 % 1.74 C
1748 30-05-2009 13:36:59 26.6 C 20 % 1.82 C
1749 30-05-2009 13:48:58 25.8 C 20 % 1.16 C
1750 30-05-2009 14:00:59 24.9 C 20 % 0.42 C
Sensor: Nr:Datum:Temp:Feuchte:Taupunkt:
Aussen-T/F 1751 30-05-2009 14:13:00 23.2 C 20 % -0.98 C
1752 30-05-2009 14:24:58 22.7 C 23 % 0.52 C
1753 30-05-2009 14:36:58 24.1 C 20 % -0.24 C
1754 30-05-2009 14:48:58 25.7 C 20 % 1.08 C
1755 30-05-2009 15:00:58 25.4 C 20 % 0.83 C
1756 30-05-2009 15:12:58 25.1 C 20 % 0.59 C
1757 30-05-2009 15:24:58 25.7 C 20 % 1.08 C
1758 30-05-2009 15:36:57 26.6 C 20 % 1.82 C
1759 30-05-2009 15:48:58 25.3 C 20 % 0.75 C
1760 30-05-2009 16:00:57 26 C 20 % 1.32 C
1761 30-05-2009 16:12:57 27.5 C 20 % 2.56 C
1762 30-05-2009 16:24:57 28.2 C 20 % 3.13 C
1763 30-05-2009 16:36:58 28.2 C 20 % 3.13 C
1764 30-05-2009 16:48:57 29.1 C 20 % 3.87 C
1765 30-05-2009 17:00:57 28.6 C 20 % 3.46 C
1766 30-05-2009 17:12:57 28.3 C 20 % 3.21 C
1767 30-05-2009 17:24:57 26.9 C 20 % 2.06 C
1768 30-05-2009 17:36:57 25.1 C 20 % 0.59 C
1769 30-05-2009 17:48:56 27.9 C 20 % 2.88 C
1770 30-05-2009 18:00:56 28.6 C 20 % 3.46 C
1771 30-05-2009 18:12:57 29.4 C 20 % 4.11 C
1772 30-05-2009 18:24:56 26.6 C 20 % 1.82 C
1773 30-05-2009 18:36:56 25.2 C 20 % 0.67 C
1774 30-05-2009 18:48:55 25.7 C 20 % 1.08 C
1775 30-05-2009 19:00:56 26.9 C 20 % 2.06 C
Sensor: Nr:Datum:Temp:Feuchte:Taupunkt:
Aussen-T/F 1776 30-05-2009 19:12:56 27.2 C 20 % 2.31 C
1777 30-05-2009 19:24:56 27.1 C 20 % 2.23 C
1778 30-05-2009 19:36:55 26.8 C 20 % 1.98 C
1779 30-05-2009 19:48:56 26.1 C 20 % 1.41 C
1780 30-05-2009 20:00:55 25.5 C 20 % 0.91 C
1781 30-05-2009 20:12:55 25.1 C 21 % 1.26 C
1782 30-05-2009 20:24:55 24.5 C 22 % 1.41 C
1783 30-05-2009 20:36:55 23.6 C 25 % 2.44 C
1784 30-05-2009 20:48:55 22.6 C 27 % 2.67 C
1785 30-05-2009 21:00:55 21.6 C 31 % 3.76 C
1786 30-05-2009 21:12:56 20.9 C 34 % 4.47 C
1787 30-05-2009 21:24:54 20.4 C 35 % 4.44 C
1788 30-05-2009 21:36:54 19.7 C 37 % 4.62 C
1789 30-05-2009 21:48:54 19.6 C 39 % 5.28 C
1790 30-05-2009 22:00:54 18.9 C 40 % 5.02 C
1791 30-05-2009 22:12:54 18.7 C 42 % 5.54 C
1792 30-05-2009 22:24:54 18.2 C 42 % 5.09 C
1793 30-05-2009 22:36:54 17.8 C 44 % 5.4 C
1794 30-05-2009 22:48:54 17.5 C 45 % 5.45 C
1795 30-05-2009 23:01:54 17.5 C 46 % 5.76 C
1796 30-05-2009 23:13:54 17.3 C 46 % 5.58 C
1797 30-05-2009 23:25:54 17.2 C 47 % 5.8 C
1798 30-05-2009 23:37:54 17 C 48 % 5.92 C
1799 30-05-2009 23:49:54 17 C 48 % 5.92 C
1800 31-05-2009 00:01:54 16.6 C 49 % 5.85 C
Sensor: Nr:Datum:Temp:Feuchte:Taupunkt:
Aussen-T/F 1801 31-05-2009 00:13:54 16.4 C 51 % 6.25 C
1802 31-05-2009 00:25:54 16.3 C 52 % 6.44 C
1803 31-05-2009 00:37:54 16.6 C 52 % 6.71 C
1804 31-05-2009 00:49:55 16.7 C 52 % 6.81 C
1805 31-05-2009 01:01:55 16.7 C 52 % 6.81 C
1806 31-05-2009 01:13:55 16.4 C 53 % 6.81 C
1807 31-05-2009 01:25:55 16 C 54 % 6.71 C
1808 31-05-2009 01:37:55 15.5 C 56 % 6.77 C
1809 31-05-2009 01:49:55 15.6 C 58 % 7.37 C
1810 31-05-2009 02:01:55 15.8 C 57 % 7.31 C
1811 31-05-2009 02:13:55 15.8 C 57 % 7.31 C
1812 31-05-2009 02:25:55 15.7 C 58 % 7.47 C
1813 31-05-2009 02:37:55 15.9 C 58 % 7.66 C
1814 31-05-2009 02:49:55 15.9 C 58 % 7.66 C
1815 31-05-2009 03:01:55 15.8 C 58 % 7.56 C
1816 31-05-2009 03:13:55 15.9 C 57 % 7.4 C
1817 31-05-2009 03:25:55 15.6 C 58 % 7.37 C
1818 31-05-2009 03:37:55 15.5 C 59 % 7.53 C
1819 31-05-2009 03:49:55 15.5 C 59 % 7.53 C
1820 31-05-2009 04:01:55 15.6 C 60 % 7.87 C
1821 31-05-2009 04:13:55 15.5 C 60 % 7.78 C
1822 31-05-2009 04:25:55 15.2 C 61 % 7.74 C
1823 31-05-2009 04:37:56 15.4 C 61 % 7.93 C
1824 31-05-2009 04:49:56 15.5 C 61 % 8.02 C
1825 31-05-2009 05:01:56 15.5 C 61 % 8.02 C
Sensor: Nr:Datum:Temp:Feuchte:Taupunkt:
Aussen-T/F 1826 31-05-2009 05:13:56 15.4 C 61 % 7.93 C
1827 31-05-2009 05:25:56 15.4 C 61 % 7.93 C
1828 31-05-2009 05:37:56 15.4 C 61 % 7.93 C
1829 31-05-2009 05:49:56 15.4 C 62 % 8.16 C
1830 31-05-2009 06:01:56 15.3 C 62 % 8.07 C
1831 31-05-2009 06:13:56 15.4 C 63 % 8.4 C
1832 31-05-2009 06:25:56 15.6 C 63 % 8.59 C
1833 31-05-2009 06:37:56 15.8 C 62 % 8.54 C
1834 31-05-2009 06:49:56 15.9 C 62 % 8.64 C
1835 31-05-2009 07:01:56 16 C 61 % 8.49 C
1836 31-05-2009 07:13:56 15.9 C 61 % 8.4 C
1837 31-05-2009 07:25:56 16 C 61 % 8.49 C
1838 31-05-2009 07:37:56 16 C 63 % 8.97 C
1839 31-05-2009 07:49:56 16 C 63 % 8.97 C
1840 31-05-2009 08:01:54 15.9 C 64 % 9.11 C
1841 31-05-2009 08:13:54 16.2 C 64 % 9.39 C
1842 31-05-2009 08:25:54 16.7 C 63 % 9.63 C
1843 31-05-2009 08:37:53 17.5 C 59 % 9.41 C
1844 31-05-2009 08:49:54 17.6 C 58 % 9.25 C
1845 31-05-2009 09:01:53 17.7 C 58 % 9.34 C
1846 31-05-2009 09:13:53 18.3 C 55 % 9.11 C
1847 31-05-2009 09:25:53 18.6 C 54 % 9.12 C
1848 31-05-2009 09:37:54 18.9 C 53 % 9.12 C
1849 31-05-2009 09:49:53 18.9 C 51 % 8.55 C
1850 31-05-2009 10:01:53 19.3 C 50 % 8.63 C
Sensor: Nr:Datum:Temp:Feuchte:Taupunkt:
Aussen-T/F 1851 31-05-2009 10:13:53 20.1 C 48 % 8.76 C
1852 31-05-2009 10:25:53 20.4 C 45 % 8.08 C
1853 31-05-2009 10:37:53 20.5 C 45 % 8.17 C
1854 31-05-2009 10:49:52 20.5 C 46 % 8.49 C
1855 31-05-2009 11:01:53 20.9 C 44 % 8.2 C
1856 31-05-2009 11:13:54 21.2 C 42 % 7.79 C
1857 31-05-2009 11:25:52 21.4 C 40 % 7.25 C
1858 31-05-2009 11:37:52 21.9 C 39 % 7.33 C
1859 31-05-2009 11:49:51 22.4 C 37 % 7.01 C
1860 31-05-2009 12:01:52 23.3 C 34 % 6.57 C
1861 31-05-2009 12:13:52 23.9 C 33 % 6.66 C
1862 31-05-2009 12:25:52 23 C 33 % 5.88 C
1863 31-05-2009 12:37:51 22.7 C 35 % 6.46 C
1864 31-05-2009 12:49:52 22.2 C 36 % 6.43 C
1865 31-05-2009 13:01:51 23.1 C 33 % 5.96 C
1866 31-05-2009 13:13:51 25.6 C 27 % 5.23 C
1867 31-05-2009 13:25:51 26.1 C 22 % 2.74 C
1868 31-05-2009 13:37:51 23.5 C 29 % 4.45 C
1869 31-05-2009 13:49:51 23.1 C 29 % 4.11 C
1870 31-05-2009 14:01:51 24.5 C 29 % 5.31 C
1871 31-05-2009 14:13:51 25 C 27 % 4.72 C
1872 31-05-2009 14:25:50 25.4 C 25 % 3.96 C
1873 31-05-2009 14:37:51 25.7 C 25 % 4.21 C
1874 31-05-2009 14:49:50 25.6 C 25 % 4.13 C
1875 31-05-2009 15:01:50 25.8 C 22 % 2.49 C
Sensor: Nr:Datum:Temp:Feuchte:Taupunkt:
Aussen-T/F 1876 31-05-2009 15:13:50 26.3 C 21 % 2.25 C
1877 31-05-2009 15:25:50 25.6 C 21 % 1.67 C
1878 31-05-2009 15:37:50 26.7 C 21 % 2.58 C
1879 31-05-2009 15:49:49 27.4 C 20 % 2.47 C
1880 31-05-2009 16:01:50 27.1 C 20 % 2.23 C
1881 31-05-2009 16:13:50 27.1 C 20 % 2.23 C
1882 31-05-2009 16:25:50 28.1 C 20 % 3.05 C
1883 31-05-2009 16:37:49 27.1 C 20 % 2.23 C
1884 31-05-2009 16:49:50 27 C 20 % 2.15 C
1885 31-05-2009 17:01:49 25.4 C 23 % 2.78 C
1886 31-05-2009 17:13:49 25.5 C 22 % 2.24 C
1887 31-05-2009 17:25:49 25.8 C 22 % 2.49 C
1888 31-05-2009 17:37:48 25.8 C 23 % 3.12 C
1889 31-05-2009 17:49:49 25.5 C 22 % 2.24 C
1890 31-05-2009 18:01:48 24.8 C 24 % 2.88 C
1891 31-05-2009 18:13:48 27.5 C 20 % 2.56 C
1892 31-05-2009 18:25:48 25.6 C 22 % 2.32 C
1893 31-05-2009 18:37:49 25.7 C 24 % 3.63 C
1894 31-05-2009 18:49:48 27 C 21 % 2.83 C
1895 31-05-2009 19:01:48 27.5 C 21 % 3.24 C
1896 31-05-2009 19:13:48 27.5 C 21 % 3.24 C
1897 31-05-2009 19:25:48 27.6 C 21 % 3.33 C
1898 31-05-2009 19:37:47 26.8 C 22 % 3.32 C
1899 31-05-2009 19:49:48 25.6 C 25 % 4.13 C
1900 31-05-2009 20:01:47 24.1 C 26 % 3.42 C
Sensor: Nr:Datum:Temp:Feuchte:Taupunkt:
Aussen-T/F 1901 31-05-2009 20:13:47 24.1 C 27 % 3.95 C
1902 31-05-2009 20:25:48 23.3 C 29 % 4.28 C
1903 31-05-2009 20:37:47 22.9 C 31 % 4.89 C
1904 31-05-2009 20:49:47 22.2 C 33 % 5.18 C
1905 31-05-2009 21:01:47 21.4 C 36 % 5.73 C
1906 31-05-2009 21:13:47 20.8 C 38 % 5.97 C
1907 31-05-2009 21:25:47 20 C 38 % 5.26 C
1908 31-05-2009 21:37:46 19.6 C 40 % 5.64 C
1909 31-05-2009 21:49:47 19.2 C 41 % 5.64 C
1910 31-05-2009 22:01:46 18.9 C 43 % 6.06 C
1911 31-05-2009 22:13:46 18.6 C 44 % 6.12 C
1912 31-05-2009 22:25:46 18.4 C 45 % 6.26 C
1913 31-05-2009 22:37:46 18 C 46 % 6.22 C
1914 31-05-2009 22:49:01 17.8 C 48 % 6.65 C
1915 31-05-2009 23:01:01 17.7 C 48 % 6.56 C
1916 31-05-2009 23:13:01 17.4 C 49 % 6.59 C
1917 31-05-2009 23:25:01 17.2 C 50 % 6.7 C
1918 31-05-2009 23:37:01 16.9 C 51 % 6.71 C
1919 31-05-2009 23:49:00 16.6 C 52 % 6.71 C
1920 01-06-2009 00:01:00 16.6 C 53 % 6.99 C
1921 01-06-2009 00:13:00 16.3 C 54 % 6.98 C
1922 01-06-2009 00:26:01 16.1 C 55 % 7.07 C
1923 01-06-2009 00:38:01 15.9 C 58 % 7.66 C
1924 01-06-2009 00:50:01 15.6 C 59 % 7.62 C
1925 01-06-2009 01:02:01 15.6 C 60 % 7.87 C
Sensor: Nr:Datum:Temp:Feuchte:Taupunkt:
Aussen-T/F 1926 01-06-2009 01:14:01 15.2 C 61 % 7.74 C
1927 01-06-2009 01:26:01 14.9 C 62 % 7.69 C
1928 01-06-2009 01:38:01 14.8 C 64 % 8.06 C
1929 01-06-2009 01:50:01 14.6 C 64 % 7.87 C
1930 01-06-2009 02:02:01 14.5 C 64 % 7.78 C
1931 01-06-2009 02:14:01 14.3 C 66 % 8.04 C
1932 01-06-2009 02:26:01 14.1 C 67 % 8.07 C
1933 01-06-2009 02:38:01 13.7 C 68 % 7.91 C
1934 01-06-2009 02:50:01 13.8 C 69 % 8.22 C
1935 01-06-2009 03:02:01 13.6 C 70 % 8.24 C
1936 01-06-2009 03:14:01 13.4 C 71 % 8.26 C
1937 01-06-2009 03:26:01 13.3 C 71 % 8.16 C
1938 01-06-2009 03:38:01 13.1 C 72 % 8.17 C
1939 01-06-2009 03:50:01 13 C 73 % 8.28 C
1940 01-06-2009 04:02:01 12.9 C 74 % 8.38 C
1941 01-06-2009 04:14:02 12.8 C 75 % 8.48 C
1942 01-06-2009 04:26:02 12.6 C 75 % 8.29 C
1943 01-06-2009 04:38:02 12.5 C 76 % 8.39 C
1944 01-06-2009 04:50:02 12.4 C 76 % 8.29 C
1945 01-06-2009 05:02:02 12.2 C 76 % 8.1 C
1946 01-06-2009 05:14:02 12.3 C 76 % 8.2 C
1947 01-06-2009 05:26:02 12.4 C 77 % 8.49 C
1948 01-06-2009 05:38:02 12.6 C 77 % 8.68 C
1949 01-06-2009 05:50:02 12.8 C 76 % 8.68 C
1950 01-06-2009 06:02:02 12.8 C 76 % 8.68 C
Sensor: Nr:Datum:Temp:Feuchte:Taupunkt:
Aussen-T/F 1951 01-06-2009 06:14:02 13 C 74 % 8.48 C
1952 01-06-2009 06:26:02 13.2 C 74 % 8.67 C
1953 01-06-2009 06:38:02 13.2 C 73 % 8.47 C
1954 01-06-2009 06:50:02 13.5 C 73 % 8.76 C
1955 01-06-2009 07:02:02 13.5 C 73 % 8.76 C
1956 01-06-2009 07:14:02 13.6 C 73 % 8.86 C
1957 01-06-2009 07:26:02 13.8 C 73 % 9.05 C
1958 01-06-2009 07:38:02 14.3 C 71 % 9.12 C
1959 01-06-2009 07:50:02 14.4 C 70 % 9 C
1960 01-06-2009 08:02:03 14.3 C 71 % 9.12 C
1961 01-06-2009 08:14:03 14.5 C 71 % 9.31 C
1962 01-06-2009 08:26:03 15.1 C 69 % 9.46 C
1963 01-06-2009 08:38:01 15.9 C 66 % 9.56 C
1964 01-06-2009 08:50:01 16.9 C 62 % 9.58 C
1965 01-06-2009 09:02:00 17.1 C 60 % 9.28 C
1966 01-06-2009 09:14:00 17.6 C 60 % 9.75 C
1967 01-06-2009 09:26:01 18.2 C 56 % 9.29 C
1968 01-06-2009 09:38:01 18.3 C 56 % 9.38 C
1969 01-06-2009 09:50:00 18.7 C 55 % 9.48 C
1970 01-06-2009 10:02:01 19.6 C 52 % 9.48 C
1971 01-06-2009 10:14:01 20.1 C 49 % 9.06 C
1972 01-06-2009 10:26:00 20.8 C 49 % 9.7 C
1973 01-06-2009 10:38:00 21.7 C 48 % 10.22 C
1974 01-06-2009 10:50:00 22.1 C 43 % 8.95 C
1975 01-06-2009 11:14:00 22.5 C 42 % 8.96 C
Sensor: Nr:Datum:Temp:Feuchte:Taupunkt:
Aussen-T/F 1976 01-06-2009 11:14:00 22.8 C 42 % 9.23 C
1977 01-06-2009 11:26:00 22.6 C 42 % 9.05 C
1978 01-06-2009 11:37:59 23.3 C 39 % 8.58 C
1979 01-06-2009 11:50:59 24.5 C 36 % 8.46 C
1980 01-06-2009 12:02:59 24.5 C 35 % 8.05 C
1981 01-06-2009 12:14:58 25.7 C 31 % 7.31 C
1982 01-06-2009 12:26:58 26.5 C 31 % 8.01 C
1983 01-06-2009 12:38:59 26.8 C 29 % 7.29 C
1984 01-06-2009 12:50:58 26.2 C 30 % 7.27 C
1985 01-06-2009 13:02:58 25.4 C 35 % 8.84 C
1986 01-06-2009 13:14:59 24.8 C 38 % 9.53 C
1987 01-06-2009 13:26:59 25.6 C 34 % 8.58 C
1988 01-06-2009 13:38:58 25.7 C 35 % 9.1 C
1989 01-06-2009 13:50:58 24.4 C 38 % 9.17 C
1990 01-06-2009 14:02:58 19.6 C 54 % 10.05 C
1991 01-06-2009 14:14:58 19 C 72 % 13.84 C
1992 01-06-2009 14:26:59 20.1 C 73 % 15.11 C
1993 01-06-2009 14:38:57 22.4 C 56 % 13.2 C
1994 01-06-2009 14:50:57 22.7 C 55 % 13.2 C
1995 01-06-2009 15:02:57 22.1 C 62 % 14.48 C
1996 01-06-2009 15:14:57 22.6 C 61 % 14.7 C
1997 01-06-2009 15:26:57 23.7 C 54 % 13.84 C
1998 01-06-2009 15:38:57 23.6 C 56 % 14.31 C
1999 01-06-2009 15:50:57 24.6 C 50 % 13.49 C
2000 01-06-2009 16:02:57 25.9 C 39 % 10.89 C
Sensor: Nr:Datum:Temp:Feuchte:Taupunkt:
Aussen-T/F 2001 01-06-2009 16:14:56 26.9 C 34 % 9.72 C
2002 01-06-2009 16:26:56 28.8 C 26 % 7.4 C
2003 01-06-2009 16:38:56 29.4 C 23 % 6.12 C
2004 01-06-2009 16:50:56 25.6 C 29 % 6.26 C
2005 01-06-2009 17:02:56 21.6 C 61 % 13.76 C
2006 01-06-2009 17:14:56 22.4 C 59 % 14 C
2007 01-06-2009 17:26:56 23.3 C 55 % 13.76 C
2008 01-06-2009 17:38:56 24.3 C 47 % 12.27 C
2009 01-06-2009 17:50:56 24.7 C 44 % 11.63 C
2010 01-06-2009 18:02:55 24.7 C 42 % 10.93 C
2011 01-06-2009 18:14:56 25.4 C 38 % 10.06 C
2012 01-06-2009 18:26:57 25.9 C 39 % 10.89 C
2013 01-06-2009 18:38:55 28 C 30 % 8.82 C
2014 01-06-2009 18:50:55 27.4 C 34 % 10.16 C
2015 01-06-2009 19:02:54 25.6 C 37 % 9.84 C
2016 01-06-2009 19:14:55 23.7 C 39 % 8.93 C
2017 01-06-2009 19:26:55 24.2 C 37 % 8.6 C
2018 01-06-2009 19:38:55 25.3 C 35 % 8.75 C
2019 01-06-2009 19:50:54 25.3 C 33 % 7.88 C
2020 01-06-2009 20:02:55 25.2 C 33 % 7.79 C
2021 01-06-2009 20:14:54 24.9 C 34 % 7.97 C
2022 01-06-2009 20:26:54 24.5 C 34 % 7.62 C
2023 01-06-2009 20:38:54 23.7 C 35 % 7.34 C
2024 01-06-2009 20:50:54 22.6 C 39 % 7.95 C
2025 01-06-2009 21:02:53 22.1 C 44 % 9.29 C
Sensor: Nr:Datum:Temp:Feuchte:Taupunkt:
Aussen-T/F 2026 01-06-2009 21:14:54 21.1 C 46 % 9.04 C
2027 01-06-2009 21:26:54 20.3 C 49 % 9.24 C
2028 01-06-2009 21:38:54 19.7 C 50 % 8.99 C
2029 01-06-2009 21:50:53 19.3 C 52 % 9.21 C
2030 01-06-2009 22:02:54 19 C 53 % 9.21 C
2031 01-06-2009 22:14:53 18.6 C 56 % 9.66 C
2032 01-06-2009 22:26:53 18.4 C 56 % 9.47 C
2033 01-06-2009 22:39:09 18.1 C 58 % 9.71 C
2034 01-06-2009 22:51:09 17.8 C 60 % 9.94 C
2035 01-06-2009 23:03:09 17.4 C 60 % 9.56 C
2036 01-06-2009 23:15:09 17.2 C 61 % 9.62 C
2037 01-06-2009 23:27:09 17 C 63 % 9.91 C
2038 01-06-2009 23:39:09 16.9 C 64 % 10.05 C
2039 01-06-2009 23:51:09 16.6 C 65 % 10 C
2040 02-06-2009 00:03:09 16.4 C 66 % 10.04 C
2041 02-06-2009 00:15:09 16.1 C 67 % 9.98 C
2042 02-06-2009 00:27:09 16 C 68 % 10.1 C
2043 02-06-2009 00:39:09 15.8 C 71 % 10.56 C
2044 02-06-2009 00:51:09 15.5 C 73 % 10.69 C
2045 02-06-2009 01:03:09 15.3 C 74 % 10.7 C
2046 02-06-2009 01:15:09 15 C 75 % 10.61 C
2047 02-06-2009 01:27:10 14.9 C 76 % 10.71 C
2048 02-06-2009 01:39:10 14.7 C 78 % 10.91 C
2049 02-06-2009 01:51:10 14.6 C 78 % 10.81 C
2050 02-06-2009 02:03:10 14.4 C 78 % 10.62 C
Sensor: Nr:Datum:Temp:Feuchte:Taupunkt:
Aussen-T/F 2051 02-06-2009 02:15:10 14.1 C 79 % 10.52 C
2052 02-06-2009 02:27:10 14 C 80 % 10.61 C
2053 02-06-2009 02:39:10 13.7 C 81 % 10.5 C
2054 02-06-2009 02:51:10 13.7 C 81 % 10.5 C
2055 02-06-2009 03:03:10 13.7 C 81 % 10.5 C
2056 02-06-2009 03:15:10 13.5 C 82 % 10.49 C
2057 02-06-2009 03:27:10 13.4 C 82 % 10.39 C
2058 02-06-2009 03:39:10 13.4 C 82 % 10.39 C
2059 02-06-2009 03:51:10 13.4 C 82 % 10.39 C
2060 02-06-2009 04:03:10 13.4 C 81 % 10.21 C
2061 02-06-2009 04:15:10 13.2 C 81 % 10.01 C
2062 02-06-2009 04:27:10 13 C 81 % 9.82 C
2063 02-06-2009 04:39:10 12.9 C 83 % 10.09 C
2064 02-06-2009 04:51:10 12.8 C 83 % 9.99 C
2065 02-06-2009 05:03:10 12.7 C 84 % 10.07 C
2066 02-06-2009 05:15:11 12.5 C 84 % 9.87 C
2067 02-06-2009 05:27:11 12.4 C 84 % 9.78 C
2068 02-06-2009 05:39:11 12.4 C 84 % 9.78 C
2069 02-06-2009 05:51:11 12.4 C 84 % 9.78 C
2070 02-06-2009 06:03:11 12.4 C 84 % 9.78 C
2071 02-06-2009 06:15:11 12.6 C 83 % 9.79 C
2072 02-06-2009 06:27:11 12.9 C 79 % 9.35 C
2073 02-06-2009 06:39:54 13.1 C 72 % 8.17 C
2074 02-06-2009 06:51:54 13.5 C 68 % 7.72 C
2075 02-06-2009 07:03:53 13.6 C 66 % 7.38 C
Sensor: Nr:Datum:Temp:Feuchte:Taupunkt:
Aussen-T/F 2076 02-06-2009 07:15:54 13.7 C 65 % 7.25 C
2077 02-06-2009 07:27:54 13.8 C 66 % 7.57 C
2078 02-06-2009 07:39:53 13.7 C 65 % 7.25 C
2079 02-06-2009 07:51:53 14 C 63 % 7.08 C
2080 02-06-2009 08:03:53 14.2 C 64 % 7.5 C
2081 02-06-2009 08:15:53 14.4 C 64 % 7.68 C
2082 02-06-2009 08:27:53 14.6 C 61 % 7.17 C
2083 02-06-2009 08:39:53 14.7 C 61 % 7.27 C
2084 02-06-2009 08:51:53 15.1 C 60 % 7.4 C
2085 02-06-2009 09:03:53 15.5 C 59 % 7.53 C
2086 02-06-2009 09:15:52 15.8 C 58 % 7.56 C
2087 02-06-2009 09:27:52 16 C 56 % 7.24 C
2088 02-06-2009 09:39:53 16.5 C 56 % 7.7 C
2089 02-06-2009 09:51:52 17 C 54 % 7.63 C
2090 02-06-2009 10:03:52 17.6 C 52 % 7.64 C
2091 02-06-2009 10:15:51 18 C 51 % 7.72 C
2092 02-06-2009 10:27:51 18.3 C 50 % 7.71 C
2093 02-06-2009 10:39:52 18.8 C 48 % 7.57 C
2094 02-06-2009 10:51:51 18.8 C 47 % 7.26 C
2095 02-06-2009 11:03:51 19.3 C 47 % 7.72 C
2096 02-06-2009 11:15:52 19.5 C 47 % 7.9 C
2097 02-06-2009 11:27:52 20.6 C 46 % 8.58 C
2098 02-06-2009 11:39:51 20.5 C 46 % 8.49 C
2099 02-06-2009 11:51:51 20.8 C 45 % 8.44 C
2100 02-06-2009 12:03:51 21.8 C 41 % 7.97 C
Sensor: Nr:Datum:Temp:Feuchte:Taupunkt:
Aussen-T/F 2101 02-06-2009 12:15:51 22.4 C 39 % 7.78 C
2102 02-06-2009 12:27:51 23.8 C 36 % 7.84 C
2103 02-06-2009 12:39:50 23.2 C 35 % 6.9 C
2104 02-06-2009 12:51:51 23.8 C 34 % 7.01 C
2105 02-06-2009 13:03:50 24.1 C 32 % 6.39 C
2106 02-06-2009 13:15:50 24.3 C 31 % 6.1 C
2107 02-06-2009 13:27:50 24.4 C 29 % 5.23 C
2108 02-06-2009 13:39:50 24.6 C 26 % 3.84 C
2109 02-06-2009 13:51:50 24.4 C 25 % 3.12 C
2110 02-06-2009 14:03:50 24.3 C 25 % 3.03 C
2111 02-06-2009 14:15:49 24.6 C 26 % 3.84 C
2112 02-06-2009 14:27:49 24 C 27 % 3.87 C
2113 02-06-2009 14:39:50 25.2 C 25 % 3.79 C
2114 02-06-2009 14:51:49 24.6 C 25 % 3.29 C
2115 02-06-2009 15:03:49 24.7 C 23 % 2.2 C
2116 02-06-2009 15:15:48 25.4 C 23 % 2.78 C
2117 02-06-2009 15:27:48 25.7 C 21 % 1.76 C
2118 02-06-2009 15:39:49 25.9 C 23 % 3.2 C
2119 02-06-2009 15:51:48 27 C 21 % 2.83 C
2120 02-06-2009 16:03:48 26.5 C 23 % 3.7 C
2121 02-06-2009 16:15:49 26 C 21 % 2 C
2122 02-06-2009 16:27:49 26.7 C 20 % 1.9 C
2123 02-06-2009 16:39:48 27.1 C 20 % 2.23 C
2124 02-06-2009 16:51:48 27 C 20 % 2.15 C
2125 02-06-2009 17:03:48 27.8 C 20 % 2.8 C
Sensor: Nr:Datum:Temp:Feuchte:Taupunkt:
Aussen-T/F 2126 02-06-2009 17:15:48 27.5 C 20 % 2.56 C
2127 02-06-2009 17:27:49 27.1 C 20 % 2.23 C
2128 02-06-2009 17:39:47 27.8 C 20 % 2.8 C
2129 02-06-2009 17:51:48 27.6 C 20 % 2.64 C
2130 02-06-2009 18:03:48 27.8 C 20 % 2.8 C
2131 02-06-2009 18:15:47 28.1 C 20 % 3.05 C
2132 02-06-2009 18:27:47 28.5 C 20 % 3.38 C
2133 02-06-2009 18:39:47 29.2 C 20 % 3.95 C
2134 02-06-2009 18:51:47 27.5 C 20 % 2.56 C
2135 02-06-2009 19:03:47 28.6 C 20 % 3.46 C
2136 02-06-2009 19:15:46 28.2 C 20 % 3.13 C
2137 02-06-2009 19:27:46 28.1 C 20 % 3.05 C
2138 02-06-2009 19:39:47 27.4 C 20 % 2.47 C
2139 02-06-2009 19:51:46 27.9 C 21 % 3.57 C
2140 02-06-2009 20:03:46 27.6 C 21 % 3.33 C
2141 02-06-2009 20:15:46 27.3 C 21 % 3.08 C
2142 02-06-2009 20:27:46 26.4 C 23 % 3.62 C
2143 02-06-2009 20:39:46 25.3 C 25 % 3.88 C
2144 02-06-2009 20:51:46 24.2 C 26 % 3.5 C
2145 02-06-2009 21:03:45 23.9 C 26 % 3.25 C
2146 02-06-2009 21:15:46 23.3 C 25 % 2.19 C
2147 02-06-2009 21:27:46 22.7 C 27 % 2.76 C
2148 02-06-2009 21:39:45 22.4 C 28 % 3.01 C
2149 02-06-2009 21:51:13 22.1 C 28 % 2.76 C
2150 02-06-2009 22:03:13 21.7 C 30 % 3.39 C
Sensor: Nr:Datum:Temp:Feuchte:Taupunkt:
Aussen-T/F 2151 02-06-2009 22:15:13 21.5 C 30 % 3.21 C
2152 02-06-2009 22:27:13 21.2 C 30 % 2.95 C
2153 02-06-2009 22:39:13 20.9 C 32 % 3.61 C
2154 02-06-2009 22:51:13 20.6 C 33 % 3.78 C
2155 02-06-2009 23:03:13 20.3 C 33 % 3.52 C
2156 02-06-2009 23:15:13 20.2 C 33 % 3.43 C
2157 02-06-2009 23:27:45 19.9 C 34 % 3.59 C
2158 02-06-2009 23:39:45 19.7 C 34 % 3.41 C
2159 02-06-2009 23:51:45 19.9 C 35 % 4 C
2160 03-06-2009 00:03:45 19.7 C 34 % 3.41 C
2161 03-06-2009 00:15:45 19.4 C 34 % 3.15 C
2162 03-06-2009 00:27:45 19 C 33 % 2.38 C
2163 03-06-2009 00:39:44 18.6 C 35 % 2.86 C
2164 03-06-2009 00:51:45 18.2 C 35 % 2.5 C
2165 03-06-2009 01:03:44 17.9 C 36 % 2.63 C
2166 03-06-2009 01:15:44 17.7 C 36 % 2.46 C
2167 03-06-2009 01:27:44 17.3 C 36 % 2.1 C
2168 03-06-2009 01:39:44 17.1 C 36 % 1.93 C
2169 03-06-2009 01:51:44 16.8 C 37 % 2.04 C
2170 03-06-2009 02:03:44 16.4 C 37 % 1.69 C
2171 03-06-2009 02:15:43 16 C 38 % 1.71 C
2172 03-06-2009 02:27:43 15.7 C 39 % 1.8 C
2173 03-06-2009 02:39:44 15.4 C 43 % 2.9 C
2174 03-06-2009 02:52:45 15.1 C 45 % 3.27 C
2175 03-06-2009 03:04:45 15 C 45 % 3.18 C
Sensor: Nr:Datum:Temp:Feuchte:Taupunkt:
Aussen-T/F 2176 03-06-2009 03:16:45 14.6 C 47 % 3.43 C
2177 03-06-2009 03:28:45 14.4 C 47 % 3.25 C
2178 03-06-2009 03:40:45 14.2 C 47 % 3.06 C
2179 03-06-2009 03:52:45 13.8 C 50 % 3.57 C
2180 03-06-2009 04:04:45 13.7 C 51 % 3.76 C
2181 03-06-2009 04:16:44 13.6 C 51 % 3.67 C
2182 03-06-2009 04:28:44 13.5 C 51 % 3.57 C
2183 03-06-2009 04:40:45 13.3 C 52 % 3.66 C
2184 03-06-2009 04:52:44 13.1 C 52 % 3.48 C
2185 03-06-2009 05:04:44 13 C 52 % 3.39 C
2186 03-06-2009 05:16:44 13 C 52 % 3.39 C
2187 03-06-2009 05:28:44 12.8 C 53 % 3.47 C
2188 03-06-2009 05:40:44 12.7 C 54 % 3.64 C
2189 03-06-2009 05:52:44 12.7 C 54 % 3.64 C
2190 03-06-2009 06:04:43 12.9 C 55 % 4.09 C
2191 03-06-2009 06:16:43 13 C 55 % 4.18 C
2192 03-06-2009 06:28:43 13 C 55 % 4.18 C
2193 03-06-2009 06:40:43 13 C 56 % 4.44 C
2194 03-06-2009 06:52:43 12.9 C 58 % 4.85 C
2195 03-06-2009 07:04:42 12.8 C 56 % 4.25 C
2196 03-06-2009 07:16:43 12.7 C 57 % 4.41 C
2197 03-06-2009 07:28:43 12.5 C 55 % 3.72 C
2198 03-06-2009 07:40:43 12.8 C 55 % 4 C
2199 03-06-2009 07:52:42 12.9 C 55 % 4.09 C
2200 03-06-2009 08:04:43 12.8 C 53 % 3.47 C
Sensor: Nr:Datum:Temp:Feuchte:Taupunkt:
Aussen-T/F 2201 03-06-2009 08:16:42 12.8 C 53 % 3.47 C
2202 03-06-2009 08:28:42 13 C 52 % 3.39 C
2203 03-06-2009 08:40:42 13 C 50 % 2.83 C
2204 03-06-2009 08:52:42 13.1 C 48 % 2.35 C
2205 03-06-2009 09:04:42 13.5 C 47 % 2.42 C
2206 03-06-2009 09:16:41 13.9 C 45 % 2.18 C
2207 03-06-2009 09:28:41 13.9 C 42 % 1.22 C
2208 03-06-2009 09:40:41 14.6 C 41 % 1.51 C
2209 03-06-2009 09:52:41 14.7 C 45 % 2.91 C
2210 03-06-2009 10:04:41 14.2 C 46 % 2.76 C
2211 03-06-2009 10:16:41 14.9 C 41 % 1.78 C
2212 03-06-2009 10:28:41 14.6 C 45 % 2.81 C
2213 03-06-2009 10:40:41 15 C 42 % 2.21 C
2214 03-06-2009 10:52:41 15.4 C 40 % 1.89 C
2215 03-06-2009 11:04:40 14.9 C 41 % 1.78 C
2216 03-06-2009 11:16:41 15.2 C 40 % 1.71 C
2217 03-06-2009 11:28:41 16 C 39 % 2.07 C
2218 03-06-2009 11:40:40 16.8 C 38 % 2.42 C
2219 03-06-2009 11:52:40 17 C 36 % 1.84 C
2220 03-06-2009 12:04:40 16.7 C 35 % 1.18 C
2221 03-06-2009 12:16:40 16.8 C 34 % 0.87 C
2222 03-06-2009 12:28:40 17.7 C 33 % 1.24 C
2223 03-06-2009 12:40:39 17.9 C 31 % 0.55 C
2224 03-06-2009 12:52:40 18.8 C 30 % 0.88 C
2225 03-06-2009 13:04:40 17.3 C 30 % -0.42 C
Sensor: Nr:Datum:Temp:Feuchte:Taupunkt:
Aussen-T/F 2226 03-06-2009 13:16:39 18.2 C 30 % 0.36 C
2227 03-06-2009 13:28:39 19.5 C 27 % 0.03 C
2228 03-06-2009 13:40:39 18.4 C 26 % -1.43 C
2229 03-06-2009 13:52:39 19.8 C 25 % -0.77 C
2230 03-06-2009 14:04:39 19.3 C 25 % -1.19 C
2231 03-06-2009 14:16:38 20.1 C 25 % -0.52 C
2232 03-06-2009 14:28:38 19.3 C 26 % -0.66 C
2233 03-06-2009 14:40:39 19.1 C 27 % -0.31 C
2234 03-06-2009 14:52:38 19.7 C 29 % 1.19 C
2235 03-06-2009 15:04:38 20.5 C 25 % -0.18 C
2236 03-06-2009 15:16:39 20 C 27 % 0.45 C
2237 03-06-2009 15:28:39 20.8 C 25 % 0.07 C
2238 03-06-2009 15:40:38 20.4 C 26 % 0.28 C
2239 03-06-2009 15:52:37 20.9 C 25 % 0.16 C
2240 03-06-2009 16:04:38 20.1 C 26 % 0.02 C
2241 03-06-2009 16:16:38 20.4 C 25 % -0.26 C
2242 03-06-2009 16:28:38 20.2 C 26 % 0.11 C
2243 03-06-2009 16:40:37 20.3 C 27 % 0.71 C
2244 03-06-2009 16:52:38 20 C 25 % -0.6 C
2245 03-06-2009 17:04:37 20.3 C 26 % 0.19 C
2246 03-06-2009 17:16:37 20.6 C 26 % 0.45 C
2247 03-06-2009 17:28:37 20.7 C 24 % -0.57 C
2248 03-06-2009 17:40:36 19.4 C 26 % -0.57 C
2249 03-06-2009 17:52:37 20.6 C 23 % -1.23 C
2250 03-06-2009 18:04:36 19.2 C 23 % -2.41 C
Sensor: Nr:Datum:Temp:Feuchte:Taupunkt:
Aussen-T/F 2251 03-06-2009 18:16:36 20.3 C 23 % -1.49 C
2252 03-06-2009 18:28:36 19.3 C 24 % -1.75 C
2253 03-06-2009 18:40:37 20 C 25 % -0.6 C
2254 03-06-2009 18:52:36 19 C 26 % -0.92 C
2255 03-06-2009 19:04:36 19.1 C 26 % -0.83 C
2256 03-06-2009 19:16:36 18.8 C 28 % -0.07 C
2257 03-06-2009 19:28:36 18.1 C 30 % 0.27 C
2258 03-06-2009 19:40:36 18 C 30 % 0.19 C
2259 03-06-2009 19:52:36 18 C 31 % 0.64 C
2260 03-06-2009 20:04:36 17.7 C 32 % 0.82 C
2261 03-06-2009 20:16:36 16.9 C 35 % 1.36 C
2262 03-06-2009 20:28:36 16.6 C 36 % 1.49 C
2263 03-06-2009 20:40:35 16.4 C 36 % 1.31 C
2264 03-06-2009 20:52:34 16.5 C 35 % 1.01 C
2265 03-06-2009 21:04:35 16.1 C 35 % 0.65 C
2266 03-06-2009 21:16:35 16 C 35 % 0.56 C
2267 03-06-2009 21:28:35 15.9 C 36 % 0.87 C
2268 03-06-2009 21:40:34 15.5 C 35 % 0.12 C
2269 03-06-2009 21:52:35 15.4 C 36 % 0.42 C
2270 03-06-2009 22:05:35 15.3 C 36 % 0.34 C
2271 03-06-2009 22:17:35 15.2 C 36 % 0.25 C
2272 03-06-2009 22:29:35 15 C 36 % 0.07 C
2273 03-06-2009 22:41:35 14.7 C 38 % 0.55 C
2274 03-06-2009 22:53:35 14.9 C 38 % 0.73 C
2275 03-06-2009 23:05:35 14.8 C 37 % 0.27 C
Sensor: Nr:Datum:Temp:Feuchte:Taupunkt:
Aussen-T/F 2276 03-06-2009 23:17:35 14.6 C 39 % 0.82 C
2277 03-06-2009 23:29:36 14.5 C 40 % 1.08 C
2278 03-06-2009 23:41:36 14.2 C 41 % 1.15 C
2279 03-06-2009 23:53:36 14 C 42 % 1.31 C
2280 04-06-2009 00:05:36 13.7 C 44 % 1.68 C
2281 04-06-2009 00:17:36 13.7 C 45 % 2 C
2282 04-06-2009 00:29:36 13.4 C 45 % 1.72 C
2283 04-06-2009 00:41:36 13.1 C 45 % 1.45 C
2284 04-06-2009 00:53:36 13 C 46 % 1.67 C
2285 04-06-2009 01:05:36 12.7 C 48 % 1.99 C
2286 04-06-2009 01:17:36 12.6 C 49 % 2.18 C
2287 04-06-2009 01:29:36 12.7 C 49 % 2.27 C
2288 04-06-2009 01:41:36 12.6 C 49 % 2.18 C
2289 04-06-2009 01:53:36 12.5 C 50 % 2.37 C
2290 04-06-2009 02:05:36 12.5 C 45 % 0.91 C
2291 04-06-2009 02:17:36 12.4 C 43 % 0.19 C
2292 04-06-2009 02:29:36 12 C 42 % -0.5 C
2293 04-06-2009 02:41:36 11.9 C 42 % -0.59 C
2294 04-06-2009 02:53:36 11.7 C 40 % -1.43 C
2295 04-06-2009 03:05:36 11.5 C 40 % -1.61 C
2296 04-06-2009 03:17:37 11.2 C 39 % -2.22 C
2297 04-06-2009 03:29:37 11 C 40 % -2.06 C
2298 04-06-2009 03:41:37 10.8 C 42 % -1.58 C
2299 04-06-2009 03:53:37 10.9 C 43 % -1.17 C
2300 04-06-2009 04:05:37 10.8 C 42 % -1.58 C
Sensor: Nr:Datum:Temp:Feuchte:Taupunkt:
Aussen-T/F 2301 04-06-2009 04:17:37 10.7 C 43 % -1.35 C
2302 04-06-2009 04:29:37 10.6 C 44 % -1.13 C
2303 04-06-2009 04:41:37 10.6 C 45 % -0.82 C
2304 04-06-2009 04:53:37 10.7 C 47 % -0.14 C
2305 04-06-2009 05:05:37 10.5 C 50 % 0.53 C
2306 04-06-2009 05:17:37 10.5 C 51 % 0.81 C
2307 04-06-2009 05:29:37 10.6 C 52 % 1.17 C
2308 04-06-2009 05:41:37 10.7 C 52 % 1.26 C
2309 04-06-2009 05:53:37 10.7 C 51 % 0.99 C
2310 04-06-2009 06:05:37 10.7 C 52 % 1.26 C
2311 04-06-2009 06:17:37 10.7 C 51 % 0.99 C
2312 04-06-2009 06:29:37 10.5 C 49 % 0.25 C
2313 04-06-2009 06:41:37 10.6 C 49 % 0.35 C
2314 04-06-2009 06:53:35 10.7 C 50 % 0.72 C
2315 04-06-2009 07:05:35 10.7 C 50 % 0.72 C
2316 04-06-2009 07:17:35 11 C 48 % 0.43 C
2317 04-06-2009 07:29:35 10.8 C 51 % 1.08 C
2318 04-06-2009 07:41:35 10.8 C 54 % 1.88 C
2319 04-06-2009 07:53:35 11 C 53 % 1.8 C
2320 04-06-2009 08:05:34 11.6 C 52 % 2.09 C
2321 04-06-2009 08:17:34 11.8 C 51 % 2.01 C
2322 04-06-2009 08:29:34 11.9 C 50 % 1.82 C
2323 04-06-2009 08:41:34 12.2 C 48 % 1.53 C
2324 04-06-2009 08:53:34 12.5 C 47 % 1.51 C
2325 04-06-2009 09:05:33 13 C 43 % 0.73 C
Sensor: Nr:Datum:Temp:Feuchte:Taupunkt:
Aussen-T/F 2326 04-06-2009 09:17:34 12.8 C 41 % -0.11 C
2327 04-06-2009 09:29:34 12.3 C 38 % -1.59 C
2328 04-06-2009 09:41:34 12.7 C 38 % -1.23 C
2329 04-06-2009 09:53:33 12.9 C 40 % -0.36 C
2330 04-06-2009 10:05:34 13 C 37 % -1.33 C
2331 04-06-2009 10:17:33 13.1 C 39 % -0.52 C
2332 04-06-2009 10:29:33 14.1 C 37 % -0.35 C
2333 04-06-2009 10:41:33 13.5 C 37 % -0.89 C
2334 04-06-2009 10:53:33 13.2 C 38 % -0.79 C
2335 04-06-2009 11:05:33 14 C 37 % -0.44 C
2336 04-06-2009 11:17:32 14.7 C 36 % -0.2 C
2337 04-06-2009 11:29:32 13.3 C 35 % -1.82 C
2338 04-06-2009 11:41:32 13.1 C 35 % -1.99 C
2339 04-06-2009 11:53:32 13.5 C 37 % -0.89 C
2340 04-06-2009 12:05:32 14.7 C 36 % -0.2 C
2341 04-06-2009 12:17:32 14.5 C 35 % -0.76 C
2342 04-06-2009 12:29:32 14.6 C 34 % -1.07 C
2343 04-06-2009 12:41:32 14.4 C 32 % -2.06 C
2344 04-06-2009 12:53:32 14.7 C 34 % -0.98 C
2345 04-06-2009 13:05:31 14.7 C 35 % -0.58 C
2346 04-06-2009 13:17:32 15.7 C 30 % -1.8 C
2347 04-06-2009 13:29:32 15.6 C 28 % -2.82 C
2348 04-06-2009 13:41:31 14.9 C 31 % -2.06 C
2349 04-06-2009 13:53:31 14.4 C 32 % -2.06 C
2350 04-06-2009 14:05:31 15.1 C 32 % -1.45 C
Sensor: Nr:Datum:Temp:Feuchte:Taupunkt:
Aussen-T/F 2351 04-06-2009 14:17:31 16.2 C 30 % -1.37 C
2352 04-06-2009 14:29:31 15.3 C 29 % -2.61 C
2353 04-06-2009 14:41:31 14.8 C 29 % -3.04 C
2354 04-06-2009 14:53:30 15.8 C 29 % -2.18 C
2355 04-06-2009 15:05:30 16.3 C 30 % -1.28 C
2356 04-06-2009 15:17:30 17.5 C 26 % -2.19 C
2357 04-06-2009 15:29:30 16.1 C 26 % -3.38 C
2358 04-06-2009 15:41:30 15.9 C 28 % -2.56 C
2359 04-06-2009 15:53:30 16.4 C 27 % -2.62 C
2360 04-06-2009 16:05:30 16.3 C 27 % -2.71 C
2361 04-06-2009 16:17:30 16.2 C 26 % -3.3 C
2362 04-06-2009 16:29:30 17.2 C 25 % -2.97 C
2363 04-06-2009 16:41:30 16.5 C 25 % -3.57 C
2364 04-06-2009 16:53:29 16.2 C 27 % -2.79 C
2365 04-06-2009 17:05:29 16.1 C 28 % -2.39 C
2366 04-06-2009 17:17:29 16.4 C 28 % -2.13 C
2367 04-06-2009 17:29:29 15.6 C 29 % -2.35 C
2368 04-06-2009 17:41:29 15.6 C 30 % -1.89 C
2369 04-06-2009 17:53:28 16.2 C 30 % -1.37 C
2370 04-06-2009 18:05:29 16 C 30 % -1.54 C
2371 04-06-2009 18:17:29 15.8 C 31 % -1.27 C
2372 04-06-2009 18:29:29 16.1 C 31 % -1.01 C
2373 04-06-2009 18:41:29 15.4 C 31 % -1.62 C
2374 04-06-2009 18:53:28 15.7 C 32 % -0.93 C
2375 04-06-2009 19:05:28 15.3 C 32 % -1.28 C
Sensor: Nr:Datum:Temp:Feuchte:Taupunkt:
Aussen-T/F 2376 04-06-2009 19:17:28 15.4 C 32 % -1.19 C
2377 04-06-2009 19:29:28 15.4 C 33 % -0.77 C
2378 04-06-2009 19:41:28 14.7 C 35 % -0.58 C
2379 04-06-2009 19:53:28 15.1 C 35 % -0.23 C
2380 04-06-2009 20:05:28 14.9 C 36 % -0.02 C
2381 04-06-2009 20:17:27 14.9 C 36 % -0.02 C
2382 04-06-2009 20:29:27 14.7 C 37 % 0.18 C
2383 04-06-2009 20:41:27 14.5 C 38 % 0.37 C
2384 04-06-2009 20:53:27 14.1 C 38 % 0.01 C
2385 04-06-2009 21:05:27 14 C 39 % 0.28 C
2386 04-06-2009 21:17:27 13.8 C 40 % 0.45 C
2387 04-06-2009 21:29:27 13.7 C 41 % 0.7 C
2388 04-06-2009 21:41:27 13.5 C 42 % 0.86 C
2389 04-06-2009 21:53:27 13.5 C 43 % 1.18 C
2390 04-06-2009 22:06:22 13.3 C 43 % 1 C
2391 04-06-2009 22:18:22 13.2 C 43 % 0.91 C
2392 04-06-2009 22:30:22 13 C 44 % 1.05 C
2393 04-06-2009 22:42:22 13 C 43 % 0.73 C
2394 04-06-2009 22:54:22 12.9 C 44 % 0.96 C
2395 04-06-2009 23:06:22 12.7 C 45 % 1.09 C
2396 04-06-2009 23:18:22 12.4 C 45 % 0.81 C
2397 04-06-2009 23:30:22 12.2 C 45 % 0.63 C
2398 04-06-2009 23:42:22 12.1 C 46 % 0.85 C
2399 04-06-2009 23:54:22 12 C 47 % 1.05 C
2400 05-06-2009 00:06:22 11.7 C 49 % 1.36 C
Sensor: Nr:Datum:Temp:Feuchte:Taupunkt:
Aussen-T/F 2401 05-06-2009 00:18:22 11.7 C 49 % 1.36 C
2402 05-06-2009 00:30:22 11.6 C 49 % 1.26 C
2403 05-06-2009 00:42:22 11.4 C 47 % 0.5 C
2404 05-06-2009 00:54:22 11.2 C 47 % 0.32 C
2405 05-06-2009 01:06:22 11.2 C 46 % 0.02 C
2406 05-06-2009 01:18:22 11.1 C 46 % -0.07 C
2407 05-06-2009 01:30:22 11 C 46 % -0.16 C
2408 05-06-2009 01:42:22 10.9 C 47 % 0.05 C
2409 05-06-2009 01:54:23 10.8 C 47 % -0.04 C
2410 05-06-2009 02:06:23 10.7 C 48 % 0.15 C
2411 05-06-2009 02:18:23 10.4 C 49 % 0.16 C
2412 05-06-2009 02:30:23 10 C 50 % 0.07 C
2413 05-06-2009 02:42:23 9.6 C 52 % 0.24 C
2414 05-06-2009 02:54:23 9.2 C 55 % 0.64 C
2415 05-06-2009 03:06:23 9.2 C 56 % 0.89 C
2416 05-06-2009 03:18:23 9.3 C 56 % 0.99 C
2417 05-06-2009 03:30:23 9.2 C 56 % 0.89 C
2418 05-06-2009 03:42:23 9 C 58 % 1.19 C
2419 05-06-2009 03:54:23 8.6 C 60 % 1.29 C
2420 05-06-2009 04:06:23 8.6 C 60 % 1.29 C
2421 05-06-2009 04:18:23 8.6 C 61 % 1.52 C
2422 05-06-2009 04:30:23 8.5 C 61 % 1.42 C
2423 05-06-2009 04:42:23 8.5 C 62 % 1.65 C
2424 05-06-2009 04:54:23 8.5 C 63 % 1.87 C
2425 05-06-2009 05:06:23 8.4 C 63 % 1.78 C
Sensor: Nr:Datum:Temp:Feuchte:Taupunkt:
Aussen-T/F 2426 05-06-2009 05:18:23 8.1 C 64 % 1.71 C
2427 05-06-2009 05:30:23 8.2 C 65 % 2.02 C
2428 05-06-2009 05:42:23 8.4 C 66 % 2.43 C
2429 05-06-2009 05:54:24 8.5 C 66 % 2.52 C
2430 05-06-2009 06:06:24 8.5 C 67 % 2.73 C
2431 05-06-2009 06:18:24 8.5 C 66 % 2.52 C
2432 05-06-2009 06:30:24 8.5 C 67 % 2.73 C
2433 05-06-2009 06:42:24 8.5 C 67 % 2.73 C
2434 05-06-2009 06:54:24 8.7 C 67 % 2.92 C
2435 05-06-2009 07:06:28 8.8 C 67 % 3.02 C
2436 05-06-2009 07:18:27 8.9 C 66 % 2.9 C
2437 05-06-2009 07:30:28 9.2 C 63 % 2.53 C
2438 05-06-2009 07:42:28 10 C 60 % 2.6 C
2439 05-06-2009 07:54:27 10.2 C 58 % 2.32 C
2440 05-06-2009 08:06:27 10.5 C 58 % 2.6 C
2441 05-06-2009 08:18:27 10.8 C 57 % 2.63 C
2442 05-06-2009 08:30:27 10.6 C 57 % 2.45 C
2443 05-06-2009 08:42:27 10.2 C 59 % 2.56 C
2444 05-06-2009 08:54:26 10.4 C 60 % 2.98 C
2445 05-06-2009 09:06:27 11.5 C 56 % 3.04 C
2446 05-06-2009 09:18:26 12.3 C 50 % 2.19 C
2447 05-06-2009 09:30:26 12.7 C 46 % 1.39 C
2448 05-06-2009 09:42:26 11.8 C 47 % 0.87 C
2449 05-06-2009 09:54:26 12.1 C 49 % 1.72 C
2450 05-06-2009 10:06:26 12.7 C 46 % 1.39 C
Sensor: Nr:Datum:Temp:Feuchte:Taupunkt:
Aussen-T/F 2451 05-06-2009 10:18:25 13.1 C 44 % 1.14 C
2452 05-06-2009 10:30:26 12.3 C 43 % 0.1 C
2453 05-06-2009 10:42:26 13.3 C 43 % 1 C
2454 05-06-2009 10:54:26 12.6 C 41 % -0.29 C
2455 05-06-2009 11:06:25 12.3 C 42 % -0.23 C
2456 05-06-2009 11:18:26 13 C 42 % 0.41 C
2457 05-06-2009 11:30:25 13.4 C 40 % 0.09 C
2458 05-06-2009 11:42:25 14 C 36 % -0.82 C
2459 05-06-2009 11:54:25 14.3 C 34 % -1.33 C
2460 05-06-2009 12:06:24 14.6 C 35 % -0.67 C
2461 05-06-2009 12:18:25 15.3 C 34 % -0.45 C
2462 05-06-2009 12:30:25 15.6 C 32 % -1.01 C
2463 05-06-2009 12:42:25 16.1 C 31 % -1.01 C
2464 05-06-2009 12:54:24 16.6 C 31 % -0.58 C
2465 05-06-2009 13:06:25 18.5 C 28 % -0.33 C
2466 05-06-2009 13:18:24 17.7 C 28 % -1.02 C
2467 05-06-2009 13:30:24 17.2 C 29 % -0.97 C
2468 05-06-2009 13:42:25 16.6 C 29 % -1.49 C
2469 05-06-2009 13:54:24 16.2 C 29 % -1.83 C
2470 05-06-2009 14:06:24 16.5 C 29 % -1.57 C
2471 05-06-2009 14:18:23 16.8 C 29 % -1.31 C
2472 05-06-2009 14:30:23 16.6 C 28 % -1.96 C
2473 05-06-2009 14:42:23 16.2 C 28 % -2.3 C
2474 05-06-2009 14:54:23 16.4 C 30 % -1.2 C
2475 05-06-2009 15:06:23 16.8 C 29 % -1.31 C
Sensor: Nr:Datum:Temp:Feuchte:Taupunkt:
Aussen-T/F 2476 05-06-2009 15:18:23 16.4 C 27 % -2.62 C
2477 05-06-2009 15:30:23 16 C 29 % -2 C
2478 05-06-2009 15:42:23 15.9 C 29 % -2.09 C
2479 05-06-2009 15:54:23 15.6 C 28 % -2.82 C
2480 05-06-2009 16:06:22 16.8 C 27 % -2.28 C
2481 05-06-2009 16:18:22 17.6 C 27 % -1.6 C
2482 05-06-2009 16:30:23 18.4 C 26 % -1.43 C
2483 05-06-2009 16:42:23 18.9 C 25 % -1.53 C
2484 05-06-2009 16:54:22 20.1 C 23 % -1.65 C
2485 05-06-2009 17:06:21 20 C 20 % -3.61 C
2486 05-06-2009 17:18:22 18.4 C 21 % -4.29 C
2487 05-06-2009 17:30:22 20.4 C 21 % -2.63 C
2488 05-06-2009 17:42:22 20.7 C 20 % -3.04 C
2489 05-06-2009 17:54:21 22 C 20 % -1.97 C
2490 05-06-2009 18:06:22 22.9 C 20 % -1.22 C
2491 05-06-2009 18:18:21 22.9 C 20 % -1.22 C
2492 05-06-2009 18:30:21 22.1 C 20 % -1.88 C
2493 05-06-2009 18:42:21 21 C 20 % -2.79 C
2494 05-06-2009 18:54:21 20.7 C 20 % -3.04 C
2495 05-06-2009 19:06:21 21 C 20 % -2.79 C
2496 05-06-2009 19:18:20 20.2 C 20 % -3.45 C
2497 05-06-2009 19:30:20 18.5 C 22 % -3.59 C
2498 05-06-2009 19:42:20 17.7 C 26 % -2.02 C
2499 05-06-2009 19:54:20 17.9 C 26 % -1.85 C
2500 05-06-2009 20:06:20 17.7 C 27 % -1.51 C
Sensor: Nr:Datum:Temp:Feuchte:Taupunkt:
Aussen-T/F 2501 05-06-2009 20:18:20 17.2 C 29 % -0.97 C
2502 05-06-2009 20:30:20 16.9 C 32 % 0.12 C
2503 05-06-2009 20:42:20 16 C 34 % 0.17 C
2504 05-06-2009 20:54:20 15 C 36 % 0.07 C
2505 05-06-2009 21:06:20 14.2 C 39 % 0.46 C
2506 05-06-2009 21:18:20 13.4 C 41 % 0.43 C
2507 05-06-2009 21:30:19 13 C 41 % 0.07 C
2508 05-06-2009 21:42:19 12.7 C 44 % 0.78 C
2509 05-06-2009 21:54:20 12.2 C 45 % 0.63 C
2510 05-06-2009 22:06:19 11.9 C 46 % 0.66 C
2511 05-06-2009 22:18:19 11.8 C 48 % 1.16 C
2512 05-06-2009 22:31:19 11.4 C 49 % 1.08 C
2513 05-06-2009 22:43:19 11.1 C 50 % 1.08 C
2514 05-06-2009 22:55:19 11 C 51 % 1.27 C
2515 05-06-2009 23:07:19 10.8 C 52 % 1.35 C
2516 05-06-2009 23:19:19 10.5 C 53 % 1.34 C
2517 05-06-2009 23:31:19 10.4 C 54 % 1.51 C
2518 05-06-2009 23:43:19 10.1 C 55 % 1.48 C
2519 05-06-2009 23:55:20 10 C 55 % 1.39 C
2520 06-06-2009 00:07:20 9.8 C 57 % 1.7 C
2521 06-06-2009 00:19:20 9.7 C 58 % 1.85 C
2522 06-06-2009 00:31:20 9.5 C 59 % 1.9 C
2523 06-06-2009 00:43:20 9.1 C 60 % 1.76 C
2524 06-06-2009 00:55:20 8.9 C 62 % 2.03 C
2525 06-06-2009 01:07:20 8.8 C 62 % 1.93 C
Sensor: Nr:Datum:Temp:Feuchte:Taupunkt:
Aussen-T/F 2526 06-06-2009 01:19:20 8.6 C 62 % 1.74 C
2527 06-06-2009 01:31:20 8.6 C 63 % 1.97 C
2528 06-06-2009 01:43:20 8.5 C 65 % 2.31 C
2529 06-06-2009 01:55:20 8.3 C 65 % 2.12 C
2530 06-06-2009 02:07:20 8.2 C 66 % 2.24 C
2531 06-06-2009 02:19:20 8.1 C 66 % 2.14 C
2532 06-06-2009 02:31:20 8.1 C 67 % 2.35 C
2533 06-06-2009 02:43:20 8.1 C 68 % 2.56 C
2534 06-06-2009 02:55:20 8.1 C 68 % 2.56 C
2535 06-06-2009 03:07:20 8 C 70 % 2.87 C
2536 06-06-2009 03:19:20 7.8 C 71 % 2.88 C
2537 06-06-2009 03:31:20 7.6 C 72 % 2.88 C
2538 06-06-2009 03:43:20 7.5 C 73 % 2.98 C
2539 06-06-2009 03:55:20 7.4 C 73 % 2.89 C
2540 06-06-2009 04:07:21 7.4 C 73 % 2.89 C
2541 06-06-2009 04:19:21 7.4 C 73 % 2.89 C
2542 06-06-2009 04:31:21 7.3 C 74 % 2.98 C
2543 06-06-2009 04:43:21 7.1 C 74 % 2.79 C
2544 06-06-2009 04:55:21 7.2 C 75 % 3.07 C
2545 06-06-2009 05:07:21 7.4 C 75 % 3.27 C
2546 06-06-2009 05:19:21 7.6 C 75 % 3.46 C
2547 06-06-2009 05:31:21 7.8 C 74 % 3.46 C
2548 06-06-2009 05:43:21 8 C 73 % 3.46 C
2549 06-06-2009 05:55:21 8.1 C 73 % 3.56 C
2550 06-06-2009 06:07:21 8.2 C 73 % 3.66 C
Sensor: Nr:Datum:Temp:Feuchte:Taupunkt:
Aussen-T/F 2551 06-06-2009 06:19:21 8.4 C 73 % 3.85 C
2552 06-06-2009 06:31:21 8.7 C 72 % 3.94 C
2553 06-06-2009 06:43:21 8.7 C 70 % 3.54 C
2554 06-06-2009 06:55:21 8.9 C 70 % 3.74 C
2555 06-06-2009 07:07:21 8.9 C 70 % 3.74 C
2556 06-06-2009 07:19:21 8.9 C 70 % 3.74 C
2557 06-06-2009 07:31:21 8.6 C 73 % 4.04 C
2558 06-06-2009 07:43:21 8.6 C 75 % 4.43 C
2559 06-06-2009 07:55:21 8.6 C 77 % 4.8 C
2560 06-06-2009 08:07:22 8.6 C 79 % 5.17 C
2561 06-06-2009 08:19:22 8.6 C 81 % 5.53 C
2562 06-06-2009 08:31:22 8.3 C 84 % 5.76 C
2563 06-06-2009 08:43:22 8.3 C 87 % 6.27 C
2564 06-06-2009 08:55:22 8.2 C 88 % 6.33 C
2565 06-06-2009 09:07:19 8.5 C 89 % 6.79 C
2566 06-06-2009 09:19:19 8.4 C 90 % 6.86 C
2567 06-06-2009 09:31:20 8.7 C 90 % 7.15 C
2568 06-06-2009 09:43:20 8.7 C 91 % 7.32 C
2569 06-06-2009 09:55:19 8.9 C 91 % 7.51 C
2570 06-06-2009 10:07:19 9.1 C 90 % 7.55 C
2571 06-06-2009 10:19:19 9.1 C 90 % 7.55 C
2572 06-06-2009 10:31:19 8.9 C 91 % 7.51 C
2573 06-06-2009 10:43:19 9 C 90 % 7.45 C
2574 06-06-2009 10:55:18 9 C 90 % 7.45 C
2575 06-06-2009 11:07:19 9 C 90 % 7.45 C
Sensor: Nr:Datum:Temp:Feuchte:Taupunkt:
Aussen-T/F 2576 06-06-2009 11:19:18 9 C 90 % 7.45 C
2577 06-06-2009 11:31:18 9.2 C 91 % 7.81 C
2578 06-06-2009 11:43:18 9.2 C 91 % 7.81 C
2579 06-06-2009 11:55:18 9 C 91 % 7.61 C
2580 06-06-2009 12:07:17 9.2 C 91 % 7.81 C
2581 06-06-2009 12:19:18 9.4 C 92 % 8.17 C
2582 06-06-2009 12:31:18 9.3 C 92 % 8.07 C
2583 06-06-2009 12:43:18 9.3 C 92 % 8.07 C
2584 06-06-2009 12:55:17 9.5 C 92 % 8.27 C
2585 06-06-2009 13:07:18 9.6 C 92 % 8.37 C
2586 06-06-2009 13:19:17 9.7 C 92 % 8.46 C
2587 06-06-2009 13:31:17 9.7 C 93 % 8.62 C
2588 06-06-2009 13:43:17 9.7 C 93 % 8.62 C
2589 06-06-2009 13:55:17 9.6 C 93 % 8.53 C
2590 06-06-2009 14:07:17 9.8 C 93 % 8.72 C
2591 06-06-2009 14:19:16 9.8 C 93 % 8.72 C
2592 06-06-2009 14:31:16 9.8 C 93 % 8.72 C
2593 06-06-2009 14:43:16 9.6 C 92 % 8.37 C
2594 06-06-2009 14:55:16 9.5 C 92 % 8.27 C
2595 06-06-2009 15:07:16 9.5 C 92 % 8.27 C
2596 06-06-2009 15:19:15 9.4 C 92 % 8.17 C
2597 06-06-2009 15:31:16 9.5 C 92 % 8.27 C
2598 06-06-2009 15:43:16 9.7 C 93 % 8.62 C
2599 06-06-2009 15:55:15 9.8 C 93 % 8.72 C
2600 06-06-2009 16:07:15 10.1 C 92 % 8.86 C
Sensor: Nr:Datum:Temp:Feuchte:Taupunkt:
Aussen-T/F 2601 06-06-2009 16:19:16 10.1 C 92 % 8.86 C
2602 06-06-2009 16:31:15 9.9 C 93 % 8.82 C
2603 06-06-2009 16:43:15 10 C 92 % 8.76 C
2604 06-06-2009 16:55:15 9.9 C 93 % 8.82 C
2605 06-06-2009 17:07:15 9.9 C 92 % 8.66 C
2606 06-06-2009 17:19:15 9.9 C 92 % 8.66 C
2607 06-06-2009 17:31:14 10.1 C 91 % 8.7 C
2608 06-06-2009 17:43:14 10.3 C 91 % 8.9 C
2609 06-06-2009 17:55:15 10.4 C 90 % 8.83 C
2610 06-06-2009 18:07:14 10.5 C 90 % 8.93 C
2611 06-06-2009 18:19:14 10.9 C 90 % 9.33 C
2612 06-06-2009 18:31:02 10.7 C 88 % 8.8 C
2613 06-06-2009 18:43:02 10.8 C 88 % 8.89 C
2614 06-06-2009 18:55:01 10.7 C 86 % 8.46 C
2615 06-06-2009 19:07:02 10.8 C 86 % 8.56 C
2616 06-06-2009 19:19:01 10.9 C 85 % 8.48 C
2617 06-06-2009 19:31:01 11.1 C 85 % 8.68 C
2618 06-06-2009 19:43:01 11 C 85 % 8.58 C
2619 06-06-2009 19:55:01 10.9 C 87 % 8.82 C
2620 06-06-2009 20:07:01 10.5 C 86 % 8.26 C
2621 06-06-2009 20:19:00 10.4 C 86 % 8.16 C
2622 06-06-2009 20:31:00 10.4 C 87 % 8.33 C
2623 06-06-2009 20:43:00 10.4 C 87 % 8.33 C
2624 06-06-2009 20:55:00 10.3 C 87 % 8.23 C
2625 06-06-2009 21:07:00 10.3 C 88 % 8.4 C
Sensor: Nr:Datum:Temp:Feuchte:Taupunkt:
Aussen-T/F 2626 06-06-2009 21:18:59 10.2 C 88 % 8.3 C
2627 06-06-2009 21:31:00 10.2 C 88 % 8.3 C
2628 06-06-2009 21:43:00 10.1 C 88 % 8.21 C
2629 06-06-2009 21:55:59 9.8 C 89 % 8.08 C
2630 06-06-2009 22:07:59 9.5 C 89 % 7.78 C
2631 06-06-2009 22:19:00 9.4 C 90 % 7.85 C
2632 06-06-2009 22:31:59 9.4 C 91 % 8.01 C
2633 06-06-2009 22:43:59 9.5 C 91 % 8.11 C
2634 06-06-2009 22:55:59 9.6 C 92 % 8.37 C
2635 06-06-2009 23:07:59 9.5 C 92 % 8.27 C
2636 06-06-2009 23:19:59 9.5 C 92 % 8.27 C
2637 06-06-2009 23:31:58 9.2 C 91 % 7.81 C
2638 06-06-2009 23:43:58 8.8 C 92 % 7.57 C
2639 06-06-2009 23:55:59 8.5 C 92 % 7.28 C
2640 07-06-2009 00:07:59 8.5 C 92 % 7.28 C
2641 07-06-2009 00:19:59 8.3 C 92 % 7.08 C
2642 07-06-2009 00:31:58 8.1 C 92 % 6.88 C
2643 07-06-2009 00:43:58 7.9 C 93 % 6.84 C
2644 07-06-2009 00:55:58 8 C 92 % 6.78 C
2645 07-06-2009 01:07:57 8 C 93 % 6.94 C
2646 07-06-2009 01:19:58 8 C 93 % 6.94 C
2647 07-06-2009 01:31:58 7.9 C 94 % 7 C
2648 07-06-2009 01:43:58 7.9 C 94 % 7 C
2649 07-06-2009 01:55:57 8.1 C 93 % 7.04 C
2650 07-06-2009 02:07:58 8.2 C 94 % 7.29 C
Sensor: Nr:Datum:Temp:Feuchte:Taupunkt:
Aussen-T/F 2651 07-06-2009 02:19:57 8.4 C 94 % 7.49 C
2652 07-06-2009 02:31:57 8.4 C 94 % 7.49 C
2653 07-06-2009 02:43:57 8.4 C 94 % 7.49 C
2654 07-06-2009 02:56:59 8.4 C 94 % 7.49 C
2655 07-06-2009 03:08:59 8.5 C 95 % 7.75 C
2656 07-06-2009 03:20:59 8.5 C 95 % 7.75 C
2657 07-06-2009 03:32:58 8.5 C 95 % 7.75 C
2658 07-06-2009 03:44:58 8.4 C 95 % 7.65 C
2659 07-06-2009 03:56:58 8.4 C 95 % 7.65 C
2660 07-06-2009 04:08:58 8.5 C 95 % 7.75 C
2661 07-06-2009 04:20:58 8.5 C 95 % 7.75 C
2662 07-06-2009 04:32:58 8.5 C 95 % 7.75 C
2663 07-06-2009 04:44:57 8.5 C 95 % 7.75 C
2664 07-06-2009 04:56:57 8.5 C 95 % 7.75 C
2665 07-06-2009 05:08:58 8.6 C 95 % 7.85 C
2666 07-06-2009 05:20:58 8.6 C 95 % 7.85 C
2667 07-06-2009 05:32:57 8.6 C 95 % 7.85 C
2668 07-06-2009 05:44:57 8.7 C 95 % 7.94 C
2669 07-06-2009 05:56:57 8.8 C 95 % 8.04 C
2670 07-06-2009 06:08:57 8.9 C 95 % 8.14 C
2671 07-06-2009 06:20:57 9.1 C 94 % 8.19 C
2672 07-06-2009 06:32:57 9.3 C 94 % 8.39 C
2673 07-06-2009 06:44:57 9.5 C 94 % 8.58 C
2674 07-06-2009 06:56:57 9.5 C 94 % 8.58 C
2675 07-06-2009 07:08:57 9.6 C 94 % 8.68 C
Sensor: Nr:Datum:Temp:Feuchte:Taupunkt:
Aussen-T/F 2676 07-06-2009 07:20:56 10 C 93 % 8.92 C
2677 07-06-2009 07:32:57 10.2 C 92 % 8.96 C
2678 07-06-2009 07:44:01 10.3 C 88 % 8.4 C
2679 07-06-2009 07:56:01 10.7 C 86 % 8.46 C
2680 07-06-2009 08:08:01 11 C 80 % 7.69 C
2681 07-06-2009 08:20:01 11.4 C 78 % 7.71 C
2682 07-06-2009 08:32:01 11.7 C 75 % 7.42 C
2683 07-06-2009 08:44:01 11.9 C 71 % 6.82 C
2684 07-06-2009 08:56:01 12.4 C 67 % 6.45 C
2685 07-06-2009 09:08:01 13.1 C 65 % 6.68 C
2686 07-06-2009 09:20:01 13.6 C 62 % 6.47 C
2687 07-06-2009 09:32:00 14 C 62 % 6.84 C
2688 07-06-2009 09:44:00 14.1 C 62 % 6.94 C
2689 07-06-2009 09:56:00 14.3 C 62 % 7.13 C
2690 07-06-2009 10:08:00 14.4 C 60 % 6.74 C
2691 07-06-2009 10:20:59 14.9 C 61 % 7.45 C
2692 07-06-2009 10:32:00 15.5 C 60 % 7.78 C
2693 07-06-2009 10:44:00 15.9 C 57 % 7.4 C
2694 07-06-2009 10:56:59 16.4 C 54 % 7.08 C
2695 07-06-2009 11:08:59 16.9 C 55 % 7.81 C
2696 07-06-2009 11:20:00 17.2 C 54 % 7.82 C
2697 07-06-2009 11:32:59 17 C 54 % 7.63 C
2698 07-06-2009 11:44:59 16.1 C 57 % 7.59 C
2699 07-06-2009 11:56:59 17.5 C 53 % 7.82 C
2700 07-06-2009 12:08:59 17.1 C 51 % 6.89 C
Sensor: Nr:Datum:Temp:Feuchte:Taupunkt:
Aussen-T/F 2701 07-06-2009 12:20:59 17.7 C 51 % 7.45 C
2702 07-06-2009 12:32:59 17.3 C 53 % 7.64 C
2703 07-06-2009 12:44:58 17.1 C 57 % 8.52 C
2704 07-06-2009 12:56:58 16.8 C 62 % 9.49 C
2705 07-06-2009 13:08:59 16.6 C 60 % 8.81 C
2706 07-06-2009 13:20:59 16.4 C 63 % 9.35 C
2707 07-06-2009 13:32:59 17.4 C 60 % 9.56 C
2708 07-06-2009 13:44:58 19.3 C 49 % 8.33 C
2709 07-06-2009 13:56:58 19.2 C 48 % 7.93 C
2710 07-06-2009 14:08:57 19.4 C 50 % 8.72 C
2711 07-06-2009 14:20:58 18.9 C 51 % 8.55 C
2712 07-06-2009 14:32:58 18.9 C 52 % 8.84 C
2713 07-06-2009 14:44:57 18.7 C 54 % 9.21 C
2714 07-06-2009 14:56:57 19.1 C 53 % 9.3 C
2715 07-06-2009 15:08:58 19.1 C 51 % 8.73 C
2716 07-06-2009 15:20:57 17.3 C 61 % 9.71 C
2717 07-06-2009 15:32:58 16 C 75 % 11.57 C
2718 07-06-2009 15:44:57 15.5 C 78 % 11.68 C
2719 07-06-2009 15:56:57 15.1 C 81 % 11.87 C
2720 07-06-2009 16:08:57 14.8 C 84 % 12.12 C
2721 07-06-2009 16:20:56 15.6 C 87 % 13.45 C
2722 07-06-2009 16:32:57 16 C 86 % 13.66 C
2723 07-06-2009 16:44:56 16.3 C 83 % 13.41 C
2724 07-06-2009 16:56:56 17.2 C 79 % 13.53 C
2725 07-06-2009 17:08:56 17.6 C 72 % 12.5 C
Sensor: Nr:Datum:Temp:Feuchte:Taupunkt:
Aussen-T/F 2726 07-06-2009 17:20:56 18.9 C 67 % 12.64 C
2727 07-06-2009 17:32:56 19.5 C 60 % 11.53 C
2728 07-06-2009 17:44:56 18.4 C 62 % 10.99 C
2729 07-06-2009 17:56:56 18.3 C 63 % 11.14 C
2730 07-06-2009 18:08:55 18.8 C 58 % 10.37 C
2731 07-06-2009 18:20:56 17.3 C 51 % 7.08 C
2732 07-06-2009 18:32:55 17 C 59 % 8.94 C
2733 07-06-2009 18:44:55 18 C 54 % 8.56 C
2734 07-06-2009 18:56:55 19.2 C 47 % 7.63 C
2735 07-06-2009 19:08:55 20.4 C 43 % 7.41 C
2736 07-06-2009 19:20:55 20.4 C 41 % 6.72 C
2737 07-06-2009 19:32:55 20.3 C 40 % 6.27 C
2738 07-06-2009 19:44:55 19.8 C 43 % 6.87 C
2739 07-06-2009 19:56:55 20.3 C 42 % 6.98 C
2740 07-06-2009 20:08:54 20.3 C 42 % 6.98 C
2741 07-06-2009 20:20:55 20 C 41 % 6.36 C
2742 07-06-2009 20:32:54 18.7 C 43 % 5.88 C
2743 07-06-2009 20:44:54 17.6 C 47 % 6.17 C
2744 07-06-2009 20:56:55 16.6 C 50 % 6.15 C
2745 07-06-2009 21:08:53 16.1 C 51 % 5.97 C
2746 07-06-2009 21:20:54 15.8 C 56 % 7.05 C
2747 07-06-2009 21:32:54 15.2 C 60 % 7.5 C
2748 07-06-2009 21:44:53 14.7 C 63 % 7.74 C
2749 07-06-2009 21:56:53 14.1 C 64 % 7.4 C
2750 07-06-2009 22:09:55 13.5 C 63 % 6.6 C
Sensor: Nr:Datum:Temp:Feuchte:Taupunkt:
Aussen-T/F 2751 07-06-2009 22:21:55 13 C 62 % 5.9 C
2752 07-06-2009 22:33:55 12.7 C 63 % 5.85 C
2753 07-06-2009 22:45:55 12.5 C 63 % 5.66 C
2754 07-06-2009 22:57:55 12.3 C 63 % 5.47 C
2755 07-06-2009 23:09:55 12 C 63 % 5.18 C
2756 07-06-2009 23:21:55 11.8 C 65 % 5.44 C
2757 07-06-2009 23:33:55 11.6 C 67 % 5.69 C
2758 07-06-2009 23:45:55 11.5 C 68 % 5.81 C
2759 07-06-2009 23:57:55 11.3 C 69 % 5.83 C
2760 08-06-2009 00:09:55 11.2 C 70 % 5.94 C
2761 08-06-2009 00:21:55 11.3 C 70 % 6.03 C
2762 08-06-2009 00:33:55 10.8 C 72 % 5.96 C
2763 08-06-2009 00:45:55 10.6 C 74 % 6.17 C
2764 08-06-2009 00:57:56 10.7 C 73 % 6.07 C
2765 08-06-2009 01:09:56 10.7 C 72 % 5.87 C
2766 08-06-2009 01:21:56 10.4 C 73 % 5.78 C
2767 08-06-2009 01:33:56 10.1 C 75 % 5.88 C
2768 08-06-2009 01:45:56 10.2 C 73 % 5.58 C
2769 08-06-2009 01:57:56 10.6 C 70 % 5.36 C
2770 08-06-2009 02:09:56 11.4 C 64 % 4.84 C
2771 08-06-2009 02:21:56 11.7 C 64 % 5.13 C
2772 08-06-2009 02:33:56 11.6 C 65 % 5.25 C
2773 08-06-2009 02:45:56 11.6 C 65 % 5.25 C
2774 08-06-2009 02:57:56 11.8 C 65 % 5.44 C
2775 08-06-2009 03:09:56 11 C 74 % 6.55 C
Sensor: Nr:Datum:Temp:Feuchte:Taupunkt:
Aussen-T/F 2776 08-06-2009 03:21:56 10.9 C 78 % 7.22 C
2777 08-06-2009 03:33:56 11.2 C 77 % 7.32 C
2778 08-06-2009 03:45:56 11.1 C 76 % 7.04 C
2779 08-06-2009 03:57:56 11 C 76 % 6.94 C
2780 08-06-2009 04:09:56 11.1 C 77 % 7.23 C
2781 08-06-2009 04:21:56 11.1 C 77 % 7.23 C
2782 08-06-2009 04:33:56 11.1 C 77 % 7.23 C
2783 08-06-2009 04:45:56 11.1 C 77 % 7.23 C
2784 08-06-2009 04:57:57 11.1 C 78 % 7.41 C
2785 08-06-2009 05:09:57 11.2 C 78 % 7.51 C
2786 08-06-2009 05:21:57 11.2 C 77 % 7.32 C
2787 08-06-2009 05:33:57 11.2 C 78 % 7.51 C
2788 08-06-2009 05:45:57 11.3 C 78 % 7.61 C
2789 08-06-2009 05:57:57 11.5 C 75 % 7.23 C
2790 08-06-2009 06:09:57 11.5 C 76 % 7.42 C
2791 08-06-2009 06:21:57 11.5 C 76 % 7.42 C
2792 08-06-2009 06:33:57 11.5 C 76 % 7.42 C
2793 08-06-2009 06:45:55 11.5 C 78 % 7.8 C
2794 08-06-2009 06:57:55 11.5 C 77 % 7.61 C
2795 08-06-2009 07:09:54 11.8 C 76 % 7.71 C
2796 08-06-2009 07:21:54 12 C 75 % 7.71 C
2797 08-06-2009 07:33:54 12.3 C 76 % 8.2 C
2798 08-06-2009 07:45:54 12.2 C 74 % 7.71 C
2799 08-06-2009 07:57:54 12.3 C 72 % 7.4 C
2800 08-06-2009 08:09:53 12.5 C 70 % 7.18 C
Sensor: Nr:Datum:Temp:Feuchte:Taupunkt:
Aussen-T/F 2801 08-06-2009 08:21:54 12.7 C 68 % 6.95 C
2802 08-06-2009 08:33:54 12.9 C 65 % 6.49 C
2803 08-06-2009 08:45:53 13.2 C 65 % 6.77 C
2804 08-06-2009 08:57:53 13.5 C 63 % 6.6 C
2805 08-06-2009 09:09:53 13.8 C 60 % 6.18 C
2806 08-06-2009 09:21:53 14.1 C 58 % 5.97 C
2807 08-06-2009 09:33:53 14.6 C 55 % 5.67 C
2808 08-06-2009 09:45:53 14.8 C 54 % 5.59 C
2809 08-06-2009 09:57:53 15 C 52 % 5.24 C
2810 08-06-2009 10:09:53 15.6 C 51 % 5.51 C
2811 08-06-2009 10:21:52 15.9 C 47 % 4.61 C
2812 08-06-2009 10:33:52 16.4 C 46 % 4.76 C
2813 08-06-2009 10:45:52 16.5 C 44 % 4.22 C
2814 08-06-2009 10:57:52 16.6 C 43 % 3.98 C
2815 08-06-2009 11:09:52 17.7 C 43 % 4.98 C
2816 08-06-2009 11:21:51 17.3 C 39 % 3.23 C
2817 08-06-2009 11:33:52 17 C 42 % 4.01 C
2818 08-06-2009 11:45:51 17.6 C 41 % 4.21 C
2819 08-06-2009 11:57:51 18.1 C 39 % 3.94 C
2820 08-06-2009 12:09:52 17.6 C 40 % 3.86 C
2821 08-06-2009 12:21:51 20 C 36 % 4.49 C
2822 08-06-2009 12:33:51 18.6 C 37 % 3.64 C
2823 08-06-2009 12:45:51 20.2 C 35 % 4.26 C
2824 08-06-2009 12:57:51 19.6 C 34 % 3.33 C
2825 08-06-2009 13:09:51 21.6 C 25 % 0.75 C
Sensor: Nr:Datum:Temp:Feuchte:Taupunkt:
Aussen-T/F 2826 08-06-2009 13:21:50 21.5 C 29 % 2.74 C
2827 08-06-2009 13:33:51 20.9 C 28 % 1.73 C
2828 08-06-2009 13:45:51 20.3 C 30 % 2.18 C
2829 08-06-2009 13:57:51 21.4 C 27 % 1.65 C
2830 08-06-2009 14:09:50 21.7 C 23 % -0.31 C
2831 08-06-2009 14:21:50 21.5 C 25 % 0.67 C
2832 08-06-2009 14:33:50 21.9 C 26 % 1.55 C
2833 08-06-2009 14:45:50 21.7 C 26 % 1.38 C
2834 08-06-2009 14:57:50 22.1 C 25 % 1.17 C
2835 08-06-2009 15:09:49 22.9 C 25 % 1.85 C
2836 08-06-2009 15:21:50 23 C 21 % -0.48 C
2837 08-06-2009 15:33:50 22.7 C 21 % -0.72 C
2838 08-06-2009 15:45:49 23.8 C 22 % 0.83 C
2839 08-06-2009 15:57:49 23.3 C 21 % -0.23 C
2840 08-06-2009 16:09:50 23.7 C 21 % 0.1 C
2841 08-06-2009 16:21:49 24.7 C 20 % 0.26 C
2842 08-06-2009 16:33:49 23.5 C 22 % 0.58 C
2843 08-06-2009 16:45:49 23.2 C 22 % 0.33 C
2844 08-06-2009 16:57:49 23.9 C 22 % 0.91 C
2845 08-06-2009 17:09:49 23.8 C 22 % 0.83 C
2846 08-06-2009 17:21:48 24.4 C 22 % 1.33 C
2847 08-06-2009 17:33:48 24.3 C 23 % 1.86 C
2848 08-06-2009 17:45:48 25.1 C 21 % 1.26 C
2849 08-06-2009 17:57:48 24.1 C 22 % 1.08 C
2850 08-06-2009 18:09:48 23.9 C 25 % 2.69 C
Sensor: Nr:Datum:Temp:Feuchte:Taupunkt:
Aussen-T/F 2851 08-06-2009 18:21:48 23.7 C 28 % 4.13 C
2852 08-06-2009 18:33:48 23.5 C 32 % 5.87 C
2853 08-06-2009 18:45:48 22.8 C 36 % 6.96 C
2854 08-06-2009 18:57:48 22.1 C 38 % 7.13 C
2855 08-06-2009 19:09:47 21.6 C 40 % 7.43 C
2856 08-06-2009 19:21:48 21 C 39 % 6.53 C
2857 08-06-2009 19:33:47 20.8 C 42 % 7.43 C
2858 08-06-2009 19:45:47 20.6 C 42 % 7.25 C
2859 08-06-2009 19:57:48 20.4 C 43 % 7.41 C
2860 08-06-2009 20:09:47 20.1 C 45 % 7.81 C
2861 08-06-2009 20:21:47 19.8 C 47 % 8.17 C
2862 08-06-2009 20:33:47 19.3 C 48 % 8.03 C
2863 08-06-2009 20:45:47 18.8 C 50 % 8.17 C
2864 08-06-2009 20:57:47 18.5 C 50 % 7.89 C
2865 08-06-2009 21:09:47 18.2 C 50 % 7.62 C
2866 08-06-2009 21:21:46 17.9 C 51 % 7.63 C
2867 08-06-2009 21:33:46 17.6 C 54 % 8.19 C
2868 08-06-2009 21:45:46 16.7 C 61 % 9.15 C
2869 08-06-2009 21:57:46 16.6 C 63 % 9.53 C
2870 08-06-2009 22:09:46 16.4 C 63 % 9.35 C
2871 08-06-2009 22:21:46 16.6 C 62 % 9.3 C
2872 08-06-2009 22:33:45 16.5 C 61 % 8.96 C
2873 08-06-2009 22:46:46 16.4 C 61 % 8.87 C
2874 08-06-2009 22:58:46 16.3 C 61 % 8.77 C
2875 08-06-2009 23:10:46 16.4 C 61 % 8.87 C
Sensor: Nr:Datum:Temp:Feuchte:Taupunkt:
Aussen-T/F 2876 08-06-2009 23:22:46 16.4 C 60 % 8.62 C
2877 08-06-2009 23:34:46 16.5 C 60 % 8.72 C
2878 08-06-2009 23:46:46 16.3 C 64 % 9.48 C
2879 08-06-2009 23:58:46 16 C 66 % 9.66 C
2880 09-06-2009 00:10:46 15.8 C 70 % 10.34 C
2881 09-06-2009 00:22:46 15.4 C 73 % 10.59 C
2882 09-06-2009 00:34:46 15.4 C 76 % 11.19 C
2883 09-06-2009 00:46:46 15 C 78 % 11.2 C
2884 09-06-2009 00:58:46 14.8 C 79 % 11.2 C
2885 09-06-2009 01:10:46 14.6 C 81 % 11.38 C
2886 09-06-2009 01:22:47 14.5 C 81 % 11.28 C
2887 09-06-2009 01:34:47 14.6 C 82 % 11.56 C
2888 09-06-2009 01:46:47 14.5 C 83 % 11.65 C
2889 09-06-2009 01:58:47 14.6 C 82 % 11.56 C
2890 09-06-2009 02:10:47 14.6 C 81 % 11.38 C
2891 09-06-2009 02:22:47 14.7 C 81 % 11.48 C
2892 09-06-2009 02:34:47 14.6 C 80 % 11.19 C
2893 09-06-2009 02:46:47 14.3 C 81 % 11.09 C
2894 09-06-2009 02:58:47 14.3 C 81 % 11.09 C
2895 09-06-2009 03:10:47 14.4 C 81 % 11.18 C
2896 09-06-2009 03:22:47 14.5 C 81 % 11.28 C
2897 09-06-2009 03:34:47 14.5 C 81 % 11.28 C
2898 09-06-2009 03:46:47 14.4 C 80 % 11 C
2899 09-06-2009 03:58:47 14.4 C 80 % 11 C
2900 09-06-2009 04:10:47 14.4 C 80 % 11 C
Sensor: Nr:Datum:Temp:Feuchte:Taupunkt:
Aussen-T/F 2901 09-06-2009 04:22:47 14.4 C 81 % 11.18 C
2902 09-06-2009 04:34:47 14.5 C 80 % 11.09 C
2903 09-06-2009 04:46:47 14.6 C 79 % 11 C
2904 09-06-2009 04:58:47 14.6 C 79 % 11 C
2905 09-06-2009 05:10:48 14.5 C 79 % 10.91 C
2906 09-06-2009 05:22:48 14.2 C 81 % 10.99 C
2907 09-06-2009 05:34:48 14.1 C 83 % 11.26 C
2908 09-06-2009 05:46:48 14 C 84 % 11.34 C
2909 09-06-2009 05:58:48 14.1 C 85 % 11.62 C
2910 09-06-2009 06:10:48 14 C 86 % 11.7 C
2911 09-06-2009 06:22:48 14.1 C 87 % 11.97 C
2912 09-06-2009 06:34:48 14.1 C 87 % 11.97 C
2913 09-06-2009 06:46:48 14.1 C 87 % 11.97 C
2914 09-06-2009 06:58:48 14.2 C 87 % 12.07 C
2915 09-06-2009 07:10:48 14.3 C 85 % 11.81 C
2916 09-06-2009 07:22:46 14.6 C 84 % 11.93 C
2917 09-06-2009 07:34:01 14.8 C 84 % 12.12 C
2918 09-06-2009 07:46:01 15 C 83 % 12.14 C
2919 09-06-2009 07:58:01 15 C 80 % 11.58 C
2920 09-06-2009 08:10:01 15.2 C 73 % 10.4 C
2921 09-06-2009 08:22:01 15.2 C 71 % 9.98 C
2922 09-06-2009 08:34:01 15.2 C 70 % 9.77 C
2923 09-06-2009 08:46:01 15.3 C 73 % 10.49 C
2924 09-06-2009 08:58:01 15.4 C 73 % 10.59 C
2925 09-06-2009 09:10:00 15.4 C 73 % 10.59 C
Sensor: Nr:Datum:Temp:Feuchte:Taupunkt:
Aussen-T/F 2926 09-06-2009 09:22:01 15.5 C 73 % 10.69 C
2927 09-06-2009 09:34:00 15.9 C 70 % 10.44 C
2928 09-06-2009 09:46:00 16.5 C 68 % 10.58 C
2929 09-06-2009 09:58:01 16.8 C 62 % 9.49 C
2930 09-06-2009 10:10:00 16.8 C 61 % 9.24 C
2931 09-06-2009 10:22:00 16.9 C 60 % 9.09 C
2932 09-06-2009 10:34:00 17.7 C 59 % 9.59 C
2933 09-06-2009 10:45:59 18.1 C 54 % 8.65 C
2934 09-06-2009 10:57:59 18.6 C 51 % 8.27 C
2935 09-06-2009 11:10:00 18.5 C 50 % 7.89 C
2936 09-06-2009 11:22:59 19.4 C 46 % 7.49 C
2937 09-06-2009 11:34:59 20.1 C 43 % 7.14 C
2938 09-06-2009 11:46:59 19.9 C 43 % 6.96 C
2939 09-06-2009 11:58:59 20.8 C 39 % 6.35 C
2940 09-06-2009 12:10:59 21.5 C 37 % 6.21 C
2941 09-06-2009 12:22:59 21.9 C 37 % 6.56 C
2942 09-06-2009 12:34:58 21.1 C 38 % 6.24 C
2943 09-06-2009 12:46:59 22.5 C 35 % 6.29 C
2944 09-06-2009 12:58:59 22.9 C 31 % 4.89 C
2945 09-06-2009 13:10:58 23.3 C 31 % 5.24 C
2946 09-06-2009 13:22:58 21.5 C 37 % 6.21 C
2947 09-06-2009 13:34:58 21.5 C 36 % 5.81 C
2948 09-06-2009 13:46:58 23.7 C 30 % 5.11 C
2949 09-06-2009 13:58:59 22.3 C 33 % 5.26 C
2950 09-06-2009 14:10:57 23.6 C 31 % 5.5 C
Sensor: Nr:Datum:Temp:Feuchte:Taupunkt:
Aussen-T/F 2951 09-06-2009 14:22:57 24.2 C 30 % 5.54 C
2952 09-06-2009 14:34:58 24.9 C 29 % 5.66 C
2953 09-06-2009 14:46:01 23.8 C 31 % 5.67 C
2954 09-06-2009 14:58:01 21.6 C 41 % 7.79 C
2955 09-06-2009 15:10:01 19.3 C 52 % 9.21 C
2956 09-06-2009 15:22:01 19.9 C 67 % 13.59 C
2957 09-06-2009 15:34:01 21.9 C 56 % 12.73 C
2958 09-06-2009 15:46:01 23.2 C 45 % 10.62 C
2959 09-06-2009 15:58:01 21.7 C 55 % 12.27 C
2960 09-06-2009 16:10:01 22.3 C 46 % 10.13 C
2961 09-06-2009 16:22:00 23.9 C 38 % 8.73 C
2962 09-06-2009 16:34:00 24.5 C 32 % 6.74 C
2963 09-06-2009 16:46:00 24.8 C 30 % 6.06 C
2964 09-06-2009 16:58:00 24.9 C 31 % 6.62 C
2965 09-06-2009 17:10:00 26.1 C 29 % 6.69 C
2966 09-06-2009 17:22:59 25.5 C 31 % 7.14 C
2967 09-06-2009 17:34:00 25.3 C 30 % 6.49 C
2968 09-06-2009 17:46:00 25.4 C 30 % 6.58 C
2969 09-06-2009 17:58:00 24.4 C 32 % 6.65 C
2970 09-06-2009 18:10:59 23.3 C 36 % 7.4 C
2971 09-06-2009 18:22:00 21.9 C 40 % 7.7 C
2972 09-06-2009 18:34:59 20 C 41 % 6.36 C
2973 09-06-2009 18:46:59 19.2 C 45 % 6.99 C
2974 09-06-2009 18:58:59 20.5 C 44 % 7.84 C
2975 09-06-2009 19:10:59 20.4 C 43 % 7.41 C
Sensor: Nr:Datum:Temp:Feuchte:Taupunkt:
Aussen-T/F 2976 09-06-2009 19:22:59 19.9 C 46 % 7.95 C
2977 09-06-2009 19:34:59 19.7 C 48 % 8.39 C
2978 09-06-2009 19:46:58 17.5 C 60 % 9.66 C
2979 09-06-2009 19:58:58 16.5 C 72 % 11.44 C
2980 09-06-2009 20:10:59 17.9 C 66 % 11.46 C
2981 09-06-2009 20:22:58 18.9 C 58 % 10.46 C
2982 09-06-2009 20:34:58 19.7 C 53 % 9.86 C
2983 09-06-2009 20:46:58 19.3 C 54 % 9.77 C
2984 09-06-2009 20:58:58 18.8 C 53 % 9.03 C
2985 09-06-2009 21:10:58 18.4 C 56 % 9.47 C
2986 09-06-2009 21:22:57 17.9 C 62 % 10.52 C
2987 09-06-2009 21:34:58 17.2 C 61 % 9.62 C
2988 09-06-2009 21:46:57 16.7 C 64 % 9.86 C
2989 09-06-2009 21:58:57 16.3 C 66 % 9.94 C
2990 09-06-2009 22:10:57 16 C 68 % 10.1 C
2991 09-06-2009 22:23:58 15.7 C 70 % 10.25 C
2992 09-06-2009 22:35:58 15.6 C 71 % 10.37 C
2993 09-06-2009 22:47:58 15.8 C 69 % 10.13 C
2994 09-06-2009 22:59:58 15.6 C 69 % 9.94 C
2995 09-06-2009 23:11:58 15.4 C 71 % 10.17 C
2996 09-06-2009 23:23:58 15.2 C 72 % 10.19 C
2997 09-06-2009 23:35:58 15 C 72 % 10 C
2998 09-06-2009 23:47:58 14.5 C 74 % 9.93 C
2999 09-06-2009 23:59:58 14.4 C 75 % 10.03 C
3000 10-06-2009 00:11:58 14.4 C 76 % 10.23 C
Sensor: Nr:Datum:Temp:Feuchte:Taupunkt:
Aussen-T/F 3001 10-06-2009 00:23:58 14 C 75 % 9.64 C
3002 10-06-2009 00:35:59 14 C 76 % 9.84 C
3003 10-06-2009 00:47:59 13.8 C 78 % 10.03 C
3004 10-06-2009 00:59:59 13.8 C 78 % 10.03 C
3005 10-06-2009 01:11:59 14 C 77 % 10.04 C
3006 10-06-2009 01:23:59 14.4 C 76 % 10.23 C
3007 10-06-2009 01:35:59 14.9 C 73 % 10.11 C
3008 10-06-2009 01:47:59 15.4 C 68 % 9.53 C
3009 10-06-2009 01:59:59 15.6 C 67 % 9.5 C
3010 10-06-2009 02:11:59 15.4 C 67 % 9.31 C
3011 10-06-2009 02:23:59 15.4 C 67 % 9.31 C
3012 10-06-2009 02:35:59 15.5 C 67 % 9.41 C
3013 10-06-2009 02:47:59 15.4 C 67 % 9.31 C
3014 10-06-2009 02:59:59 15.1 C 68 % 9.24 C
3015 10-06-2009 03:11:59 14.9 C 71 % 9.69 C
3016 10-06-2009 03:23:59 15 C 70 % 9.58 C
3017 10-06-2009 03:35:59 14.8 C 71 % 9.6 C
3018 10-06-2009 03:47:59 14.8 C 72 % 9.81 C
3019 10-06-2009 03:58:59 14.7 C 72 % 9.71 C
3020 10-06-2009 04:10:59 14.5 C 72 % 9.52 C
3021 10-06-2009 04:22:59 14.4 C 73 % 9.63 C
3022 10-06-2009 04:35:00 14.4 C 73 % 9.63 C
3023 10-06-2009 04:47:00 14.6 C 73 % 9.82 C
3024 10-06-2009 04:59:00 14.4 C 73 % 9.63 C
3025 10-06-2009 05:11:00 14.4 C 74 % 9.83 C
Sensor: Nr:Datum:Temp:Feuchte:Taupunkt:
Aussen-T/F 3026 10-06-2009 05:23:00 14.4 C 75 % 10.03 C
3027 10-06-2009 05:35:00 14.4 C 75 % 10.03 C
3028 10-06-2009 05:47:00 14.4 C 75 % 10.03 C
3029 10-06-2009 05:59:00 14.5 C 74 % 9.93 C
3030 10-06-2009 06:11:00 14.4 C 74 % 9.83 C
3031 10-06-2009 06:23:00 14.5 C 74 % 9.93 C
3032 10-06-2009 06:35:00 14.8 C 74 % 10.22 C
3033 10-06-2009 06:47:00 14.9 C 73 % 10.11 C
3034 10-06-2009 06:59:00 15.1 C 71 % 9.89 C
3035 10-06-2009 07:11:59 15.2 C 70 % 9.77 C
3036 10-06-2009 07:23:58 15.4 C 70 % 9.96 C
3037 10-06-2009 07:35:58 15.6 C 69 % 9.94 C
3038 10-06-2009 07:47:58 15.8 C 69 % 10.13 C
3039 10-06-2009 07:59:58 16.1 C 67 % 9.98 C
3040 10-06-2009 08:11:58 16.2 C 65 % 9.62 C
3041 10-06-2009 08:23:57 16.5 C 65 % 9.9 C
3042 10-06-2009 08:35:58 16.7 C 64 % 9.86 C
3043 10-06-2009 08:47:57 16.8 C 64 % 9.96 C
3044 10-06-2009 08:59:57 16.7 C 64 % 9.86 C
3045 10-06-2009 09:11:57 17.1 C 61 % 9.53 C
3046 10-06-2009 09:23:58 16.9 C 62 % 9.58 C
3047 10-06-2009 09:35:57 16.5 C 65 % 9.9 C
3048 10-06-2009 09:47:57 15.6 C 72 % 10.57 C
3049 10-06-2009 09:59:57 15.2 C 75 % 10.8 C
3050 10-06-2009 10:11:56 14.9 C 79 % 11.29 C
Sensor: Nr:Datum:Temp:Feuchte:Taupunkt:
Aussen-T/F 3051 10-06-2009 10:23:57 14.6 C 80 % 11.19 C
3052 10-06-2009 10:35:56 15 C 81 % 11.77 C
3053 10-06-2009 10:47:56 15.3 C 80 % 11.87 C
3054 10-06-2009 10:59:57 15.7 C 77 % 11.68 C
3055 10-06-2009 11:11:56 16.2 C 74 % 11.56 C
3056 10-06-2009 11:23:56 16.9 C 72 % 11.82 C
3057 10-06-2009 11:35:56 17.3 C 68 % 11.34 C
3058 10-06-2009 11:47:56 18.3 C 63 % 11.14 C
3059 10-06-2009 11:59:56 18.4 C 62 % 10.99 C
3060 10-06-2009 12:11:56 19 C 58 % 10.56 C
3061 10-06-2009 12:23:55 19.9 C 52 % 9.76 C
3062 10-06-2009 12:35:55 20.1 C 47 % 8.45 C
3063 10-06-2009 12:47:55 20.3 C 45 % 7.99 C
3064 10-06-2009 12:59:55 19.4 C 47 % 7.81 C
3065 10-06-2009 13:11:55 19.5 C 49 % 8.51 C
3066 10-06-2009 13:23:55 22.8 C 38 % 7.75 C
3067 10-06-2009 13:35:55 23.4 C 35 % 7.08 C
3068 10-06-2009 13:47:55 21.6 C 34 % 5.08 C
3069 10-06-2009 13:59:55 22.7 C 33 % 5.61 C
3070 10-06-2009 14:11:54 22.1 C 34 % 5.52 C
3071 10-06-2009 14:23:54 22 C 32 % 4.56 C
3072 10-06-2009 14:35:54 22 C 34 % 5.43 C
3073 10-06-2009 14:47:54 22.3 C 32 % 4.82 C
3074 10-06-2009 14:59:55 22.6 C 32 % 5.08 C
3075 10-06-2009 15:11:53 22.5 C 29 % 3.6 C
Sensor: Nr:Datum:Temp:Feuchte:Taupunkt:
Aussen-T/F 3076 10-06-2009 15:23:54 23.5 C 29 % 4.45 C
3077 10-06-2009 15:35:54 23.4 C 27 % 3.35 C
3078 10-06-2009 15:47:53 23.3 C 26 % 2.74 C
3079 10-06-2009 15:59:53 23.5 C 26 % 2.91 C
3080 10-06-2009 16:11:54 23.4 C 23 % 1.11 C
3081 10-06-2009 16:23:53 22.8 C 25 % 1.77 C
3082 10-06-2009 16:35:53 23.1 C 25 % 2.02 C
3083 10-06-2009 16:47:53 24.1 C 25 % 2.86 C
3084 10-06-2009 16:59:53 23.2 C 25 % 2.1 C
3085 10-06-2009 17:11:53 23.2 C 22 % 0.33 C
3086 10-06-2009 17:23:53 23.8 C 23 % 1.44 C
3087 10-06-2009 17:35:52 22.2 C 25 % 1.26 C
3088 10-06-2009 17:47:53 22.3 C 26 % 1.89 C
3089 10-06-2009 17:59:53 21.9 C 27 % 2.08 C
3090 10-06-2009 18:11:52 21.5 C 29 % 2.74 C
3091 10-06-2009 18:23:52 19.4 C 45 % 7.17 C
3092 10-06-2009 18:35:52 17.7 C 60 % 9.84 C
3093 10-06-2009 18:47:52 18.5 C 57 % 9.83 C
3094 10-06-2009 18:59:53 18.7 C 56 % 9.75 C
3095 10-06-2009 19:11:51 18.5 C 55 % 9.3 C
3096 10-06-2009 19:23:51 18.4 C 55 % 9.2 C
3097 10-06-2009 19:35:52 18.3 C 56 % 9.38 C
3098 10-06-2009 19:47:51 17.2 C 61 % 9.62 C
3099 10-06-2009 19:59:51 15.8 C 70 % 10.34 C
3100 10-06-2009 20:11:51 15.6 C 74 % 10.99 C
Sensor: Nr:Datum:Temp:Feuchte:Taupunkt:
Aussen-T/F 3101 10-06-2009 20:23:51 15.5 C 72 % 10.48 C
3102 10-06-2009 20:35:51 15.6 C 71 % 10.37 C
3103 10-06-2009 20:47:50 15.8 C 72 % 10.77 C
3104 10-06-2009 20:59:50 15.4 C 73 % 10.59 C
3105 10-06-2009 21:11:50 15.5 C 73 % 10.69 C
3106 10-06-2009 21:23:51 15.6 C 73 % 10.78 C
3107 10-06-2009 21:35:50 15.6 C 70 % 10.15 C
3108 10-06-2009 21:47:50 15.8 C 68 % 9.91 C
3109 10-06-2009 21:59:50 15.5 C 69 % 9.84 C
3110 10-06-2009 22:11:50 14.5 C 79 % 10.91 C
3111 10-06-2009 22:24:50 14.3 C 82 % 11.27 C
3112 10-06-2009 22:36:50 14.1 C 84 % 11.44 C
3113 10-06-2009 22:48:50 14.2 C 85 % 11.72 C
3114 10-06-2009 23:00:50 14.2 C 86 % 11.89 C
3115 10-06-2009 23:12:51 14.2 C 87 % 12.07 C
3116 10-06-2009 23:24:51 14 C 87 % 11.87 C
3117 10-06-2009 23:36:51 14.1 C 87 % 11.97 C
3118 10-06-2009 23:48:51 14.4 C 85 % 11.91 C
3119 11-06-2009 00:00:51 14.5 C 84 % 11.83 C
3120 11-06-2009 00:12:51 14.2 C 83 % 11.36 C
3121 11-06-2009 00:24:51 14.2 C 84 % 11.54 C
3122 11-06-2009 00:36:51 14.1 C 84 % 11.44 C
3123 11-06-2009 00:48:51 14 C 85 % 11.52 C
3124 11-06-2009 01:00:51 13.8 C 86 % 11.5 C
3125 11-06-2009 01:12:51 13.9 C 87 % 11.77 C
Sensor: Nr:Datum:Temp:Feuchte:Taupunkt:
Aussen-T/F 3126 11-06-2009 01:24:51 13.9 C 89 % 12.12 C
3127 11-06-2009 01:36:51 13.9 C 90 % 12.29 C
3128 11-06-2009 01:48:51 13.9 C 91 % 12.46 C
3129 11-06-2009 02:00:51 14 C 91 % 12.56 C
3130 11-06-2009 02:12:51 13.9 C 92 % 12.62 C
3131 11-06-2009 02:24:51 13.9 C 92 % 12.62 C
3132 11-06-2009 02:36:51 14 C 92 % 12.72 C
3133 11-06-2009 02:48:51 14 C 92 % 12.72 C
3134 11-06-2009 03:00:52 14 C 92 % 12.72 C
3135 11-06-2009 03:12:52 14.1 C 93 % 12.99 C
3136 11-06-2009 03:24:52 14.2 C 93 % 13.08 C
3137 11-06-2009 03:36:52 14.2 C 93 % 13.08 C
3138 11-06-2009 03:48:52 14 C 93 % 12.89 C
3139 11-06-2009 04:00:52 14 C 93 % 12.89 C
3140 11-06-2009 04:12:52 14 C 94 % 13.05 C
3141 11-06-2009 04:24:52 14 C 94 % 13.05 C
3142 11-06-2009 04:36:52 14.1 C 94 % 13.15 C
3143 11-06-2009 04:48:52 14.2 C 94 % 13.25 C
3144 11-06-2009 05:00:52 14.2 C 94 % 13.25 C
3145 11-06-2009 05:12:52 14.2 C 94 % 13.25 C
3146 11-06-2009 05:24:52 14.4 C 93 % 13.28 C
3147 11-06-2009 05:36:52 14.6 C 90 % 12.98 C
3148 11-06-2009 05:48:52 14.5 C 89 % 12.71 C
3149 11-06-2009 06:00:52 14.6 C 89 % 12.81 C
3150 11-06-2009 06:12:52 14.2 C 89 % 12.41 C
Sensor: Nr:Datum:Temp:Feuchte:Taupunkt:
Aussen-T/F 3151 11-06-2009 06:24:52 14.2 C 89 % 12.41 C
3152 11-06-2009 06:36:52 14.3 C 89 % 12.51 C
3153 11-06-2009 06:48:53 14.4 C 89 % 12.61 C
3154 11-06-2009 07:00:53 14.4 C 87 % 12.27 C
3155 11-06-2009 07:12:53 14.5 C 87 % 12.36 C
3156 11-06-2009 07:24:53 14.5 C 88 % 12.54 C
3157 11-06-2009 07:36:53 14.8 C 87 % 12.66 C
3158 11-06-2009 07:48:53 14.7 C 82 % 11.66 C
3159 11-06-2009 08:00:53 14.7 C 81 % 11.48 C
3160 11-06-2009 08:12:53 14.7 C 76 % 10.52 C
3161 11-06-2009 08:24:53 14.7 C 76 % 10.52 C
3162 11-06-2009 08:36:50 14.8 C 75 % 10.42 C
3163 11-06-2009 08:48:49 14.9 C 70 % 9.48 C
3164 11-06-2009 09:00:50 15 C 68 % 9.15 C
3165 11-06-2009 09:12:50 15 C 65 % 8.48 C
3166 11-06-2009 09:24:49 15.3 C 63 % 8.31 C
3167 11-06-2009 09:36:49 15.1 C 60 % 7.4 C
3168 11-06-2009 09:48:02 15 C 61 % 7.55 C
3169 11-06-2009 10:00:02 15 C 61 % 7.55 C
3170 11-06-2009 10:12:01 14.9 C 63 % 7.93 C
3171 11-06-2009 10:24:02 15.1 C 61 % 7.64 C
3172 11-06-2009 10:36:01 15.5 C 59 % 7.53 C
3173 11-06-2009 10:48:01 15.7 C 59 % 7.72 C
3174 11-06-2009 11:00:01 15.2 C 62 % 7.98 C
3175 11-06-2009 11:12:01 15.3 C 60 % 7.59 C
Sensor: Nr:Datum:Temp:Feuchte:Taupunkt:
Aussen-T/F 3176 11-06-2009 11:24:01 15.5 C 57 % 7.03 C
3177 11-06-2009 11:36:01 15.4 C 55 % 6.42 C
3178 11-06-2009 11:48:01 15.3 C 54 % 6.06 C
3179 11-06-2009 12:00:01 15.2 C 52 % 5.42 C
3180 11-06-2009 12:12:01 15.2 C 51 % 5.14 C
3181 11-06-2009 12:24:00 15.3 C 50 % 4.95 C
3182 11-06-2009 12:36:00 15.4 C 50 % 5.04 C
3183 11-06-2009 12:48:00 15.3 C 51 % 5.23 C
3184 11-06-2009 13:00:00 15.2 C 51 % 5.14 C
3185 11-06-2009 13:12:00 15.3 C 51 % 5.23 C
3186 11-06-2009 13:24:59 15.4 C 53 % 5.88 C
3187 11-06-2009 13:36:00 15.2 C 53 % 5.69 C
3188 11-06-2009 13:48:59 15.4 C 53 % 5.88 C
3189 11-06-2009 14:00:59 15.5 C 58 % 7.28 C
3190 11-06-2009 14:12:59 15.8 C 58 % 7.56 C
3191 11-06-2009 14:24:00 17.3 C 52 % 7.36 C
3192 11-06-2009 14:36:59 16.9 C 49 % 6.13 C
3193 11-06-2009 14:48:59 16.2 C 54 % 6.89 C
3194 11-06-2009 15:00:58 16.4 C 53 % 6.81 C
3195 11-06-2009 15:12:58 16.3 C 55 % 7.25 C
3196 11-06-2009 15:24:59 16.8 C 52 % 6.9 C
3197 11-06-2009 15:36:59 16.8 C 51 % 6.62 C
3198 11-06-2009 15:48:58 17.5 C 50 % 6.97 C
3199 11-06-2009 16:00:59 16.7 C 55 % 7.62 C
3200 11-06-2009 16:12:59 16.4 C 58 % 8.12 C
Sensor: Nr:Datum:Temp:Feuchte:Taupunkt:
Aussen-T/F 3201 11-06-2009 16:24:58 17.3 C 55 % 8.18 C
3202 11-06-2009 16:36:58 16.6 C 54 % 7.26 C
3203 11-06-2009 16:48:58 16 C 58 % 7.75 C
3204 11-06-2009 17:00:58 16.2 C 56 % 7.42 C
3205 11-06-2009 17:12:59 16.4 C 56 % 7.61 C
3206 11-06-2009 17:24:57 16.4 C 60 % 8.62 C
3207 11-06-2009 17:36:57 18.3 C 55 % 9.11 C
3208 11-06-2009 17:48:57 17.5 C 54 % 8.1 C
3209 11-06-2009 18:00:57 16 C 61 % 8.49 C
3210 11-06-2009 18:12:57 14.4 C 73 % 9.63 C
3211 11-06-2009 18:24:57 13.2 C 80 % 9.83 C
3212 11-06-2009 18:36:57 13.3 C 84 % 10.66 C
3213 11-06-2009 18:48:57 14.2 C 85 % 11.72 C
3214 11-06-2009 19:00:56 14.2 C 85 % 11.72 C
3215 11-06-2009 19:12:56 15.3 C 83 % 12.43 C
3216 11-06-2009 19:24:56 16 C 77 % 11.97 C
3217 11-06-2009 19:36:57 16 C 78 % 12.17 C
3218 11-06-2009 19:48:56 14.9 C 79 % 11.29 C
3219 11-06-2009 20:00:07 14.4 C 80 % 11 C
3220 11-06-2009 20:12:07 13.4 C 83 % 10.57 C
3221 11-06-2009 20:24:07 11.9 C 82 % 8.93 C
3222 11-06-2009 20:36:07 11.9 C 83 % 9.11 C
3223 11-06-2009 20:48:56 12.3 C 82 % 9.32 C
3224 11-06-2009 21:00:56 12.5 C 82 % 9.51 C
3225 11-06-2009 21:12:56 12.5 C 80 % 9.15 C
Sensor: Nr:Datum:Temp:Feuchte:Taupunkt:
Aussen-T/F 3226 11-06-2009 21:24:56 12.6 C 80 % 9.25 C
3227 11-06-2009 21:36:56 12.5 C 80 % 9.15 C
3228 11-06-2009 21:48:56 12.3 C 81 % 9.14 C
3229 11-06-2009 22:01:57 12.3 C 81 % 9.14 C
3230 11-06-2009 22:13:57 12.4 C 81 % 9.23 C
3231 11-06-2009 22:25:57 12.4 C 80 % 9.05 C
3232 11-06-2009 22:37:57 12.5 C 79 % 8.96 C
3233 11-06-2009 22:49:57 12.4 C 80 % 9.05 C
3234 11-06-2009 23:01:57 12.4 C 80 % 9.05 C
3235 11-06-2009 23:13:57 12.4 C 79 % 8.86 C
3236 11-06-2009 23:25:57 12.1 C 79 % 8.57 C
3237 11-06-2009 23:37:58 12 C 79 % 8.48 C
3238 11-06-2009 23:49:58 12 C 78 % 8.29 C
3239 12-06-2009 00:01:58 11.5 C 79 % 7.99 C
3240 12-06-2009 00:13:58 11.4 C 79 % 7.89 C
3241 12-06-2009 00:25:58 11.3 C 79 % 7.8 C
3242 12-06-2009 00:37:58 11.5 C 79 % 7.99 C
3243 12-06-2009 00:49:58 11.7 C 78 % 8 C
3244 12-06-2009 01:01:58 11.6 C 79 % 8.09 C
3245 12-06-2009 01:13:58 11.1 C 82 % 8.15 C
3246 12-06-2009 01:25:58 10.8 C 85 % 8.38 C
3247 12-06-2009 01:37:58 10.6 C 87 % 8.53 C
3248 12-06-2009 01:49:58 10.5 C 88 % 8.6 C
3249 12-06-2009 02:01:58 10.4 C 89 % 8.67 C
3250 12-06-2009 02:13:58 10.3 C 89 % 8.57 C
Sensor: Nr:Datum:Temp:Feuchte:Taupunkt:
Aussen-T/F 3251 12-06-2009 02:25:58 10.4 C 88 % 8.5 C
3252 12-06-2009 02:37:58 10.3 C 86 % 8.06 C
3253 12-06-2009 02:49:58 10.3 C 85 % 7.89 C
3254 12-06-2009 03:01:58 10.4 C 84 % 7.82 C
3255 12-06-2009 03:13:58 10.4 C 83 % 7.64 C
3256 12-06-2009 03:25:59 10.2 C 83 % 7.45 C
3257 12-06-2009 03:37:59 10 C 84 % 7.43 C
3258 12-06-2009 03:49:59 9.9 C 85 % 7.5 C
3259 12-06-2009 04:01:59 9.9 C 86 % 7.67 C
3260 12-06-2009 04:13:59 10 C 85 % 7.6 C
3261 12-06-2009 04:25:59 9.8 C 87 % 7.74 C
3262 12-06-2009 04:37:59 9.6 C 87 % 7.55 C
3263 12-06-2009 04:49:59 9.4 C 88 % 7.52 C
3264 12-06-2009 05:01:59 9.5 C 89 % 7.78 C
3265 12-06-2009 05:13:59 9.6 C 88 % 7.71 C
3266 12-06-2009 05:25:59 9.2 C 88 % 7.32 C
3267 12-06-2009 05:37:59 9.1 C 87 % 7.05 C
3268 12-06-2009 05:49:59 9.1 C 87 % 7.05 C
3269 12-06-2009 06:01:59 9.2 C 87 % 7.15 C
3270 12-06-2009 06:13:59 9.1 C 87 % 7.05 C
3271 12-06-2009 06:25:58 9.1 C 87 % 7.05 C
3272 12-06-2009 06:37:57 9.2 C 87 % 7.15 C
3273 12-06-2009 06:49:57 9.3 C 87 % 7.25 C
3274 12-06-2009 07:01:57 9.7 C 85 % 7.3 C
3275 12-06-2009 07:13:57 10 C 81 % 6.89 C
Sensor: Nr:Datum:Temp:Feuchte:Taupunkt:
Aussen-T/F 3276 12-06-2009 07:25:57 10.1 C 80 % 6.81 C
3277 12-06-2009 07:37:56 10.2 C 79 % 6.73 C
3278 12-06-2009 07:49:56 10.4 C 79 % 6.92 C
3279 12-06-2009 08:01:57 10.5 C 78 % 6.83 C
3280 12-06-2009 08:13:57 10.8 C 78 % 7.12 C
3281 12-06-2009 08:25:56 11 C 75 % 6.75 C
3282 12-06-2009 08:37:56 11.2 C 74 % 6.74 C
3283 12-06-2009 08:49:56 11.7 C 74 % 7.23 C
3284 12-06-2009 09:01:56 12.1 C 73 % 7.41 C
3285 12-06-2009 09:13:56 12.4 C 72 % 7.5 C
3286 12-06-2009 09:25:56 12.9 C 72 % 7.98 C
3287 12-06-2009 09:37:56 13.4 C 70 % 8.05 C
3288 12-06-2009 09:49:55 14.1 C 66 % 7.85 C
3289 12-06-2009 10:01:55 15.4 C 63 % 8.4 C
3290 12-06-2009 10:13:55 16.9 C 56 % 8.07 C
3291 12-06-2009 10:25:55 17.3 C 51 % 7.08 C
3292 12-06-2009 10:37:55 17.5 C 48 % 6.38 C
3293 12-06-2009 10:49:54 17.2 C 46 % 5.49 C
3294 12-06-2009 11:01:55 16.8 C 46 % 5.13 C
3295 12-06-2009 11:13:55 17.1 C 42 % 4.1 C
3296 12-06-2009 11:25:55 17.9 C 36 % 2.63 C
3297 12-06-2009 11:37:54 18.3 C 35 % 2.59 C
3298 12-06-2009 11:49:55 18.7 C 35 % 2.94 C
3299 12-06-2009 12:01:54 18.9 C 34 % 2.71 C
3300 12-06-2009 12:13:54 17.4 C 40 % 3.68 C
Sensor: Nr:Datum:Temp:Feuchte:Taupunkt:
Aussen-T/F 3301 12-06-2009 12:25:54 18.5 C 37 % 3.55 C
3302 12-06-2009 12:37:53 20.4 C 30 % 2.26 C
3303 12-06-2009 12:49:54 20.7 C 26 % 0.53 C
3304 12-06-2009 13:01:53 18.1 C 33 % 1.59 C
3305 12-06-2009 13:13:53 20.9 C 31 % 3.16 C
3306 12-06-2009 13:25:53 23.3 C 22 % 0.41 C
3307 12-06-2009 13:37:54 21.8 C 29 % 2.99 C
3308 12-06-2009 13:49:53 20.6 C 30 % 2.44 C
3309 12-06-2009 14:01:53 21 C 27 % 1.31 C
3310 12-06-2009 14:13:53 21.2 C 25 % 0.41 C
3311 12-06-2009 14:25:53 21.3 C 26 % 1.04 C
3312 12-06-2009 14:37:53 21.3 C 28 % 2.07 C
3313 12-06-2009 14:49:52 21 C 27 % 1.31 C
3314 12-06-2009 15:01:52 20.7 C 31 % 2.98 C
3315 12-06-2009 15:13:52 21.8 C 29 % 2.99 C
3316 12-06-2009 15:25:52 21.6 C 27 % 1.82 C
3317 12-06-2009 15:37:52 21.6 C 28 % 2.33 C
3318 12-06-2009 15:49:52 21.5 C 28 % 2.24 C
3319 12-06-2009 16:01:52 21.7 C 28 % 2.41 C
3320 12-06-2009 16:13:52 21.4 C 28 % 2.16 C
3321 12-06-2009 16:25:52 22.2 C 27 % 2.33 C
3322 12-06-2009 16:37:51 23.1 C 26 % 2.57 C
3323 12-06-2009 16:49:52 23.6 C 25 % 2.44 C
3324 12-06-2009 17:01:51 22.7 C 25 % 1.68 C
3325 12-06-2009 17:13:51 22.2 C 25 % 1.26 C
Sensor: Nr:Datum:Temp:Feuchte:Taupunkt:
Aussen-T/F 3326 12-06-2009 17:25:51 21.6 C 27 % 1.82 C
3327 12-06-2009 17:37:51 23 C 23 % 0.78 C
3328 12-06-2009 17:49:51 22.7 C 25 % 1.68 C
3329 12-06-2009 18:01:51 22.2 C 25 % 1.26 C
3330 12-06-2009 18:13:51 21.8 C 26 % 1.46 C
3331 12-06-2009 18:25:50 22.7 C 25 % 1.68 C
3332 12-06-2009 18:37:51 22 C 26 % 1.63 C
3333 12-06-2009 18:49:50 22.7 C 25 % 1.68 C
3334 12-06-2009 19:01:50 22.7 C 25 % 1.68 C
3335 12-06-2009 19:13:50 22.9 C 25 % 1.85 C
3336 12-06-2009 19:25:50 23.1 C 25 % 2.02 C
3337 12-06-2009 19:37:50 22.9 C 25 % 1.85 C
3338 12-06-2009 19:49:49 22.1 C 25 % 1.17 C
3339 12-06-2009 20:01:50 21.5 C 26 % 1.21 C
3340 12-06-2009 20:13:50 21.5 C 27 % 1.73 C
3341 12-06-2009 20:25:50 20.4 C 30 % 2.26 C
3342 12-06-2009 20:37:49 20.2 C 30 % 2.09 C
3343 12-06-2009 20:49:50 20 C 30 % 1.92 C
3344 12-06-2009 21:01:48 19.7 C 32 % 2.56 C
3345 12-06-2009 21:13:48 19 C 34 % 2.8 C
3346 12-06-2009 21:25:49 18.2 C 34 % 2.1 C
3347 12-06-2009 21:37:49 17.8 C 36 % 2.55 C
3348 12-06-2009 21:49:48 17.3 C 37 % 2.49 C
3349 12-06-2009 22:01:49 16.8 C 38 % 2.42 C
3350 12-06-2009 22:13:49 16.5 C 39 % 2.51 C
Sensor: Nr:Datum:Temp:Feuchte:Taupunkt:
Aussen-T/F 3351 12-06-2009 22:26:50 16.2 C 40 % 2.6 C
3352 12-06-2009 22:38:50 15.8 C 41 % 2.59 C
3353 12-06-2009 22:50:50 15.5 C 45 % 3.63 C
3354 12-06-2009 23:02:50 15 C 47 % 3.79 C
3355 12-06-2009 23:14:50 14.6 C 49 % 4.02 C
3356 12-06-2009 23:26:50 14.3 C 51 % 4.31 C
3357 12-06-2009 23:38:50 13.9 C 55 % 5.02 C
3358 12-06-2009 23:50:50 13.4 C 57 % 5.07 C
3359 13-06-2009 00:02:50 13.2 C 59 % 5.37 C
3360 13-06-2009 00:14:50 13 C 60 % 5.43 C
3361 13-06-2009 00:26:50 12.7 C 63 % 5.85 C
3362 13-06-2009 00:38:50 12.4 C 63 % 5.56 C
3363 13-06-2009 00:50:50 12.2 C 63 % 5.37 C
3364 13-06-2009 01:02:50 12.1 C 64 % 5.51 C
3365 13-06-2009 01:14:50 11.8 C 66 % 5.66 C
3366 13-06-2009 01:26:50 11.5 C 67 % 5.59 C
3367 13-06-2009 01:38:50 11.3 C 67 % 5.4 C
3368 13-06-2009 01:50:51 11.1 C 66 % 5 C
3369 13-06-2009 02:02:51 10.9 C 68 % 5.23 C
3370 13-06-2009 02:14:51 10.7 C 69 % 5.25 C
3371 13-06-2009 02:26:51 10.6 C 70 % 5.36 C
3372 13-06-2009 02:38:51 10.3 C 72 % 5.48 C
3373 13-06-2009 02:50:51 10.2 C 72 % 5.39 C
3374 13-06-2009 03:02:51 9.9 C 74 % 5.49 C
3375 13-06-2009 03:14:51 9.7 C 75 % 5.49 C
Sensor: Nr:Datum:Temp:Feuchte:Taupunkt:
Aussen-T/F 3376 13-06-2009 03:26:51 9.5 C 76 % 5.49 C
3377 13-06-2009 03:38:51 9.5 C 76 % 5.49 C
3378 13-06-2009 03:50:51 9.2 C 78 % 5.57 C
3379 13-06-2009 04:02:51 9 C 78 % 5.38 C
3380 13-06-2009 04:14:51 8.9 C 80 % 5.64 C
3381 13-06-2009 04:26:51 8.7 C 80 % 5.45 C
3382 13-06-2009 04:38:51 8.6 C 80 % 5.35 C
3383 13-06-2009 04:50:51 8.5 C 80 % 5.25 C
3384 13-06-2009 05:02:51 8.4 C 80 % 5.16 C
3385 13-06-2009 05:14:51 8.3 C 79 % 4.88 C
3386 13-06-2009 05:26:51 8.2 C 80 % 4.96 C
3387 13-06-2009 05:38:51 8.1 C 80 % 4.86 C
3388 13-06-2009 05:50:51 8.1 C 81 % 5.04 C
3389 13-06-2009 06:02:49 8.2 C 81 % 5.14 C
3390 13-06-2009 06:14:50 8.3 C 82 % 5.41 C
3391 13-06-2009 06:26:51 8.2 C 83 % 5.49 C
3392 13-06-2009 06:38:49 8.4 C 83 % 5.69 C
3393 13-06-2009 06:50:49 8.4 C 83 % 5.69 C
3394 13-06-2009 07:02:49 8.6 C 83 % 5.88 C
3395 13-06-2009 07:14:49 8.7 C 83 % 5.98 C
3396 13-06-2009 07:26:49 8.8 C 82 % 5.9 C
3397 13-06-2009 07:38:49 9.1 C 81 % 6.02 C
3398 13-06-2009 07:50:49 9.3 C 80 % 6.03 C
3399 13-06-2009 08:02:49 9.7 C 80 % 6.42 C
3400 13-06-2009 08:14:48 10 C 75 % 5.78 C
Sensor: Nr:Datum:Temp:Feuchte:Taupunkt:
Aussen-T/F 3401 13-06-2009 08:26:48 10.2 C 73 % 5.58 C
3402 13-06-2009 08:38:48 10.6 C 73 % 5.97 C
3403 13-06-2009 08:50:48 11.7 C 69 % 6.21 C
3404 13-06-2009 09:02:47 12.5 C 64 % 5.88 C
3405 13-06-2009 09:14:48 13.3 C 62 % 6.18 C
3406 13-06-2009 09:26:48 14 C 58 % 5.88 C
3407 13-06-2009 09:38:48 14.6 C 56 % 5.93 C
3408 13-06-2009 09:50:47 15.2 C 54 % 5.96 C
3409 13-06-2009 10:02:48 15.4 C 53 % 5.88 C
3410 13-06-2009 10:14:47 15.7 C 52 % 5.88 C
3411 13-06-2009 10:26:47 16.8 C 51 % 6.62 C
3412 13-06-2009 10:38:47 17.3 C 46 % 5.58 C
3413 13-06-2009 10:50:47 18.4 C 43 % 5.61 C
3414 13-06-2009 11:02:47 18.9 C 42 % 5.72 C
3415 13-06-2009 11:14:47 19.6 C 40 % 5.64 C
3416 13-06-2009 11:26:47 19.9 C 37 % 4.79 C
3417 13-06-2009 11:38:46 20.9 C 37 % 5.68 C
3418 13-06-2009 11:50:47 20.4 C 35 % 4.44 C
3419 13-06-2009 12:02:46 21.6 C 31 % 3.76 C
3420 13-06-2009 12:14:46 21.3 C 31 % 3.5 C
3421 13-06-2009 12:26:46 23.6 C 30 % 5.03 C
3422 13-06-2009 12:38:46 24.2 C 28 % 4.55 C
3423 13-06-2009 12:50:46 24.4 C 26 % 3.67 C
3424 13-06-2009 13:02:45 25.3 C 26 % 4.43 C
3425 13-06-2009 13:14:45 25 C 25 % 3.62 C
Sensor: Nr:Datum:Temp:Feuchte:Taupunkt:
Aussen-T/F 3426 13-06-2009 13:26:45 25.5 C 24 % 3.47 C
3427 13-06-2009 13:38:46 26.6 C 22 % 3.15 C
3428 13-06-2009 13:50:45 27.1 C 22 % 3.57 C
3429 13-06-2009 14:02:45 26.9 C 21 % 2.75 C
3430 13-06-2009 14:14:45 25 C 25 % 3.62 C
3431 13-06-2009 14:26:45 25.4 C 26 % 4.52 C
3432 13-06-2009 14:38:45 25.4 C 26 % 4.52 C
3433 13-06-2009 14:50:45 26.5 C 26 % 5.45 C
3434 13-06-2009 15:02:44 25.8 C 25 % 4.3 C
3435 13-06-2009 15:14:44 26 C 26 % 5.03 C
3436 13-06-2009 15:26:44 26.7 C 25 % 5.06 C
3437 13-06-2009 15:38:44 28.1 C 23 % 5.03 C
3438 13-06-2009 15:50:44 28.8 C 22 % 4.98 C
3439 13-06-2009 16:02:44 28.2 C 22 % 4.48 C
3440 13-06-2009 16:14:44 28.4 C 22 % 4.65 C
3441 13-06-2009 16:26:44 27.5 C 22 % 3.9 C
3442 13-06-2009 16:38:44 27.9 C 25 % 6.07 C
3443 13-06-2009 16:50:43 29.9 C 21 % 5.22 C
3444 13-06-2009 17:02:44 30.5 C 20 % 5.01 C
3445 13-06-2009 17:14:43 30.9 C 20 % 5.34 C
3446 13-06-2009 17:26:43 30.1 C 20 % 4.69 C
3447 13-06-2009 17:38:43 29.8 C 20 % 4.44 C
3448 13-06-2009 17:50:43 28.8 C 22 % 4.98 C
3449 13-06-2009 18:02:43 27.9 C 23 % 4.87 C
3450 13-06-2009 18:14:43 28 C 22 % 4.32 C
Sensor: Nr:Datum:Temp:Feuchte:Taupunkt:
Aussen-T/F 3451 13-06-2009 18:26:43 27.3 C 23 % 4.37 C
3452 13-06-2009 18:38:42 27.5 C 23 % 4.53 C
3453 13-06-2009 18:50:43 27.4 C 23 % 4.45 C
3454 13-06-2009 19:02:42 27 C 24 % 4.72 C
3455 13-06-2009 19:14:42 27.8 C 23 % 4.78 C
3456 13-06-2009 19:26:42 27.7 C 24 % 5.31 C
3457 13-06-2009 19:38:42 27.6 C 24 % 5.23 C
3458 13-06-2009 19:50:42 26.9 C 25 % 5.22 C
3459 13-06-2009 20:02:41 26.8 C 25 % 5.14 C
3460 13-06-2009 20:14:42 26.1 C 26 % 5.11 C
3461 13-06-2009 20:26:42 26.1 C 26 % 5.11 C
3462 13-06-2009 20:38:42 25.5 C 28 % 5.67 C
3463 13-06-2009 20:50:41 24.6 C 32 % 6.82 C
3464 13-06-2009 21:02:42 23.7 C 36 % 7.75 C
3465 13-06-2009 21:14:41 22.7 C 39 % 8.04 C
3466 13-06-2009 21:26:41 21.6 C 40 % 7.43 C
3467 13-06-2009 21:38:41 20.7 C 42 % 7.34 C
3468 13-06-2009 21:50:40 19.8 C 44 % 7.21 C
3469 13-06-2009 22:02:41 19.5 C 46 % 7.58 C
3470 13-06-2009 22:14:40 19.1 C 46 % 7.22 C
3471 13-06-2009 22:26:40 19.1 C 46 % 7.22 C
3472 13-06-2009 22:38:41 18.9 C 46 % 7.04 C
3473 13-06-2009 22:51:41 18.6 C 48 % 7.39 C
3474 13-06-2009 23:03:41 18.2 C 48 % 7.02 C
3475 13-06-2009 23:15:41 18.1 C 49 % 7.23 C
Sensor: Nr:Datum:Temp:Feuchte:Taupunkt:
Aussen-T/F 3476 13-06-2009 23:27:41 17.9 C 51 % 7.63 C
3477 13-06-2009 23:39:41 17.3 C 51 % 7.08 C
3478 13-06-2009 23:51:41 17 C 52 % 7.08 C
3479 14-06-2009 00:03:41 16.8 C 54 % 7.45 C
3480 14-06-2009 00:15:41 16.5 C 55 % 7.44 C
3481 14-06-2009 00:27:41 16.3 C 56 % 7.52 C
3482 14-06-2009 00:39:41 16 C 59 % 8 C
3483 14-06-2009 00:51:41 15.6 C 61 % 8.11 C
3484 14-06-2009 01:03:41 15.6 C 60 % 7.87 C
3485 14-06-2009 01:15:41 15.4 C 60 % 7.68 C
3486 14-06-2009 01:27:41 15.2 C 60 % 7.5 C
3487 14-06-2009 01:39:41 15 C 63 % 8.02 C
3488 14-06-2009 01:51:41 14.8 C 64 % 8.06 C
3489 14-06-2009 02:03:41 14.7 C 65 % 8.2 C
3490 14-06-2009 02:15:41 14.6 C 66 % 8.33 C
3491 14-06-2009 02:27:42 14.3 C 67 % 8.26 C
3492 14-06-2009 02:39:42 14.1 C 69 % 8.5 C
3493 14-06-2009 02:51:42 14 C 70 % 8.62 C
3494 14-06-2009 03:03:42 13.9 C 71 % 8.73 C
3495 14-06-2009 03:15:42 13.6 C 71 % 8.45 C
3496 14-06-2009 03:27:42 13.6 C 71 % 8.45 C
3497 14-06-2009 03:39:42 13.4 C 72 % 8.46 C
3498 14-06-2009 03:51:42 13.4 C 72 % 8.46 C
3499 14-06-2009 04:03:42 13.1 C 72 % 8.17 C
3500 14-06-2009 04:15:42 12.9 C 73 % 8.18 C
Sensor: Nr:Datum:Temp:Feuchte:Taupunkt:
Aussen-T/F 3501 14-06-2009 04:27:42 12.8 C 74 % 8.29 C
3502 14-06-2009 04:39:42 12.7 C 75 % 8.39 C
3503 14-06-2009 04:51:42 12.5 C 75 % 8.19 C
3504 14-06-2009 05:03:42 12.4 C 76 % 8.29 C
3505 14-06-2009 05:15:42 12.2 C 76 % 8.1 C
3506 14-06-2009 05:27:42 12.2 C 77 % 8.29 C
3507 14-06-2009 05:39:42 12.1 C 77 % 8.2 C
3508 14-06-2009 05:51:42 12 C 78 % 8.29 C
3509 14-06-2009 06:03:42 12 C 78 % 8.29 C
3510 14-06-2009 06:15:43 12.4 C 78 % 8.68 C
3511 14-06-2009 06:27:43 12.8 C 77 % 8.87 C
3512 14-06-2009 06:39:43 13 C 76 % 8.87 C
3513 14-06-2009 06:51:43 13.2 C 75 % 8.87 C
3514 14-06-2009 07:03:43 13 C 75 % 8.68 C
3515 14-06-2009 07:15:43 13 C 76 % 8.87 C
3516 14-06-2009 07:27:43 13.1 C 76 % 8.97 C
3517 14-06-2009 07:39:43 13.4 C 75 % 9.06 C
3518 14-06-2009 07:51:43 13.4 C 75 % 9.06 C
3519 14-06-2009 08:03:41 13.6 C 74 % 9.06 C
3520 14-06-2009 08:15:41 13.6 C 74 % 9.06 C
3521 14-06-2009 08:27:41 13.8 C 72 % 8.85 C
3522 14-06-2009 08:39:41 14.2 C 70 % 8.81 C
3523 14-06-2009 08:51:40 14.8 C 70 % 9.39 C
3524 14-06-2009 09:03:41 15.3 C 68 % 9.43 C
3525 14-06-2009 09:15:41 15.9 C 66 % 9.56 C
Sensor: Nr:Datum:Temp:Feuchte:Taupunkt:
Aussen-T/F 3526 14-06-2009 09:27:41 16.7 C 65 % 10.09 C
3527 14-06-2009 09:39:41 17.6 C 62 % 10.24 C
3528 14-06-2009 09:51:40 18.3 C 58 % 9.9 C
3529 14-06-2009 10:03:40 19.4 C 56 % 10.4 C
3530 14-06-2009 10:15:40 20.1 C 53 % 10.23 C
3531 14-06-2009 10:27:40 20.8 C 50 % 10 C
3532 14-06-2009 10:39:39 21.6 C 46 % 9.49 C
3533 14-06-2009 10:51:40 21.7 C 44 % 8.92 C
3534 14-06-2009 11:03:39 22.5 C 42 % 8.96 C
3535 14-06-2009 11:15:39 23.7 C 41 % 9.68 C
3536 14-06-2009 11:27:39 24.8 C 39 % 9.91 C
3537 14-06-2009 11:39:40 25.5 C 36 % 9.34 C
3538 14-06-2009 11:51:39 26.1 C 31 % 7.66 C
3539 14-06-2009 12:03:39 26.8 C 30 % 7.78 C
3540 14-06-2009 12:15:39 26.4 C 29 % 6.94 C
3541 14-06-2009 12:27:39 27 C 30 % 7.96 C
3542 14-06-2009 12:39:39 26.1 C 29 % 6.69 C
3543 14-06-2009 12:51:38 27.9 C 27 % 7.18 C
3544 14-06-2009 13:03:39 27.5 C 27 % 6.84 C
3545 14-06-2009 13:15:38 28.3 C 27 % 7.52 C
3546 14-06-2009 13:27:38 28.2 C 27 % 7.44 C
3547 14-06-2009 13:39:38 28.2 C 27 % 7.44 C
3548 14-06-2009 13:51:37 27.8 C 26 % 6.55 C
3549 14-06-2009 14:03:38 28.7 C 27 % 7.86 C
3550 14-06-2009 14:15:38 28.9 C 27 % 8.03 C
Sensor: Nr:Datum:Temp:Feuchte:Taupunkt:
Aussen-T/F 3551 14-06-2009 14:27:38 28.3 C 28 % 8.06 C
3552 14-06-2009 14:39:37 28.6 C 27 % 7.78 C
3553 14-06-2009 14:51:38 28.6 C 27 % 7.78 C
3554 14-06-2009 15:03:37 29.1 C 26 % 7.65 C
3555 14-06-2009 15:15:37 29.6 C 25 % 7.5 C
3556 14-06-2009 15:27:37 29.6 C 25 % 7.5 C
3557 14-06-2009 15:39:36 30.2 C 25 % 8 C
3558 14-06-2009 15:51:37 30.3 C 23 % 6.87 C
3559 14-06-2009 16:03:36 30.4 C 23 % 6.95 C
3560 14-06-2009 16:15:36 30.3 C 23 % 6.87 C
3561 14-06-2009 16:27:36 30.9 C 22 % 6.72 C
3562 14-06-2009 16:39:37 31.5 C 22 % 7.22 C
3563 14-06-2009 16:51:36 30.8 C 21 % 5.96 C
3564 14-06-2009 17:03:36 31.2 C 20 % 5.59 C
3565 14-06-2009 17:15:36 31 C 21 % 6.13 C
3566 14-06-2009 17:27:36 31.2 C 20 % 5.59 C
3567 14-06-2009 17:39:36 30.7 C 23 % 7.2 C
3568 14-06-2009 17:51:35 26.2 C 36 % 9.96 C
3569 14-06-2009 18:03:36 24.8 C 47 % 12.73 C
3570 14-06-2009 18:15:35 26.4 C 39 % 11.34 C
3571 14-06-2009 18:27:35 27.9 C 37 % 11.87 C
3572 14-06-2009 18:39:35 27.2 C 37 % 11.25 C
3573 14-06-2009 18:51:35 25.1 C 47 % 13 C
3574 14-06-2009 19:03:35 24.6 C 53 % 14.39 C
3575 14-06-2009 19:15:35 22.4 C 71 % 16.88 C
Sensor: Nr:Datum:Temp:Feuchte:Taupunkt:
Aussen-T/F 3576 14-06-2009 19:27:35 22 C 81 % 18.59 C
3577 14-06-2009 19:39:34 22.4 C 81 % 18.98 C
3578 14-06-2009 19:51:35 22.3 C 79 % 18.48 C
3579 14-06-2009 20:03:34 21.8 C 78 % 17.79 C
3580 14-06-2009 20:15:34 21.6 C 78 % 17.6 C
3581 14-06-2009 20:27:34 21.2 C 77 % 17.01 C
3582 14-06-2009 20:39:34 20.7 C 80 % 17.13 C
3583 14-06-2009 20:51:34 20.6 C 83 % 17.61 C
3584 14-06-2009 21:03:34 20.4 C 84 % 17.61 C
3585 14-06-2009 21:15:33 20.4 C 85 % 17.79 C
3586 14-06-2009 21:27:33 20.4 C 85 % 17.79 C
3587 14-06-2009 21:39:33 20.1 C 85 % 17.5 C
3588 14-06-2009 21:51:33 20 C 84 % 17.21 C
3589 14-06-2009 22:03:33 19.9 C 84 % 17.12 C
3590 14-06-2009 22:16:34 19.8 C 83 % 16.83 C
3591 14-06-2009 22:28:34 19.8 C 83 % 16.83 C
3592 14-06-2009 22:40:34 19.8 C 83 % 16.83 C
3593 14-06-2009 22:52:34 19.7 C 82 % 16.54 C
3594 14-06-2009 23:04:34 19.1 C 83 % 16.15 C
3595 14-06-2009 23:16:34 18.9 C 85 % 16.32 C
3596 14-06-2009 23:28:34 18.7 C 86 % 16.31 C
3597 14-06-2009 23:40:34 18.7 C 87 % 16.49 C
3598 14-06-2009 23:52:34 18.5 C 86 % 16.11 C
3599 15-06-2009 00:04:34 18.4 C 86 % 16.02 C
3600 15-06-2009 00:16:34 18.3 C 86 % 15.92 C
Sensor: Nr:Datum:Temp:Feuchte:Taupunkt:
Aussen-T/F 3601 15-06-2009 00:28:34 18.2 C 86 % 15.82 C
3602 15-06-2009 00:40:34 18.3 C 87 % 16.1 C
3603 15-06-2009 00:52:34 18.3 C 86 % 15.92 C
3604 15-06-2009 01:04:34 17.9 C 86 % 15.53 C
3605 15-06-2009 01:16:34 17.7 C 86 % 15.33 C
3606 15-06-2009 01:28:34 17.5 C 86 % 15.13 C
3607 15-06-2009 01:40:35 17.3 C 86 % 14.94 C
3608 15-06-2009 01:52:35 17.3 C 87 % 15.12 C
3609 15-06-2009 02:04:35 17.2 C 87 % 15.02 C
3610 15-06-2009 02:16:35 17.1 C 87 % 14.92 C
3611 15-06-2009 02:28:35 17 C 87 % 14.82 C
3612 15-06-2009 02:40:35 16.9 C 87 % 14.72 C
3613 15-06-2009 02:52:35 16.9 C 87 % 14.72 C
3614 15-06-2009 03:04:35 17 C 87 % 14.82 C
3615 15-06-2009 03:16:35 17.1 C 87 % 14.92 C
3616 15-06-2009 03:28:35 17.1 C 87 % 14.92 C
3617 15-06-2009 03:40:35 17.2 C 86 % 14.84 C
3618 15-06-2009 03:52:35 17 C 85 % 14.46 C
3619 15-06-2009 04:04:35 16.8 C 86 % 14.45 C
3620 15-06-2009 04:16:35 16.8 C 87 % 14.62 C
3621 15-06-2009 04:28:35 16.6 C 87 % 14.43 C
3622 15-06-2009 04:40:35 16.4 C 87 % 14.23 C
3623 15-06-2009 04:52:35 16.3 C 87 % 14.13 C
3624 15-06-2009 05:04:35 16.3 C 88 % 14.31 C
3625 15-06-2009 05:16:35 16.4 C 89 % 14.58 C
Sensor: Nr:Datum:Temp:Feuchte:Taupunkt:
Aussen-T/F 3626 15-06-2009 05:28:36 16.5 C 89 % 14.68 C
3627 15-06-2009 05:40:36 16.6 C 89 % 14.78 C
3628 15-06-2009 05:52:36 16.6 C 89 % 14.78 C
3629 15-06-2009 06:04:36 16.8 C 88 % 14.8 C
3630 15-06-2009 06:16:36 16.5 C 88 % 14.51 C
3631 15-06-2009 06:28:36 16.8 C 88 % 14.8 C
3632 15-06-2009 06:40:36 16.9 C 87 % 14.72 C
3633 15-06-2009 06:52:36 17 C 86 % 14.64 C
3634 15-06-2009 07:04:36 17.2 C 85 % 14.66 C
3635 15-06-2009 07:16:34 16.8 C 86 % 14.45 C
3636 15-06-2009 07:28:34 17 C 85 % 14.46 C
3637 15-06-2009 07:40:34 17.3 C 85 % 14.76 C
3638 15-06-2009 07:52:33 17.5 C 84 % 14.77 C
3639 15-06-2009 08:04:34 17.8 C 84 % 15.06 C
3640 15-06-2009 08:16:33 17.8 C 84 % 15.06 C
3641 15-06-2009 08:28:33 17.9 C 85 % 15.34 C
3642 15-06-2009 08:40:33 18 C 84 % 15.26 C
3643 15-06-2009 08:52:33 18.1 C 84 % 15.35 C
3644 15-06-2009 09:04:32 18.5 C 83 % 15.56 C
3645 15-06-2009 09:16:33 18.5 C 82 % 15.37 C
3646 15-06-2009 09:28:34 18.5 C 81 % 15.18 C
3647 15-06-2009 09:40:32 18.5 C 81 % 15.18 C
3648 15-06-2009 09:52:32 18.3 C 81 % 14.98 C
3649 15-06-2009 10:04:32 18 C 81 % 14.69 C
3650 15-06-2009 10:16:32 17.9 C 84 % 15.16 C
Sensor: Nr:Datum:Temp:Feuchte:Taupunkt:
Aussen-T/F 3651 15-06-2009 10:28:32 17.9 C 85 % 15.34 C
3652 15-06-2009 10:40:32 17.8 C 86 % 15.43 C
3653 15-06-2009 10:52:32 17.6 C 86 % 15.23 C
3654 15-06-2009 11:04:32 17.2 C 87 % 15.02 C
3655 15-06-2009 11:16:31 17.2 C 88 % 15.2 C
3656 15-06-2009 11:28:31 17.3 C 89 % 15.47 C
3657 15-06-2009 11:40:31 17.3 C 89 % 15.47 C
3658 15-06-2009 11:52:31 17.3 C 90 % 15.64 C
3659 15-06-2009 12:04:31 17.5 C 91 % 16.01 C
3660 15-06-2009 12:16:31 17.5 C 91 % 16.01 C
3661 15-06-2009 12:28:31 17.5 C 91 % 16.01 C
3662 15-06-2009 12:40:30 17.8 C 92 % 16.48 C
3663 15-06-2009 12:52:31 18.1 C 91 % 16.61 C
3664 15-06-2009 13:04:30 18.3 C 91 % 16.81 C
3665 15-06-2009 13:16:30 17.9 C 92 % 16.58 C
3666 15-06-2009 13:28:30 18 C 91 % 16.51 C
3667 15-06-2009 13:40:30 18.3 C 91 % 16.81 C
3668 15-06-2009 13:52:30 18.4 C 91 % 16.9 C
3669 15-06-2009 14:04:30 18.2 C 91 % 16.71 C
3670 15-06-2009 14:16:30 17.9 C 92 % 16.58 C
3671 15-06-2009 14:28:30 17.9 C 92 % 16.58 C
3672 15-06-2009 14:40:30 17.8 C 93 % 16.65 C
3673 15-06-2009 14:52:29 17.6 C 93 % 16.45 C
3674 15-06-2009 15:04:29 17.8 C 93 % 16.65 C
3675 15-06-2009 15:16:29 17.9 C 93 % 16.75 C
Sensor: Nr:Datum:Temp:Feuchte:Taupunkt:
Aussen-T/F 3676 15-06-2009 15:28:29 17.9 C 93 % 16.75 C
3677 15-06-2009 15:40:29 17.1 C 93 % 15.96 C
3678 15-06-2009 15:52:28 16.8 C 94 % 15.83 C
3679 15-06-2009 16:04:29 16.4 C 94 % 15.43 C
3680 15-06-2009 16:16:29 16.2 C 94 % 15.23 C
3681 15-06-2009 16:28:29 16.2 C 94 % 15.23 C
3682 15-06-2009 16:40:28 16.1 C 94 % 15.13 C
3683 15-06-2009 16:52:29 16.2 C 94 % 15.23 C
3684 15-06-2009 17:04:28 15.8 C 94 % 14.84 C
3685 15-06-2009 17:16:28 16.1 C 93 % 14.97 C
3686 15-06-2009 17:28:28 16.4 C 93 % 15.27 C
3687 15-06-2009 17:40:28 16.8 C 93 % 15.66 C
3688 15-06-2009 17:52:28 16.6 C 93 % 15.46 C
3689 15-06-2009 18:04:28 16.6 C 92 % 15.3 C
3690 15-06-2009 18:16:27 16.4 C 92 % 15.1 C
3691 15-06-2009 18:28:27 16.3 C 92 % 15 C
3692 15-06-2009 18:40:28 16.2 C 92 % 14.9 C
3693 15-06-2009 18:52:27 15.7 C 90 % 14.06 C
3694 15-06-2009 19:04:27 15.8 C 88 % 13.82 C
3695 15-06-2009 19:16:26 15.7 C 88 % 13.72 C
3696 15-06-2009 19:28:26 15.5 C 89 % 13.7 C
3697 15-06-2009 19:40:27 15.4 C 90 % 13.77 C
3698 15-06-2009 19:52:26 15.2 C 91 % 13.74 C
3699 15-06-2009 20:04:26 15.1 C 92 % 13.81 C
3700 15-06-2009 20:16:27 15.2 C 92 % 13.91 C
Sensor: Nr:Datum:Temp:Feuchte:Taupunkt:
Aussen-T/F 3701 15-06-2009 20:28:27 15.2 C 93 % 14.08 C
3702 15-06-2009 20:40:26 15.1 C 93 % 13.98 C
3703 15-06-2009 20:52:26 14.9 C 94 % 13.94 C
3704 15-06-2009 21:04:26 14.7 C 93 % 13.58 C
3705 15-06-2009 21:16:26 14.8 C 93 % 13.68 C
3706 15-06-2009 21:28:26 14.9 C 94 % 13.94 C
3707 15-06-2009 21:40:26 14.8 C 94 % 13.84 C
3708 15-06-2009 21:52:25 14.8 C 94 % 13.84 C
3709 15-06-2009 22:04:25 14.8 C 94 % 13.84 C
3710 15-06-2009 22:17:26 14.6 C 94 % 13.65 C
3711 15-06-2009 22:29:26 14.7 C 93 % 13.58 C
3712 15-06-2009 22:41:26 14.4 C 92 % 13.12 C
3713 15-06-2009 22:53:26 14.1 C 91 % 12.65 C
3714 15-06-2009 23:05:26 14.1 C 91 % 12.65 C
3715 15-06-2009 23:17:26 14 C 90 % 12.39 C
3716 15-06-2009 23:29:26 13.8 C 91 % 12.36 C
3717 15-06-2009 23:41:26 13.7 C 91 % 12.26 C
3718 15-06-2009 23:53:26 13.6 C 91 % 12.16 C
3719 16-06-2009 00:05:26 13.5 C 91 % 12.06 C
3720 16-06-2009 00:17:26 13.4 C 91 % 11.96 C
3721 16-06-2009 00:29:26 13.2 C 91 % 11.76 C
3722 16-06-2009 00:41:26 13 C 92 % 11.73 C
3723 16-06-2009 00:53:26 12.8 C 92 % 11.53 C
3724 16-06-2009 01:05:27 12.8 C 93 % 11.7 C
3725 16-06-2009 01:17:27 12.7 C 93 % 11.6 C
Sensor: Nr:Datum:Temp:Feuchte:Taupunkt:
Aussen-T/F 3726 16-06-2009 01:29:27 12.5 C 93 % 11.4 C
3727 16-06-2009 01:41:27 12.3 C 93 % 11.2 C
3728 16-06-2009 01:53:27 12.1 C 93 % 11 C
3729 16-06-2009 02:05:27 12.1 C 93 % 11 C
3730 16-06-2009 02:17:27 12.1 C 93 % 11 C
3731 16-06-2009 02:29:27 12 C 94 % 11.07 C
3732 16-06-2009 02:41:27 12 C 94 % 11.07 C
3733 16-06-2009 02:53:27 12 C 94 % 11.07 C
3734 16-06-2009 03:05:27 12 C 94 % 11.07 C
3735 16-06-2009 03:17:27 12.1 C 94 % 11.16 C
3736 16-06-2009 03:29:27 12.1 C 94 % 11.16 C
3737 16-06-2009 03:41:27 12.1 C 95 % 11.32 C
3738 16-06-2009 03:53:27 11.8 C 95 % 11.03 C
3739 16-06-2009 04:05:27 11.8 C 95 % 11.03 C
3740 16-06-2009 04:17:27 12.1 C 95 % 11.32 C
3741 16-06-2009 04:29:27 12.1 C 95 % 11.32 C
3742 16-06-2009 04:41:27 12.1 C 95 % 11.32 C
3743 16-06-2009 04:53:28 12 C 95 % 11.22 C
3744 16-06-2009 05:05:28 12.1 C 95 % 11.32 C
3745 16-06-2009 05:17:28 12.2 C 95 % 11.42 C
3746 16-06-2009 05:29:28 12.4 C 95 % 11.62 C
3747 16-06-2009 05:41:28 12.4 C 95 % 11.62 C
3748 16-06-2009 05:53:28 12.4 C 95 % 11.62 C
3749 16-06-2009 06:05:28 12.4 C 95 % 11.62 C
3750 16-06-2009 06:17:28 12.4 C 95 % 11.62 C
Sensor: Nr:Datum:Temp:Feuchte:Taupunkt:
Aussen-T/F 3751 16-06-2009 06:29:28 12.4 C 95 % 11.62 C
3752 16-06-2009 06:41:28 12.3 C 95 % 11.52 C
3753 16-06-2009 06:53:26 12.3 C 95 % 11.52 C
3754 16-06-2009 07:05:26 12.3 C 95 % 11.52 C
3755 16-06-2009 07:17:26 12.4 C 95 % 11.62 C
3756 16-06-2009 07:29:26 12.5 C 95 % 11.72 C
3757 16-06-2009 07:41:26 12.6 C 95 % 11.82 C
3758 16-06-2009 07:53:25 12.6 C 95 % 11.82 C
3759 16-06-2009 08:05:26 12.8 C 95 % 12.02 C
3760 16-06-2009 08:17:25 12.7 C 95 % 11.92 C
3761 16-06-2009 08:29:25 12.9 C 95 % 12.12 C
3762 16-06-2009 08:41:25 13.2 C 95 % 12.42 C
3763 16-06-2009 08:53:25 13.2 C 95 % 12.42 C
3764 16-06-2009 09:05:25 13.6 C 95 % 12.81 C
3765 16-06-2009 09:17:25 13.5 C 95 % 12.72 C
3766 16-06-2009 09:29:25 14.1 C 94 % 13.15 C
3767 16-06-2009 09:41:24 14.5 C 92 % 13.22 C
3768 16-06-2009 09:53:25 14.4 C 89 % 12.61 C
3769 16-06-2009 10:05:24 14.7 C 84 % 12.03 C
3770 16-06-2009 10:17:24 15.2 C 79 % 11.59 C
3771 16-06-2009 10:29:24 16.5 C 75 % 12.06 C
3772 16-06-2009 10:41:24 16.1 C 73 % 11.26 C
3773 16-06-2009 10:53:24 16.6 C 72 % 11.54 C
3774 16-06-2009 11:05:23 17.7 C 65 % 11.04 C
3775 16-06-2009 11:17:23 17.5 C 63 % 10.38 C
Sensor: Nr:Datum:Temp:Feuchte:Taupunkt:
Aussen-T/F 3776 16-06-2009 11:29:23 18.1 C 61 % 10.47 C
3777 16-06-2009 11:41:24 18.7 C 54 % 9.21 C
3778 16-06-2009 11:53:23 19 C 52 % 8.93 C
3779 16-06-2009 12:05:23 19.8 C 43 % 6.87 C
3780 16-06-2009 12:17:23 20.2 C 43 % 7.23 C
3781 16-06-2009 12:29:23 20.8 C 40 % 6.72 C
3782 16-06-2009 12:41:23 21.4 C 36 % 5.73 C
3783 16-06-2009 12:53:22 20 C 39 % 5.64 C
3784 16-06-2009 13:05:23 21.6 C 35 % 5.5 C
3785 16-06-2009 13:17:23 21.7 C 34 % 5.17 C
3786 16-06-2009 13:29:23 21.5 C 35 % 5.41 C
3787 16-06-2009 13:41:22 23 C 29 % 4.03 C
3788 16-06-2009 13:53:23 23.6 C 28 % 4.04 C
3789 16-06-2009 14:05:22 22.8 C 28 % 3.36 C
3790 16-06-2009 14:17:22 22.3 C 30 % 3.9 C
3791 16-06-2009 14:29:23 22.3 C 30 % 3.9 C
3792 16-06-2009 14:41:21 22.3 C 31 % 4.37 C
3793 16-06-2009 14:53:22 20.7 C 33 % 3.87 C
3794 16-06-2009 15:05:21 19.9 C 37 % 4.79 C
3795 16-06-2009 15:17:21 20.3 C 39 % 5.9 C
3796 16-06-2009 15:29:21 21.6 C 37 % 6.3 C
3797 16-06-2009 15:41:22 20.7 C 34 % 4.29 C
3798 16-06-2009 15:53:21 18.8 C 58 % 10.37 C
3799 16-06-2009 16:05:21 20.1 C 71 % 14.68 C
3800 16-06-2009 16:17:20 22.4 C 67 % 15.97 C
Sensor: Nr:Datum:Temp:Feuchte:Taupunkt:
Aussen-T/F 3801 16-06-2009 16:29:20 21 C 48 % 9.58 C
3802 16-06-2009 16:41:21 20.4 C 44 % 7.75 C
3803 16-06-2009 16:53:20 20.7 C 37 % 5.5 C
3804 16-06-2009 17:05:20 20.3 C 40 % 6.27 C
3805 16-06-2009 17:17:20 19.6 C 43 % 6.69 C
3806 16-06-2009 17:29:20 19.6 C 51 % 9.2 C
3807 16-06-2009 17:41:20 20.1 C 51 % 9.66 C
3808 16-06-2009 17:53:19 20.9 C 47 % 9.17 C
3809 16-06-2009 18:05:20 23 C 41 % 9.05 C
3810 16-06-2009 18:17:20 23.7 C 38 % 8.55 C
3811 16-06-2009 18:29:20 23.3 C 39 % 8.58 C
3812 16-06-2009 18:41:19 24.7 C 35 % 8.22 C
3813 16-06-2009 18:53:20 22.1 C 37 % 6.74 C
3814 16-06-2009 19:05:19 20.8 C 44 % 8.11 C
3815 16-06-2009 19:17:19 22.3 C 40 % 8.06 C
3816 16-06-2009 19:29:19 20.2 C 44 % 7.57 C
3817 16-06-2009 19:41:18 20.5 C 45 % 8.17 C
3818 16-06-2009 19:53:19 20 C 44 % 7.39 C
3819 16-06-2009 20:05:19 20 C 46 % 8.04 C
3820 16-06-2009 20:17:18 20.6 C 44 % 7.93 C
3821 16-06-2009 20:29:18 20.1 C 44 % 7.48 C
3822 16-06-2009 20:41:19 19.6 C 45 % 7.35 C
3823 16-06-2009 20:53:18 19.5 C 47 % 7.9 C
3824 16-06-2009 21:05:18 19.3 C 49 % 8.33 C
3825 16-06-2009 21:17:18 18.9 C 53 % 9.12 C
Sensor: Nr:Datum:Temp:Feuchte:Taupunkt:
Aussen-T/F 3826 16-06-2009 21:29:19 18.2 C 56 % 9.29 C
3827 16-06-2009 21:41:17 17.3 C 60 % 9.47 C
3828 16-06-2009 21:53:18 16.7 C 63 % 9.63 C
3829 16-06-2009 22:05:17 16.1 C 65 % 9.53 C
3830 16-06-2009 22:17:17 15.7 C 67 % 9.6 C
3831 16-06-2009 22:29:17 15.2 C 69 % 9.56 C
3832 16-06-2009 22:42:17 15 C 71 % 9.79 C
3833 16-06-2009 22:54:17 14.9 C 74 % 10.31 C
3834 16-06-2009 23:06:17 14.8 C 74 % 10.22 C
3835 16-06-2009 23:18:17 14.6 C 75 % 10.22 C
3836 16-06-2009 23:30:17 14.5 C 76 % 10.32 C
3837 16-06-2009 23:42:17 14.3 C 77 % 10.33 C
3838 16-06-2009 23:54:17 14 C 78 % 10.23 C
3839 17-06-2009 00:06:17 13.7 C 79 % 10.13 C
3840 17-06-2009 00:18:18 13.7 C 80 % 10.32 C
3841 17-06-2009 00:30:18 13.6 C 81 % 10.4 C
3842 17-06-2009 00:42:18 13.4 C 81 % 10.21 C
3843 17-06-2009 00:54:18 13.3 C 81 % 10.11 C
3844 17-06-2009 01:06:18 13.1 C 81 % 9.92 C
3845 17-06-2009 01:18:18 12.9 C 82 % 9.9 C
3846 17-06-2009 01:30:18 12.8 C 82 % 9.81 C
3847 17-06-2009 01:42:18 12.6 C 83 % 9.79 C
3848 17-06-2009 01:54:18 12.5 C 85 % 10.05 C
3849 17-06-2009 02:06:18 12.2 C 85 % 9.76 C
3850 17-06-2009 02:18:18 11.9 C 87 % 9.81 C
Sensor: Nr:Datum:Temp:Feuchte:Taupunkt:
Aussen-T/F 3851 17-06-2009 02:30:18 11.8 C 87 % 9.71 C
3852 17-06-2009 02:42:18 11.6 C 87 % 9.51 C
3853 17-06-2009 02:54:18 11.5 C 87 % 9.41 C
3854 17-06-2009 03:06:18 11.5 C 87 % 9.41 C
3855 17-06-2009 03:18:18 11.4 C 87 % 9.32 C
3856 17-06-2009 03:30:18 11.8 C 88 % 9.88 C
3857 17-06-2009 03:42:18 12 C 87 % 9.91 C
3858 17-06-2009 03:54:18 12.2 C 86 % 9.93 C
3859 17-06-2009 04:06:18 12.2 C 85 % 9.76 C
3860 17-06-2009 04:18:19 12.2 C 85 % 9.76 C
3861 17-06-2009 04:30:19 12 C 84 % 9.38 C
3862 17-06-2009 04:42:19 11.9 C 85 % 9.46 C
3863 17-06-2009 04:54:19 11.9 C 85 % 9.46 C
3864 17-06-2009 05:06:19 12.1 C 84 % 9.48 C
3865 17-06-2009 05:18:19 11.8 C 85 % 9.36 C
3866 17-06-2009 05:30:19 11.8 C 85 % 9.36 C
3867 17-06-2009 05:42:19 11.6 C 86 % 9.34 C
3868 17-06-2009 05:54:19 11.5 C 86 % 9.24 C
3869 17-06-2009 06:06:19 11.3 C 87 % 9.22 C
3870 17-06-2009 06:18:19 11.3 C 88 % 9.39 C
3871 17-06-2009 06:30:19 11.4 C 88 % 9.49 C
3872 17-06-2009 06:42:19 11.2 C 87 % 9.12 C
3873 17-06-2009 06:54:19 11.3 C 87 % 9.22 C
3874 17-06-2009 07:06:17 11.5 C 88 % 9.58 C
3875 17-06-2009 07:18:18 11.7 C 87 % 9.61 C
Sensor: Nr:Datum:Temp:Feuchte:Taupunkt:
Aussen-T/F 3876 17-06-2009 07:30:18 11.9 C 85 % 9.46 C
3877 17-06-2009 07:42:18 12.3 C 84 % 9.68 C
3878 17-06-2009 07:54:17 12.5 C 83 % 9.69 C
3879 17-06-2009 08:06:17 13 C 81 % 9.82 C
3880 17-06-2009 08:18:17 13 C 80 % 9.63 C
3881 17-06-2009 08:30:16 13.4 C 80 % 10.02 C
3882 17-06-2009 08:42:16 14.2 C 78 % 10.42 C
3883 17-06-2009 08:54:17 14.1 C 75 % 9.74 C
3884 17-06-2009 09:06:16 14.1 C 75 % 9.74 C
3885 17-06-2009